Time,TemperatureF,DewpointF,PressureIn,WindDirection,WindDirectionDegrees,WindSpeedMPH,WindSpeedGustMPH,Humidity,HourlyPrecipIn,Conditions,Clouds,dailyrainin,SoftwareType,DateUTC
2013-03-16 00:00:00,55.3,14.9,29.93,SSE,158,0.4,0.4,20,0.00,,---,0.00,VWS V14.01,2013-03-16 06:00:00,
2013-03-16 00:01:00,55.4,16.1,29.93,SE,135,0.7,0.7,21,0.00,,---,0.00,VWS V14.01,2013-03-16 06:01:00,
2013-03-16 00:02:00,55.4,15.0,29.93,SE,135,0.4,0.7,20,0.00,,---,0.00,VWS V14.01,2013-03-16 06:02:00,
2013-03-16 00:03:00,55.6,15.2,29.93,SE,135,0.2,0.4,20,0.00,,---,0.00,VWS V14.01,2013-03-16 06:03:00,
2013-03-16 00:04:00,55.4,15.0,29.93,SE,135,0.0,0.2,20,0.00,,---,0.00,VWS V14.01,2013-03-16 06:04:00,
2013-03-16 00:05:00,55.4,15.0,29.93,SE,135,0.0,0.0,20,0.00,,---,0.00,VWS V14.01,2013-03-16 06:05:00,
2013-03-16 00:06:00,55.3,14.9,29.93,SE,135,0.0,0.0,20,0.00,,---,0.00,VWS V14.01,2013-03-16 06:06:00,
2013-03-16 00:07:00,55.1,15.9,29.93,SE,135,0.7,0.7,21,0.00,,---,0.00,VWS V14.01,2013-03-16 06:07:00,
2013-03-16 00:08:00,55.1,15.9,29.93,ESE,112,0.4,0.7,21,0.00,,---,0.00,VWS V14.01,2013-03-16 06:08:00,
2013-03-16 00:09:00,55.1,15.9,29.92,ESE,112,2.0,2.0,21,0.00,,---,0.00,VWS V14.01,2013-03-16 06:09:00,
2013-03-16 00:10:00,55.1,15.9,29.92,ESE,112,2.5,2.5,21,0.00,,---,0.00,VWS V14.01,2013-03-16 06:10:00,
2013-03-16 00:11:00,55.3,16.0,29.92,ESE,112,1.8,2.5,21,0.00,,---,0.00,VWS V14.01,2013-03-16 06:11:00,
2013-03-16 00:12:00,55.4,16.1,29.92,East,90,2.5,2.5,21,0.00,,---,0.00,VWS V14.01,2013-03-16 06:12:00,
2013-03-16 00:13:00,55.6,15.2,29.92,East,90,2.5,2.5,20,0.00,,---,0.00,VWS V14.01,2013-03-16 06:13:00,
2013-03-16 00:14:00,55.6,15.2,29.92,East,90,2.5,2.5,20,0.00,,---,0.00,VWS V14.01,2013-03-16 06:14:00,
2013-03-16 00:15:00,55.6,15.2,29.92,East,90,2.5,2.5,20,0.00,,---,0.00,VWS V14.01,2013-03-16 06:15:00,
2013-03-16 00:16:00,56.0,15.5,29.92,ESE,112,2.2,2.5,20,0.00,,---,0.00,VWS V14.01,2013-03-16 06:16:00,
2013-03-16 00:17:00,56.2,15.7,29.92,East,90,1.3,2.2,20,0.00,,---,0.00,VWS V14.01,2013-03-16 06:17:00,
2013-03-16 00:18:00,56.2,15.7,29.92,East,90,1.6,1.6,20,0.00,,---,0.00,VWS V14.01,2013-03-16 06:18:00,
2013-03-16 00:19:00,56.3,14.6,29.92,ESE,112,1.8,1.8,19,0.00,,---,0.00,VWS V14.01,2013-03-16 06:19:00,
2013-03-16 00:20:00,56.3,14.6,29.92,ESE,112,1.8,1.8,19,0.00,,---,0.00,VWS V14.01,2013-03-16 06:20:00,
2013-03-16 00:21:00,56.5,14.8,29.92,ESE,112,1.8,1.8,19,0.00,,---,0.00,VWS V14.01,2013-03-16 06:21:00,
2013-03-16 00:22:00,56.7,13.7,29.92,ESE,112,1.6,1.8,18,0.00,,---,0.00,VWS V14.01,2013-03-16 06:22:00,
2013-03-16 00:23:00,56.9,13.9,29.92,ESE,112,1.1,1.6,18,0.00,,---,0.00,VWS V14.01,2013-03-16 06:23:00,
2013-03-16 00:24:00,56.9,13.9,29.92,ESE,112,1.1,1.1,18,0.00,,---,0.00,VWS V14.01,2013-03-16 06:24:00,
2013-03-16 00:25:00,56.9,13.9,29.92,ESE,112,1.1,1.1,18,0.00,,---,0.00,VWS V14.01,2013-03-16 06:25:00,
2013-03-16 00:26:00,56.9,13.9,29.92,East,90,1.6,1.6,18,0.00,,---,0.00,VWS V14.01,2013-03-16 06:26:00,
2013-03-16 00:27:00,56.9,13.9,29.92,ENE,68,2.0,2.0,18,0.00,,---,0.00,VWS V14.01,2013-03-16 06:27:00,
2013-03-16 00:28:00,56.9,13.9,29.92,East,90,2.0,2.0,18,0.00,,---,0.00,VWS V14.01,2013-03-16 06:28:00,
2013-03-16 00:29:00,56.9,13.9,29.92,East,90,1.1,2.0,18,0.00,,---,0.00,VWS V14.01,2013-03-16 06:29:00,
2013-03-16 00:30:00,56.9,13.9,29.92,East,90,1.1,1.1,18,0.00,,---,0.00,VWS V14.01,2013-03-16 06:30:00,
2013-03-16 00:31:00,56.9,13.9,29.92,East,90,0.9,1.1,18,0.00,,---,0.00,VWS V14.01,2013-03-16 06:31:00,
2013-03-16 00:32:00,56.9,13.9,29.92,East,90,0.7,0.9,18,0.00,,---,0.00,VWS V14.01,2013-03-16 06:32:00,
2013-03-16 00:33:00,56.7,13.7,29.92,East,90,0.7,0.7,18,0.00,,---,0.00,VWS V14.01,2013-03-16 06:33:00,
2013-03-16 00:34:00,56.5,13.5,29.92,East,90,0.4,0.7,18,0.00,,---,0.00,VWS V14.01,2013-03-16 06:34:00,
2013-03-16 00:35:00,56.5,13.5,29.92,East,90,0.4,0.4,18,0.00,,---,0.00,VWS V14.01,2013-03-16 06:35:00,
2013-03-16 00:36:00,56.5,13.5,29.92,East,90,0.9,0.9,18,0.00,,---,0.00,VWS V14.01,2013-03-16 06:36:00,
2013-03-16 00:37:00,56.5,13.5,29.92,ESE,112,0.9,0.9,18,0.00,,---,0.00,VWS V14.01,2013-03-16 06:37:00,
2013-03-16 00:38:00,56.3,13.4,29.92,ESE,112,0.0,0.9,18,0.00,,---,0.00,VWS V14.01,2013-03-16 06:38:00,
2013-03-16 00:39:00,56.3,13.4,29.92,ESE,112,0.4,0.4,18,0.00,,---,0.00,VWS V14.01,2013-03-16 06:39:00,
2013-03-16 00:40:00,56.3,13.4,29.92,ESE,112,0.4,0.4,18,0.00,,---,0.00,VWS V14.01,2013-03-16 06:40:00,
2013-03-16 00:41:00,56.2,13.3,29.92,ESE,112,0.4,0.4,18,0.00,,---,0.00,VWS V14.01,2013-03-16 06:41:00,
2013-03-16 00:42:00,56.2,13.3,29.92,ESE,112,0.4,0.4,18,0.00,,---,0.00,VWS V14.01,2013-03-16 06:42:00,
2013-03-16 00:43:00,56.0,13.1,29.92,ESE,112,0.2,0.4,18,0.00,,---,0.00,VWS V14.01,2013-03-16 06:43:00,
2013-03-16 00:44:00,56.0,13.1,29.92,ESE,112,0.0,0.2,18,0.00,,---,0.00,VWS V14.01,2013-03-16 06:44:00,
2013-03-16 00:45:00,56.0,13.1,29.92,ESE,112,0.0,0.0,18,0.00,,---,0.00,VWS V14.01,2013-03-16 06:45:00,
2013-03-16 00:46:00,55.8,12.9,29.92,ESE,112,0.0,0.0,18,0.00,,---,0.00,VWS V14.01,2013-03-16 06:46:00,
2013-03-16 00:47:00,55.8,12.9,29.92,ESE,112,0.0,0.0,18,0.00,,---,0.00,VWS V14.01,2013-03-16 06:47:00,
2013-03-16 00:48:00,55.4,12.6,29.92,ESE,112,0.0,0.0,18,0.00,,---,0.00,VWS V14.01,2013-03-16 06:48:00,
2013-03-16 00:49:00,55.3,12.5,29.92,ESE,112,0.0,0.0,18,0.00,,---,0.00,VWS V14.01,2013-03-16 06:49:00,
2013-03-16 00:50:00,55.3,12.5,29.92,ESE,112,0.0,0.0,18,0.00,,---,0.00,VWS V14.01,2013-03-16 06:50:00,
2013-03-16 00:51:00,55.1,12.4,29.92,ESE,112,0.0,0.0,18,0.00,,---,0.00,VWS V14.01,2013-03-16 06:51:00,
2013-03-16 00:52:00,55.1,12.4,29.92,ESE,112,0.0,0.0,18,0.00,,---,0.00,VWS V14.01,2013-03-16 06:52:00,
2013-03-16 00:53:00,55.1,12.4,29.92,ESE,112,0.0,0.0,18,0.00,,---,0.00,VWS V14.01,2013-03-16 06:53:00,
2013-03-16 00:54:00,55.1,13.6,29.92,ESE,112,0.0,0.0,19,0.00,,---,0.00,VWS V14.01,2013-03-16 06:54:00,
2013-03-16 00:55:00,55.1,13.6,29.92,ESE,112,0.0,0.0,19,0.00,,---,0.00,VWS V14.01,2013-03-16 06:55:00,
2013-03-16 00:56:00,55.1,13.6,29.92,ESE,112,0.4,0.4,19,0.00,,---,0.00,VWS V14.01,2013-03-16 06:56:00,
2013-03-16 00:57:00,55.1,13.6,29.92,ESE,112,0.4,0.4,19,0.00,,---,0.00,VWS V14.01,2013-03-16 06:57:00,
2013-03-16 00:58:00,55.1,14.8,29.92,ESE,112,0.4,0.4,20,0.00,,---,0.00,VWS V14.01,2013-03-16 06:58:00,
2013-03-16 00:59:00,55.1,14.8,29.92,ESE,112,0.7,0.7,20,0.00,,---,0.00,VWS V14.01,2013-03-16 06:59:00,
2013-03-16 01:00:00,55.1,14.8,29.92,ESE,112,0.7,0.7,20,0.00,,---,0.00,VWS V14.01,2013-03-16 07:00:00,
2013-03-16 01:01:00,55.3,14.9,29.92,ESE,112,1.1,2.0,20,0.00,,---,0.00,VWS V14.01,2013-03-16 07:01:00,
2013-03-16 01:02:00,55.3,13.8,29.92,ESE,112,1.1,1.1,19,0.00,,---,0.00,VWS V14.01,2013-03-16 07:02:00,
2013-03-16 01:03:00,55.3,14.9,29.92,ESE,112,0.7,1.1,20,0.00,,---,0.00,VWS V14.01,2013-03-16 07:03:00,
2013-03-16 01:04:00,55.3,14.9,29.92,ESE,112,0.7,0.7,20,0.00,,---,0.00,VWS V14.01,2013-03-16 07:04:00,
2013-03-16 01:05:00,55.3,14.9,29.92,ESE,112,0.7,0.7,20,0.00,,---,0.00,VWS V14.01,2013-03-16 07:05:00,
2013-03-16 01:06:00,55.1,14.8,29.92,ESE,112,0.9,0.9,20,0.00,,---,0.00,VWS V14.01,2013-03-16 07:06:00,
2013-03-16 01:07:00,55.1,14.8,29.92,SE,135,0.9,0.9,20,0.00,,---,0.00,VWS V14.01,2013-03-16 07:07:00,
2013-03-16 01:08:00,55.3,14.9,29.92,SE,135,1.1,1.1,20,0.00,,---,0.00,VWS V14.01,2013-03-16 07:08:00,
2013-03-16 01:09:00,55.3,14.9,29.92,SE,135,1.1,1.1,20,0.00,,---,0.00,VWS V14.01,2013-03-16 07:09:00,
2013-03-16 01:10:00,55.3,14.9,29.92,SE,135,1.1,1.1,20,0.00,,---,0.00,VWS V14.01,2013-03-16 07:10:00,
2013-03-16 01:11:00,55.4,15.0,29.92,ESE,112,1.1,1.1,20,0.00,,---,0.00,VWS V14.01,2013-03-16 07:11:00,
2013-03-16 01:12:00,55.4,15.0,29.92,East,90,1.1,1.1,20,0.00,,---,0.00,VWS V14.01,2013-03-16 07:12:00,
2013-03-16 01:13:00,55.4,15.0,29.92,East,90,1.6,1.6,20,0.00,,---,0.00,VWS V14.01,2013-03-16 07:13:00,
2013-03-16 01:14:00,55.4,15.0,29.92,ENE,68,2.7,2.7,20,0.00,,---,0.00,VWS V14.01,2013-03-16 07:14:00,
2013-03-16 01:15:00,55.4,15.0,29.92,ENE,68,2.7,2.7,20,0.00,,---,0.00,VWS V14.01,2013-03-16 07:15:00,
2013-03-16 01:16:00,55.3,14.9,29.92,ENE,68,2.9,2.9,20,0.00,,---,0.00,VWS V14.01,2013-03-16 07:16:00,
2013-03-16 01:17:00,55.3,14.9,29.92,ENE,68,2.7,2.9,20,0.00,,---,0.00,VWS V14.01,2013-03-16 07:17:00,
2013-03-16 01:18:00,55.1,14.8,29.92,ENE,68,2.5,2.7,20,0.00,,---,0.00,VWS V14.01,2013-03-16 07:18:00,
2013-03-16 01:19:00,55.1,14.8,29.92,ENE,68,2.5,2.5,20,0.00,,---,0.00,VWS V14.01,2013-03-16 07:19:00,
2013-03-16 01:20:00,55.1,14.8,29.92,ENE,68,2.5,2.5,20,0.00,,---,0.00,VWS V14.01,2013-03-16 07:20:00,
2013-03-16 01:21:00,55.1,14.8,29.92,ENE,68,1.6,2.2,20,0.00,,---,0.00,VWS V14.01,2013-03-16 07:21:00,
2013-03-16 01:22:00,54.9,14.6,29.92,ENE,68,2.0,2.0,20,0.00,,---,0.00,VWS V14.01,2013-03-16 07:22:00,
2013-03-16 01:23:00,54.9,14.6,29.92,ENE,68,1.6,2.0,20,0.00,,---,0.00,VWS V14.01,2013-03-16 07:23:00,
2013-03-16 01:24:00,54.7,15.6,29.92,ENE,68,1.8,1.8,21,0.00,,---,0.00,VWS V14.01,2013-03-16 07:24:00,
2013-03-16 01:25:00,54.7,15.6,29.92,ENE,68,1.8,1.8,21,0.00,,---,0.00,VWS V14.01,2013-03-16 07:25:00,
2013-03-16 01:26:00,54.5,14.3,29.92,ENE,68,2.5,2.5,20,0.00,,---,0.00,VWS V14.01,2013-03-16 07:26:00,
2013-03-16 01:27:00,54.5,15.4,29.92,ENE,68,2.0,2.5,21,0.00,,---,0.00,VWS V14.01,2013-03-16 07:27:00,
2013-03-16 01:28:00,54.4,15.3,29.93,ENE,68,1.6,2.0,21,0.00,,---,0.00,VWS V14.01,2013-03-16 07:28:00,
2013-03-16 01:29:00,54.4,15.3,29.92,ENE,68,1.3,1.6,21,0.00,,---,0.00,VWS V14.01,2013-03-16 07:29:00,
2013-03-16 01:30:00,54.4,15.3,29.92,ENE,68,1.3,1.3,21,0.00,,---,0.00,VWS V14.01,2013-03-16 07:30:00,
2013-03-16 01:31:00,54.4,15.3,29.92,ENE,68,0.9,1.1,21,0.00,,---,0.00,VWS V14.01,2013-03-16 07:31:00,
2013-03-16 01:32:00,54.4,15.3,29.92,ENE,68,0.9,0.9,21,0.00,,---,0.00,VWS V14.01,2013-03-16 07:32:00,
2013-03-16 01:33:00,54.4,15.3,29.92,ENE,68,0.7,0.9,21,0.00,,---,0.00,VWS V14.01,2013-03-16 07:33:00,
2013-03-16 01:34:00,54.2,15.1,29.92,ENE,68,0.7,0.7,21,0.00,,---,0.00,VWS V14.01,2013-03-16 07:34:00,
2013-03-16 01:35:00,54.2,15.1,29.92,ENE,68,0.7,0.7,21,0.00,,---,0.00,VWS V14.01,2013-03-16 07:35:00,
2013-03-16 01:36:00,54.2,15.1,29.92,ENE,68,0.7,0.7,21,0.00,,---,0.00,VWS V14.01,2013-03-16 07:36:00,
2013-03-16 01:37:00,54.0,15.0,29.92,ENE,68,0.4,0.7,21,0.00,,---,0.00,VWS V14.01,2013-03-16 07:37:00,
2013-03-16 01:38:00,54.0,15.0,29.92,ENE,68,0.9,0.9,21,0.00,,---,0.00,VWS V14.01,2013-03-16 07:38:00,
2013-03-16 01:39:00,54.0,15.0,29.92,ENE,68,0.7,0.9,21,0.00,,---,0.00,VWS V14.01,2013-03-16 07:39:00,
2013-03-16 01:40:00,54.0,15.0,29.92,ENE,68,0.7,0.7,21,0.00,,---,0.00,VWS V14.01,2013-03-16 07:40:00,
2013-03-16 01:41:00,53.8,14.8,29.92,ENE,68,1.6,1.6,21,0.00,,---,0.00,VWS V14.01,2013-03-16 07:41:00,
2013-03-16 01:42:00,53.8,14.8,29.92,ENE,68,1.6,1.6,21,0.00,,---,0.00,VWS V14.01,2013-03-16 07:42:00,
2013-03-16 01:43:00,53.8,14.8,29.93,East,90,0.4,1.6,21,0.00,,---,0.00,VWS V14.01,2013-03-16 07:43:00,
2013-03-16 01:44:00,53.8,14.8,29.92,East,90,1.3,1.3,21,0.00,,---,0.00,VWS V14.01,2013-03-16 07:44:00,
2013-03-16 01:45:00,53.8,14.8,29.92,East,90,1.3,1.3,21,0.00,,---,0.00,VWS V14.01,2013-03-16 07:45:00,
2013-03-16 01:46:00,53.6,14.6,29.93,East,90,0.4,1.3,21,0.00,,---,0.00,VWS V14.01,2013-03-16 07:46:00,
2013-03-16 01:47:00,53.6,14.6,29.93,East,90,0.4,0.4,21,0.00,,---,0.00,VWS V14.01,2013-03-16 07:47:00,
2013-03-16 01:48:00,53.6,14.6,29.93,East,90,0.7,0.7,21,0.00,,---,0.00,VWS V14.01,2013-03-16 07:48:00,
2013-03-16 01:49:00,53.5,14.6,29.93,ESE,112,1.1,1.1,21,0.00,,---,0.00,VWS V14.01,2013-03-16 07:49:00,
2013-03-16 01:50:00,53.5,14.6,29.93,ESE,112,1.1,1.1,21,0.00,,---,0.00,VWS V14.01,2013-03-16 07:50:00,
2013-03-16 01:51:00,53.6,14.6,29.93,SE,135,0.9,1.1,21,0.00,,---,0.00,VWS V14.01,2013-03-16 07:51:00,
2013-03-16 01:52:00,53.6,14.6,29.93,SE,135,1.1,1.1,21,0.00,,---,0.00,VWS V14.01,2013-03-16 07:52:00,
2013-03-16 01:53:00,54.0,15.0,29.93,ESE,112,1.8,1.8,21,0.00,,---,0.00,VWS V14.01,2013-03-16 07:53:00,
2013-03-16 01:54:00,54.2,15.1,29.93,ESE,112,2.2,2.2,21,0.00,,---,0.00,VWS V14.01,2013-03-16 07:54:00,
2013-03-16 01:55:00,54.2,15.1,29.93,ESE,112,2.2,2.2,21,0.00,,---,0.00,VWS V14.01,2013-03-16 07:55:00,
2013-03-16 01:56:00,54.2,15.1,29.93,ESE,112,2.5,2.5,21,0.00,,---,0.00,VWS V14.01,2013-03-16 07:56:00,
2013-03-16 01:57:00,54.2,15.1,29.93,East,90,2.5,2.5,21,0.00,,---,0.00,VWS V14.01,2013-03-16 07:57:00,
2013-03-16 01:58:00,54.2,15.1,29.93,East,90,1.8,2.5,21,0.00,,---,0.00,VWS V14.01,2013-03-16 07:58:00,
2013-03-16 01:59:00,54.2,15.1,29.93,East,90,2.2,2.2,21,0.00,,---,0.00,VWS V14.01,2013-03-16 07:59:00,
2013-03-16 02:00:00,54.2,15.1,29.93,East,90,2.2,2.2,21,0.00,,---,0.00,VWS V14.01,2013-03-16 08:00:00,
2013-03-16 02:01:00,54.2,15.1,29.93,East,90,1.8,2.2,21,0.00,,---,0.00,VWS V14.01,2013-03-16 08:01:00,
2013-03-16 02:02:00,54.0,15.0,29.93,ESE,112,1.8,1.8,21,0.00,,---,0.00,VWS V14.01,2013-03-16 08:02:00,
2013-03-16 02:03:00,54.0,15.0,29.93,ESE,112,1.6,1.8,21,0.00,,---,0.00,VWS V14.01,2013-03-16 08:03:00,
2013-03-16 02:04:00,54.0,15.0,29.93,ESE,112,2.0,2.0,21,0.00,,---,0.00,VWS V14.01,2013-03-16 08:04:00,
2013-03-16 02:05:00,54.0,15.0,29.93,ESE,112,2.0,2.0,21,0.00,,---,0.00,VWS V14.01,2013-03-16 08:05:00,
2013-03-16 02:06:00,54.0,15.0,29.93,ESE,112,1.6,1.8,21,0.00,,---,0.00,VWS V14.01,2013-03-16 08:06:00,
2013-03-16 02:07:00,54.0,15.0,29.93,ESE,112,1.1,1.6,21,0.00,,---,0.00,VWS V14.01,2013-03-16 08:07:00,
2013-03-16 02:08:00,54.0,15.0,29.93,ESE,112,1.8,1.8,21,0.00,,---,0.00,VWS V14.01,2013-03-16 08:08:00,
2013-03-16 02:09:00,54.0,15.0,29.93,ESE,112,1.6,1.8,21,0.00,,---,0.00,VWS V14.01,2013-03-16 08:09:00,
2013-03-16 02:10:00,54.0,15.0,29.93,ESE,112,1.6,1.6,21,0.00,,---,0.00,VWS V14.01,2013-03-16 08:10:00,
2013-03-16 02:11:00,54.0,15.0,29.93,ESE,112,0.9,1.1,21,0.00,,---,0.00,VWS V14.01,2013-03-16 08:11:00,
2013-03-16 02:12:00,54.0,15.0,29.93,ESE,112,0.4,0.9,21,0.00,,---,0.00,VWS V14.01,2013-03-16 08:12:00,
2013-03-16 02:13:00,54.0,15.0,29.93,ESE,112,0.4,0.4,21,0.00,,---,0.00,VWS V14.01,2013-03-16 08:13:00,
2013-03-16 02:14:00,53.8,14.8,29.93,ESE,112,0.0,0.4,21,0.00,,---,0.00,VWS V14.01,2013-03-16 08:14:00,
2013-03-16 02:15:00,53.8,14.8,29.93,ESE,112,0.0,0.0,21,0.00,,---,0.00,VWS V14.01,2013-03-16 08:15:00,
2013-03-16 02:16:00,53.6,14.6,29.93,ESE,112,0.4,0.4,21,0.00,,---,0.00,VWS V14.01,2013-03-16 08:16:00,
2013-03-16 02:17:00,53.5,14.6,29.93,ESE,112,0.7,0.7,21,0.00,,---,0.00,VWS V14.01,2013-03-16 08:17:00,
2013-03-16 02:18:00,53.3,14.4,29.93,ESE,112,0.4,0.7,21,0.00,,---,0.00,VWS V14.01,2013-03-16 08:18:00,
2013-03-16 02:19:00,53.3,14.4,29.93,ESE,112,0.2,0.4,21,0.00,,---,0.00,VWS V14.01,2013-03-16 08:19:00,
2013-03-16 02:20:00,53.3,14.4,29.93,ESE,112,0.2,0.2,21,0.00,,---,0.00,VWS V14.01,2013-03-16 08:20:00,
2013-03-16 02:21:00,53.1,14.2,29.93,ESE,112,0.9,1.1,21,0.00,,---,0.00,VWS V14.01,2013-03-16 08:21:00,
2013-03-16 02:22:00,53.1,14.2,29.92,ESE,112,1.8,1.8,21,0.00,,---,0.00,VWS V14.01,2013-03-16 08:22:00,
2013-03-16 02:23:00,53.1,14.2,29.93,ESE,112,0.9,1.8,21,0.00,,---,0.00,VWS V14.01,2013-03-16 08:23:00,
2013-03-16 02:24:00,53.1,14.2,29.93,ESE,112,0.7,0.9,21,0.00,,---,0.00,VWS V14.01,2013-03-16 08:24:00,
2013-03-16 02:25:00,53.1,14.2,29.93,ESE,112,0.7,0.7,21,0.00,,---,0.00,VWS V14.01,2013-03-16 08:25:00,
2013-03-16 02:26:00,53.3,14.4,29.93,ESE,112,0.7,0.7,21,0.00,,---,0.00,VWS V14.01,2013-03-16 08:26:00,
2013-03-16 02:27:00,53.3,14.4,29.93,ESE,112,0.9,0.9,21,0.00,,---,0.00,VWS V14.01,2013-03-16 08:27:00,
2013-03-16 02:28:00,53.3,14.4,29.93,ESE,112,0.7,0.9,21,0.00,,---,0.00,VWS V14.01,2013-03-16 08:28:00,
2013-03-16 02:29:00,53.5,13.4,29.93,ESE,112,0.9,0.9,20,0.00,,---,0.00,VWS V14.01,2013-03-16 08:29:00,
2013-03-16 02:30:00,53.5,13.4,29.93,ESE,112,0.9,0.9,20,0.00,,---,0.00,VWS V14.01,2013-03-16 08:30:00,
2013-03-16 02:31:00,53.6,13.5,29.93,ESE,112,1.1,1.1,20,0.00,,---,0.00,VWS V14.01,2013-03-16 08:31:00,
2013-03-16 02:32:00,53.6,13.5,29.92,SE,135,0.9,1.1,20,0.00,,---,0.00,VWS V14.01,2013-03-16 08:32:00,
2013-03-16 02:33:00,53.8,13.7,29.93,SE,135,2.0,2.0,20,0.00,,---,0.00,VWS V14.01,2013-03-16 08:33:00,
2013-03-16 02:34:00,53.8,13.7,29.92,SE,135,1.6,2.0,20,0.00,,---,0.00,VWS V14.01,2013-03-16 08:34:00,
2013-03-16 02:35:00,53.8,13.7,29.92,SE,135,1.6,1.6,20,0.00,,---,0.00,VWS V14.01,2013-03-16 08:35:00,
2013-03-16 02:36:00,54.0,13.9,29.93,SSE,158,1.1,1.1,20,0.00,,---,0.00,VWS V14.01,2013-03-16 08:36:00,
2013-03-16 02:37:00,54.0,13.9,29.93,SE,135,0.4,1.1,20,0.00,,---,0.00,VWS V14.01,2013-03-16 08:37:00,
2013-03-16 02:38:00,54.0,13.9,29.93,SE,135,0.9,0.9,20,0.00,,---,0.00,VWS V14.01,2013-03-16 08:38:00,
2013-03-16 02:39:00,54.0,13.9,29.92,SE,135,1.1,1.1,20,0.00,,---,0.00,VWS V14.01,2013-03-16 08:39:00,
2013-03-16 02:40:00,54.0,13.9,29.92,SE,135,1.1,1.1,20,0.00,,---,0.00,VWS V14.01,2013-03-16 08:40:00,
2013-03-16 02:41:00,54.2,14.0,29.92,ESE,112,2.2,2.2,20,0.00,,---,0.00,VWS V14.01,2013-03-16 08:41:00,
2013-03-16 02:42:00,54.2,14.0,29.92,East,90,2.5,2.5,20,0.00,,---,0.00,VWS V14.01,2013-03-16 08:42:00,
2013-03-16 02:43:00,54.2,14.0,29.92,ESE,112,3.1,3.1,20,0.00,,---,0.00,VWS V14.01,2013-03-16 08:43:00,
2013-03-16 02:44:00,54.2,14.0,29.92,ESE,112,2.7,2.7,20,0.00,,---,0.00,VWS V14.01,2013-03-16 08:44:00,
2013-03-16 02:45:00,54.4,14.2,29.92,ESE,112,1.6,2.7,20,0.00,,---,0.00,VWS V14.01,2013-03-16 08:45:00,
2013-03-16 02:46:00,54.2,14.0,29.92,ESE,112,1.8,1.8,20,0.00,,---,0.00,VWS V14.01,2013-03-16 08:46:00,
2013-03-16 02:47:00,54.2,14.0,29.92,East,90,2.7,2.7,20,0.00,,---,0.00,VWS V14.01,2013-03-16 08:47:00,
2013-03-16 02:48:00,54.4,14.2,29.92,SE,135,1.3,2.7,20,0.00,,---,0.00,VWS V14.01,2013-03-16 08:48:00,
2013-03-16 02:49:00,54.4,14.2,29.92,SE,135,1.3,1.3,20,0.00,,---,0.00,VWS V14.01,2013-03-16 08:49:00,
2013-03-16 02:50:00,54.4,14.2,29.92,SSE,158,1.8,2.0,20,0.00,,---,0.00,VWS V14.01,2013-03-16 08:50:00,
2013-03-16 02:51:00,54.4,14.2,29.92,SE,135,2.2,2.2,20,0.00,,---,0.00,VWS V14.01,2013-03-16 08:51:00,
2013-03-16 02:52:00,54.4,14.2,29.92,East,90,2.5,2.5,20,0.00,,---,0.00,VWS V14.01,2013-03-16 08:52:00,
2013-03-16 02:53:00,54.4,14.2,29.92,ESE,112,2.5,2.5,20,0.00,,---,0.00,VWS V14.01,2013-03-16 08:53:00,
2013-03-16 02:54:00,54.4,14.2,29.92,ESE,112,2.5,2.5,20,0.00,,---,0.00,VWS V14.01,2013-03-16 08:54:00,
2013-03-16 02:55:00,54.4,14.2,29.92,SE,135,2.5,2.5,20,0.00,,---,0.00,VWS V14.01,2013-03-16 08:55:00,
2013-03-16 02:56:00,54.4,14.2,29.92,SE,135,1.1,2.5,20,0.00,,---,0.00,VWS V14.01,2013-03-16 08:56:00,
2013-03-16 02:57:00,54.4,14.2,29.92,SE,135,1.6,1.6,20,0.00,,---,0.00,VWS V14.01,2013-03-16 08:57:00,
2013-03-16 02:58:00,54.4,14.2,29.92,ESE,112,1.8,1.8,20,0.00,,---,0.00,VWS V14.01,2013-03-16 08:58:00,
2013-03-16 02:59:00,54.4,14.2,29.92,ESE,112,1.8,1.8,20,0.00,,---,0.00,VWS V14.01,2013-03-16 08:59:00,
2013-03-16 03:00:00,54.4,14.2,29.92,ESE,112,2.9,2.9,20,0.00,,---,0.00,VWS V14.01,2013-03-16 09:00:00,
2013-03-16 03:01:00,54.4,14.2,29.92,ESE,112,3.8,3.8,20,0.00,,---,0.00,VWS V14.01,2013-03-16 09:01:00,
2013-03-16 03:02:00,54.5,14.3,29.92,SSW,202,1.6,3.8,20,0.00,,---,0.00,VWS V14.01,2013-03-16 09:02:00,
2013-03-16 03:03:00,54.5,14.3,29.92,SE,135,1.8,1.8,20,0.00,,---,0.00,VWS V14.01,2013-03-16 09:03:00,
2013-03-16 03:04:00,54.5,14.3,29.92,SE,135,1.3,1.3,20,0.00,,---,0.00,VWS V14.01,2013-03-16 09:04:00,
2013-03-16 03:05:00,54.5,14.3,29.92,SE,135,1.6,1.6,20,0.00,,---,0.00,VWS V14.01,2013-03-16 09:05:00,
2013-03-16 03:06:00,54.5,14.3,29.92,ESE,112,2.9,2.9,20,0.00,,---,0.00,VWS V14.01,2013-03-16 09:06:00,
2013-03-16 03:07:00,54.7,14.4,29.92,ESE,112,1.8,2.9,20,0.00,,---,0.00,VWS V14.01,2013-03-16 09:07:00,
2013-03-16 03:08:00,54.7,14.4,29.92,ESE,112,1.8,1.8,20,0.00,,---,0.00,VWS V14.01,2013-03-16 09:08:00,
2013-03-16 03:09:00,54.7,14.4,29.92,SE,135,0.7,0.7,20,0.00,,---,0.00,VWS V14.01,2013-03-16 09:09:00,
2013-03-16 03:10:00,54.7,14.4,29.92,SE,135,1.1,1.1,20,0.00,,---,0.00,VWS V14.01,2013-03-16 09:10:00,
2013-03-16 03:11:00,54.5,14.3,29.92,SE,135,1.1,1.1,20,0.00,,---,0.00,VWS V14.01,2013-03-16 09:11:00,
2013-03-16 03:12:00,54.5,14.3,29.92,ESE,112,2.9,2.9,20,0.00,,---,0.00,VWS V14.01,2013-03-16 09:12:00,
2013-03-16 03:13:00,54.5,14.3,29.92,ESE,112,3.1,3.1,20,0.00,,---,0.00,VWS V14.01,2013-03-16 09:13:00,
2013-03-16 03:14:00,54.5,14.3,29.92,ESE,112,2.5,2.5,20,0.00,,---,0.00,VWS V14.01,2013-03-16 09:14:00,
2013-03-16 03:15:00,54.5,14.3,29.92,ESE,112,2.7,2.7,20,0.00,,---,0.00,VWS V14.01,2013-03-16 09:15:00,
2013-03-16 03:16:00,54.5,14.3,29.92,ESE,112,2.2,2.7,20,0.00,,---,0.00,VWS V14.01,2013-03-16 09:16:00,
2013-03-16 03:17:00,54.7,14.4,29.91,ESE,112,3.4,3.4,20,0.00,,---,0.00,VWS V14.01,2013-03-16 09:17:00,
2013-03-16 03:18:00,54.7,14.4,29.92,ESE,112,2.2,3.4,20,0.00,,---,0.00,VWS V14.01,2013-03-16 09:18:00,
2013-03-16 03:19:00,54.7,14.4,29.92,ESE,112,3.1,3.1,20,0.00,,---,0.00,VWS V14.01,2013-03-16 09:19:00,
2013-03-16 03:20:00,54.7,14.4,29.91,ESE,112,1.8,3.1,20,0.00,,---,0.00,VWS V14.01,2013-03-16 09:20:00,
2013-03-16 03:21:00,54.9,14.6,29.91,SE,135,2.0,2.0,20,0.00,,---,0.00,VWS V14.01,2013-03-16 09:21:00,
2013-03-16 03:22:00,54.9,14.6,29.92,SE,135,2.0,2.0,20,0.00,,---,0.00,VWS V14.01,2013-03-16 09:22:00,
2013-03-16 03:23:00,54.7,14.4,29.92,SE,135,2.5,2.5,20,0.00,,---,0.00,VWS V14.01,2013-03-16 09:23:00,
2013-03-16 03:24:00,54.7,14.4,29.91,SE,135,2.5,2.5,20,0.00,,---,0.00,VWS V14.01,2013-03-16 09:24:00,
2013-03-16 03:25:00,54.7,14.4,29.91,SE,135,1.3,2.5,20,0.00,,---,0.00,VWS V14.01,2013-03-16 09:25:00,
2013-03-16 03:26:00,54.7,14.4,29.91,SE,135,1.3,1.3,20,0.00,,---,0.00,VWS V14.01,2013-03-16 09:26:00,
2013-03-16 03:27:00,54.5,14.3,29.92,ESE,112,1.3,1.3,20,0.00,,---,0.00,VWS V14.01,2013-03-16 09:27:00,
2013-03-16 03:28:00,54.5,14.3,29.91,East,90,2.9,2.9,20,0.00,,---,0.00,VWS V14.01,2013-03-16 09:28:00,
2013-03-16 03:29:00,54.7,14.4,29.92,ESE,112,2.0,2.0,20,0.00,,---,0.00,VWS V14.01,2013-03-16 09:29:00,
2013-03-16 03:30:00,54.7,14.4,29.92,ESE,112,2.5,2.5,20,0.00,,---,0.00,VWS V14.01,2013-03-16 09:30:00,
2013-03-16 03:31:00,54.7,14.4,29.91,East,90,3.8,3.8,20,0.00,,---,0.00,VWS V14.01,2013-03-16 09:31:00,
2013-03-16 03:32:00,54.7,14.4,29.92,ESE,112,3.4,3.8,20,0.00,,---,0.00,VWS V14.01,2013-03-16 09:32:00,
2013-03-16 03:33:00,54.7,14.4,29.92,East,90,3.4,3.4,20,0.00,,---,0.00,VWS V14.01,2013-03-16 09:33:00,
2013-03-16 03:34:00,54.7,14.4,29.91,East,90,1.8,1.8,20,0.00,,---,0.00,VWS V14.01,2013-03-16 09:34:00,
2013-03-16 03:35:00,54.7,14.4,29.91,SE,135,2.5,2.5,20,0.00,,---,0.00,VWS V14.01,2013-03-16 09:35:00,
2013-03-16 03:36:00,54.7,14.4,29.91,ENE,68,1.1,2.5,20,0.00,,---,0.00,VWS V14.01,2013-03-16 09:36:00,
2013-03-16 03:37:00,54.7,14.4,29.91,ESE,112,1.3,1.3,20,0.00,,---,0.00,VWS V14.01,2013-03-16 09:37:00,
2013-03-16 03:38:00,54.7,14.4,29.91,ESE,112,2.5,2.5,20,0.00,,---,0.00,VWS V14.01,2013-03-16 09:38:00,
2013-03-16 03:39:00,54.7,14.4,29.91,ESE,112,1.1,1.1,20,0.00,,---,0.00,VWS V14.01,2013-03-16 09:39:00,
2013-03-16 03:40:00,54.7,14.4,29.91,ESE,112,1.1,1.1,20,0.00,,---,0.00,VWS V14.01,2013-03-16 09:40:00,
2013-03-16 03:41:00,54.5,14.3,29.91,ESE,112,0.9,1.1,20,0.00,,---,0.00,VWS V14.01,2013-03-16 09:41:00,
2013-03-16 03:42:00,54.5,14.3,29.91,ESE,112,1.8,1.8,20,0.00,,---,0.00,VWS V14.01,2013-03-16 09:42:00,
2013-03-16 03:43:00,54.5,14.3,29.91,ESE,112,2.2,2.2,20,0.00,,---,0.00,VWS V14.01,2013-03-16 09:43:00,
2013-03-16 03:44:00,54.5,14.3,29.91,ESE,112,1.1,1.1,20,0.00,,---,0.00,VWS V14.01,2013-03-16 09:44:00,
2013-03-16 03:45:00,54.5,14.3,29.91,SE,135,1.8,1.8,20,0.00,,---,0.00,VWS V14.01,2013-03-16 09:45:00,
2013-03-16 03:46:00,54.5,14.3,29.91,SE,135,0.4,1.8,20,0.00,,---,0.00,VWS V14.01,2013-03-16 09:46:00,
2013-03-16 03:47:00,54.5,14.3,29.91,SE,135,1.1,1.1,20,0.00,,---,0.00,VWS V14.01,2013-03-16 09:47:00,
2013-03-16 03:48:00,54.5,14.3,29.91,SE,135,1.1,1.1,20,0.00,,---,0.00,VWS V14.01,2013-03-16 09:48:00,
2013-03-16 03:49:00,54.4,14.2,29.91,SE,135,0.9,0.9,20,0.00,,---,0.00,VWS V14.01,2013-03-16 09:49:00,
2013-03-16 03:50:00,54.4,14.2,29.91,SE,135,1.8,1.8,20,0.00,,---,0.00,VWS V14.01,2013-03-16 09:50:00,
2013-03-16 03:51:00,54.4,14.2,29.91,SE,135,0.9,1.8,20,0.00,,---,0.00,VWS V14.01,2013-03-16 09:51:00,
2013-03-16 03:52:00,54.4,14.2,29.91,SE,135,1.6,1.6,20,0.00,,---,0.00,VWS V14.01,2013-03-16 09:52:00,
2013-03-16 03:53:00,54.4,14.2,29.91,SE,135,1.6,1.6,20,0.00,,---,0.00,VWS V14.01,2013-03-16 09:53:00,
2013-03-16 03:54:00,54.4,14.2,29.91,ESE,112,1.1,1.1,20,0.00,,---,0.00,VWS V14.01,2013-03-16 09:54:00,
2013-03-16 03:55:00,54.4,14.2,29.91,ESE,112,2.0,2.0,20,0.00,,---,0.00,VWS V14.01,2013-03-16 09:55:00,
2013-03-16 03:56:00,54.4,14.2,29.91,ESE,112,1.3,2.0,20,0.00,,---,0.00,VWS V14.01,2013-03-16 09:56:00,
2013-03-16 03:57:00,54.5,14.3,29.91,ESE,112,1.8,1.8,20,0.00,,---,0.00,VWS V14.01,2013-03-16 09:57:00,
2013-03-16 03:58:00,54.5,14.3,29.91,ESE,112,0.9,1.8,20,0.00,,---,0.00,VWS V14.01,2013-03-16 09:58:00,
2013-03-16 03:59:00,54.5,14.3,29.91,ESE,112,1.1,1.1,20,0.00,,---,0.00,VWS V14.01,2013-03-16 09:59:00,
2013-03-16 04:00:00,54.5,14.3,29.91,ESE,112,1.1,1.1,20,0.00,,---,0.00,VWS V14.01,2013-03-16 10:00:00,
2013-03-16 04:01:00,54.5,14.3,29.91,ESE,112,1.1,1.1,20,0.00,,---,0.00,VWS V14.01,2013-03-16 10:01:00,
2013-03-16 04:02:00,54.5,14.3,29.91,ESE,112,1.3,1.3,20,0.00,,---,0.00,VWS V14.01,2013-03-16 10:02:00,
2013-03-16 04:03:00,54.4,14.2,29.91,SE,135,1.1,1.3,20,0.00,,---,0.00,VWS V14.01,2013-03-16 10:03:00,
2013-03-16 04:04:00,54.4,14.2,29.91,SE,135,0.9,0.9,20,0.00,,---,0.00,VWS V14.01,2013-03-16 10:04:00,
2013-03-16 04:05:00,54.4,14.2,29.91,SE,135,0.7,0.9,20,0.00,,---,0.00,VWS V14.01,2013-03-16 10:05:00,
2013-03-16 04:06:00,54.4,14.2,29.91,SE,135,1.1,1.1,20,0.00,,---,0.00,VWS V14.01,2013-03-16 10:06:00,
2013-03-16 04:07:00,54.4,14.2,29.91,SE,135,0.9,1.1,20,0.00,,---,0.00,VWS V14.01,2013-03-16 10:07:00,
2013-03-16 04:08:00,54.4,14.2,29.91,ESE,112,1.3,1.3,20,0.00,,---,0.00,VWS V14.01,2013-03-16 10:08:00,
2013-03-16 04:09:00,54.4,14.2,29.91,ESE,112,1.3,1.3,20,0.00,,---,0.00,VWS V14.01,2013-03-16 10:09:00,
2013-03-16 04:10:00,54.4,15.3,29.91,ESE,112,1.8,1.8,21,0.00,,---,0.00,VWS V14.01,2013-03-16 10:10:00,
2013-03-16 04:11:00,54.2,14.0,29.91,East,90,2.2,2.2,20,0.00,,---,0.00,VWS V14.01,2013-03-16 10:11:00,
2013-03-16 04:12:00,54.2,15.1,29.91,ESE,112,1.1,2.2,21,0.00,,---,0.00,VWS V14.01,2013-03-16 10:12:00,
2013-03-16 04:13:00,54.2,15.1,29.91,ESE,112,1.1,1.1,21,0.00,,---,0.00,VWS V14.01,2013-03-16 10:13:00,
2013-03-16 04:14:00,54.0,15.0,29.91,ESE,112,1.6,1.6,21,0.00,,---,0.00,VWS V14.01,2013-03-16 10:14:00,
2013-03-16 04:15:00,54.0,15.0,29.91,SE,135,1.8,1.8,21,0.00,,---,0.00,VWS V14.01,2013-03-16 10:15:00,
2013-03-16 04:16:00,54.0,15.0,29.91,ESE,112,0.9,1.8,21,0.00,,---,0.00,VWS V14.01,2013-03-16 10:16:00,
2013-03-16 04:17:00,54.0,15.0,29.91,SE,135,1.3,1.3,21,0.00,,---,0.00,VWS V14.01,2013-03-16 10:17:00,
2013-03-16 04:18:00,53.8,14.8,29.91,ESE,112,2.5,2.5,21,0.00,,---,0.00,VWS V14.01,2013-03-16 10:18:00,
2013-03-16 04:19:00,53.8,14.8,29.91,SE,135,1.3,1.3,21,0.00,,---,0.00,VWS V14.01,2013-03-16 10:19:00,
2013-03-16 04:20:00,53.8,14.8,29.91,ESE,112,1.3,1.3,21,0.00,,---,0.00,VWS V14.01,2013-03-16 10:20:00,
2013-03-16 04:21:00,53.6,14.6,29.91,ESE,112,1.8,1.8,21,0.00,,---,0.00,VWS V14.01,2013-03-16 10:21:00,
2013-03-16 04:22:00,53.6,14.6,29.91,SE,135,1.1,1.8,21,0.00,,---,0.00,VWS V14.01,2013-03-16 10:22:00,
2013-03-16 04:23:00,53.6,14.6,29.91,SE,135,1.3,1.3,21,0.00,,---,0.00,VWS V14.01,2013-03-16 10:23:00,
2013-03-16 04:24:00,53.6,14.6,29.91,SE,135,1.1,1.1,21,0.00,,---,0.00,VWS V14.01,2013-03-16 10:24:00,
2013-03-16 04:25:00,53.6,14.6,29.91,SE,135,1.1,1.1,21,0.00,,---,0.00,VWS V14.01,2013-03-16 10:25:00,
2013-03-16 04:26:00,53.6,14.6,29.91,SE,135,1.6,1.6,21,0.00,,---,0.00,VWS V14.01,2013-03-16 10:26:00,
2013-03-16 04:27:00,53.6,14.6,29.91,SE,135,1.3,1.6,21,0.00,,---,0.00,VWS V14.01,2013-03-16 10:27:00,
2013-03-16 04:28:00,53.6,14.6,29.91,ESE,112,1.8,1.8,21,0.00,,---,0.00,VWS V14.01,2013-03-16 10:28:00,
2013-03-16 04:29:00,53.6,14.6,29.91,ESE,112,1.6,1.6,21,0.00,,---,0.00,VWS V14.01,2013-03-16 10:29:00,
2013-03-16 04:30:00,53.6,14.6,29.91,SE,135,0.9,1.6,21,0.00,,---,0.00,VWS V14.01,2013-03-16 10:30:00,
2013-03-16 04:31:00,53.6,14.6,29.91,SE,135,0.7,0.9,21,0.00,,---,0.00,VWS V14.01,2013-03-16 10:31:00,
2013-03-16 04:32:00,53.6,14.6,29.91,ESE,112,1.1,1.1,21,0.00,,---,0.00,VWS V14.01,2013-03-16 10:32:00,
2013-03-16 04:33:00,53.6,14.6,29.91,ESE,112,1.1,1.1,21,0.00,,---,0.00,VWS V14.01,2013-03-16 10:33:00,
2013-03-16 04:34:00,53.6,14.6,29.91,ESE,112,0.4,0.4,21,0.00,,---,0.00,VWS V14.01,2013-03-16 10:34:00,
2013-03-16 04:35:00,53.6,14.6,29.91,ESE,112,0.7,0.7,21,0.00,,---,0.00,VWS V14.01,2013-03-16 10:35:00,
2013-03-16 04:36:00,53.6,15.7,29.91,ESE,112,1.3,1.3,22,0.00,,---,0.00,VWS V14.01,2013-03-16 10:36:00,
2013-03-16 04:37:00,53.6,14.6,29.91,ESE,112,0.9,1.3,21,0.00,,---,0.00,VWS V14.01,2013-03-16 10:37:00,
2013-03-16 04:38:00,53.6,14.6,29.91,ESE,112,0.4,0.9,21,0.00,,---,0.00,VWS V14.01,2013-03-16 10:38:00,
2013-03-16 04:39:00,53.6,15.7,29.91,ESE,112,1.1,1.1,22,0.00,,---,0.00,VWS V14.01,2013-03-16 10:39:00,
2013-03-16 04:40:00,53.6,15.7,29.91,ESE,112,0.9,1.1,22,0.00,,---,0.00,VWS V14.01,2013-03-16 10:40:00,
2013-03-16 04:41:00,53.6,15.7,29.91,ESE,112,1.1,1.1,22,0.00,,---,0.00,VWS V14.01,2013-03-16 10:41:00,
2013-03-16 04:42:00,53.6,15.7,29.91,ESE,112,1.8,1.8,22,0.00,,---,0.00,VWS V14.01,2013-03-16 10:42:00,
2013-03-16 04:43:00,53.6,15.7,29.91,ESE,112,0.9,1.8,22,0.00,,---,0.00,VWS V14.01,2013-03-16 10:43:00,
2013-03-16 04:44:00,53.6,15.7,29.91,ESE,112,0.7,0.7,22,0.00,,---,0.00,VWS V14.01,2013-03-16 10:44:00,
2013-03-16 04:45:00,53.6,15.7,29.91,ESE,112,0.9,0.9,22,0.00,,---,0.00,VWS V14.01,2013-03-16 10:45:00,
2013-03-16 04:46:00,53.5,15.6,29.91,ESE,112,1.1,1.1,22,0.00,,---,0.00,VWS V14.01,2013-03-16 10:46:00,
2013-03-16 04:47:00,53.5,15.6,29.91,ESE,112,1.6,1.6,22,0.00,,---,0.00,VWS V14.01,2013-03-16 10:47:00,
2013-03-16 04:48:00,53.5,15.6,29.91,ESE,112,2.2,2.2,22,0.00,,---,0.00,VWS V14.01,2013-03-16 10:48:00,
2013-03-16 04:49:00,53.5,15.6,29.91,ESE,112,1.8,2.2,22,0.00,,---,0.00,VWS V14.01,2013-03-16 10:49:00,
2013-03-16 04:50:00,53.5,15.6,29.91,SE,135,1.1,1.8,22,0.00,,---,0.00,VWS V14.01,2013-03-16 10:50:00,
2013-03-16 04:51:00,53.5,15.6,29.91,SE,135,1.3,1.3,22,0.00,,---,0.00,VWS V14.01,2013-03-16 10:51:00,
2013-03-16 04:52:00,53.5,15.6,29.91,SE,135,0.7,1.3,22,0.00,,---,0.00,VWS V14.01,2013-03-16 10:52:00,
2013-03-16 04:53:00,53.3,15.4,29.91,SE,135,0.7,0.7,22,0.00,,---,0.00,VWS V14.01,2013-03-16 10:53:00,
2013-03-16 04:54:00,53.3,15.4,29.91,SE,135,0.7,0.7,22,0.00,,---,0.00,VWS V14.01,2013-03-16 10:54:00,
2013-03-16 04:55:00,53.3,15.4,29.91,ESE,112,1.8,1.8,22,0.00,,---,0.00,VWS V14.01,2013-03-16 10:55:00,
2013-03-16 04:56:00,53.3,15.4,29.91,ESE,112,1.8,1.8,22,0.00,,---,0.00,VWS V14.01,2013-03-16 10:56:00,
2013-03-16 04:57:00,53.3,15.4,29.91,SE,135,1.8,1.8,22,0.00,,---,0.00,VWS V14.01,2013-03-16 10:57:00,
2013-03-16 04:58:00,53.3,15.4,29.91,SE,135,2.2,2.2,22,0.00,,---,0.00,VWS V14.01,2013-03-16 10:58:00,
2013-03-16 04:59:00,53.3,15.4,29.91,SE,135,2.2,2.2,22,0.00,,---,0.00,VWS V14.01,2013-03-16 10:59:00,
2013-03-16 05:00:00,53.3,15.4,29.91,ESE,112,1.6,1.6,22,0.00,,---,0.00,VWS V14.01,2013-03-16 11:00:00,
2013-03-16 05:01:00,53.3,15.4,29.91,SE,135,2.7,2.7,22,0.00,,---,0.00,VWS V14.01,2013-03-16 11:01:00,
2013-03-16 05:02:00,53.5,15.6,29.91,SE,135,3.4,3.4,22,0.00,,---,0.00,VWS V14.01,2013-03-16 11:02:00,
2013-03-16 05:03:00,53.5,15.6,29.91,SE,135,1.8,3.4,22,0.00,,---,0.00,VWS V14.01,2013-03-16 11:03:00,
2013-03-16 05:04:00,53.5,15.6,29.91,SE,135,1.3,1.3,22,0.00,,---,0.00,VWS V14.01,2013-03-16 11:04:00,
2013-03-16 05:05:00,53.6,15.7,29.91,SE,135,1.1,1.3,22,0.00,,---,0.00,VWS V14.01,2013-03-16 11:05:00,
2013-03-16 05:06:00,53.6,15.7,29.91,SE,135,0.9,1.1,22,0.00,,---,0.00,VWS V14.01,2013-03-16 11:06:00,
2013-03-16 05:07:00,53.5,15.6,29.91,ESE,112,2.7,2.7,22,0.00,,---,0.00,VWS V14.01,2013-03-16 11:07:00,
2013-03-16 05:08:00,53.5,15.6,29.91,SE,135,2.5,2.7,22,0.00,,---,0.00,VWS V14.01,2013-03-16 11:08:00,
2013-03-16 05:09:00,53.6,15.7,29.91,ESE,112,2.0,2.0,22,0.00,,---,0.00,VWS V14.01,2013-03-16 11:09:00,
2013-03-16 05:10:00,53.6,15.7,29.91,ESE,112,1.8,2.0,22,0.00,,---,0.00,VWS V14.01,2013-03-16 11:10:00,
2013-03-16 05:11:00,53.6,15.7,29.91,ESE,112,1.8,1.8,22,0.00,,---,0.00,VWS V14.01,2013-03-16 11:11:00,
2013-03-16 05:12:00,53.6,15.7,29.91,SE,135,1.8,1.8,22,0.00,,---,0.00,VWS V14.01,2013-03-16 11:12:00,
2013-03-16 05:13:00,53.6,15.7,29.91,ESE,112,2.5,2.5,22,0.00,,---,0.00,VWS V14.01,2013-03-16 11:13:00,
2013-03-16 05:14:00,53.6,15.7,29.91,SE,135,2.5,2.5,22,0.00,,---,0.00,VWS V14.01,2013-03-16 11:14:00,
2013-03-16 05:15:00,53.6,15.7,29.91,SE,135,1.6,2.5,22,0.00,,---,0.00,VWS V14.01,2013-03-16 11:15:00,
2013-03-16 05:16:00,53.6,15.7,29.91,ESE,112,2.2,2.2,22,0.00,,---,0.00,VWS V14.01,2013-03-16 11:16:00,
2013-03-16 05:17:00,53.6,15.7,29.91,SE,135,1.1,2.2,22,0.00,,---,0.00,VWS V14.01,2013-03-16 11:17:00,
2013-03-16 05:18:00,53.6,15.7,29.91,SE,135,1.3,1.3,22,0.00,,---,0.00,VWS V14.01,2013-03-16 11:18:00,
2013-03-16 05:19:00,53.6,15.7,29.91,SE,135,1.3,1.3,22,0.00,,---,0.00,VWS V14.01,2013-03-16 11:19:00,
2013-03-16 05:20:00,53.6,15.7,29.91,SE,135,1.8,1.8,22,0.00,,---,0.00,VWS V14.01,2013-03-16 11:20:00,
2013-03-16 05:21:00,53.5,16.6,29.91,SE,135,2.0,2.0,23,0.00,,---,0.00,VWS V14.01,2013-03-16 11:21:00,
2013-03-16 05:22:00,53.5,16.6,29.91,SE,135,2.0,2.0,23,0.00,,---,0.00,VWS V14.01,2013-03-16 11:22:00,
2013-03-16 05:23:00,53.5,15.6,29.90,ESE,112,2.2,2.2,22,0.00,,---,0.00,VWS V14.01,2013-03-16 11:23:00,
2013-03-16 05:24:00,53.5,16.6,29.91,ESE,112,2.0,2.0,23,0.00,,---,0.00,VWS V14.01,2013-03-16 11:24:00,
2013-03-16 05:25:00,53.3,16.5,29.91,ESE,112,2.5,2.5,23,0.00,,---,0.00,VWS V14.01,2013-03-16 11:25:00,
2013-03-16 05:26:00,53.5,16.6,29.91,SE,135,1.8,2.5,23,0.00,,---,0.00,VWS V14.01,2013-03-16 11:26:00,
2013-03-16 05:27:00,53.5,16.6,29.91,SE,135,1.6,1.8,23,0.00,,---,0.00,VWS V14.01,2013-03-16 11:27:00,
2013-03-16 05:28:00,53.5,16.6,29.91,SE,135,1.6,1.6,23,0.00,,---,0.00,VWS V14.01,2013-03-16 11:28:00,
2013-03-16 05:29:00,53.5,16.6,29.91,ESE,112,1.3,1.3,23,0.00,,---,0.00,VWS V14.01,2013-03-16 11:29:00,
2013-03-16 05:30:00,53.3,16.5,29.91,ESE,112,1.1,1.3,23,0.00,,---,0.00,VWS V14.01,2013-03-16 11:30:00,
2013-03-16 05:31:00,53.3,16.5,29.91,SE,135,2.2,2.2,23,0.00,,---,0.00,VWS V14.01,2013-03-16 11:31:00,
2013-03-16 05:32:00,53.3,16.5,29.91,ESE,112,2.5,2.5,23,0.00,,---,0.00,VWS V14.01,2013-03-16 11:32:00,
2013-03-16 05:33:00,53.3,16.5,29.91,ESE,112,1.8,2.5,23,0.00,,---,0.00,VWS V14.01,2013-03-16 11:33:00,
2013-03-16 05:34:00,53.3,16.5,29.91,SE,135,0.9,0.9,23,0.00,,---,0.00,VWS V14.01,2013-03-16 11:34:00,
2013-03-16 05:35:00,53.3,16.5,29.91,SE,135,1.1,1.1,23,0.00,,---,0.00,VWS V14.01,2013-03-16 11:35:00,
2013-03-16 05:36:00,53.1,16.3,29.91,SE,135,1.1,1.1,23,0.00,,---,0.00,VWS V14.01,2013-03-16 11:36:00,
2013-03-16 05:37:00,53.1,16.3,29.91,ESE,112,2.5,2.5,23,0.00,,---,0.00,VWS V14.01,2013-03-16 11:37:00,
2013-03-16 05:38:00,53.1,16.3,29.91,ESE,112,2.7,2.7,23,0.00,,---,0.00,VWS V14.01,2013-03-16 11:38:00,
2013-03-16 05:39:00,53.1,16.3,29.91,ESE,112,1.6,1.6,23,0.00,,---,0.00,VWS V14.01,2013-03-16 11:39:00,
2013-03-16 05:40:00,53.1,16.3,29.91,ESE,112,1.6,1.6,23,0.00,,---,0.00,VWS V14.01,2013-03-16 11:40:00,
2013-03-16 05:41:00,53.1,16.3,29.91,ESE,112,1.1,1.6,23,0.00,,---,0.00,VWS V14.01,2013-03-16 11:41:00,
2013-03-16 05:42:00,53.1,16.3,29.91,SSE,158,0.7,1.1,23,0.00,,---,0.00,VWS V14.01,2013-03-16 11:42:00,
2013-03-16 05:43:00,53.1,16.3,29.91,SSW,202,0.4,0.7,23,0.00,,---,0.00,VWS V14.01,2013-03-16 11:43:00,
2013-03-16 05:44:00,52.9,16.1,29.91,SSE,158,0.2,0.2,23,0.00,,---,0.00,VWS V14.01,2013-03-16 11:44:00,
2013-03-16 05:45:00,52.9,16.1,29.91,SE,135,0.4,0.4,23,0.00,,---,0.00,VWS V14.01,2013-03-16 11:45:00,
2013-03-16 05:46:00,52.7,16.0,29.91,SE,135,0.4,0.4,23,0.00,,---,0.00,VWS V14.01,2013-03-16 11:46:00,
2013-03-16 05:47:00,52.7,16.0,29.91,ESE,112,0.7,0.7,23,0.00,,---,0.00,VWS V14.01,2013-03-16 11:47:00,
2013-03-16 05:48:00,52.6,16.9,29.91,ESE,112,0.9,0.9,24,0.00,,---,0.00,VWS V14.01,2013-03-16 11:48:00,
2013-03-16 05:49:00,52.6,16.9,29.91,ESE,112,0.9,0.9,24,0.00,,---,0.00,VWS V14.01,2013-03-16 11:49:00,
2013-03-16 05:50:00,52.6,16.9,29.91,ESE,112,2.2,2.2,24,0.00,,---,0.00,VWS V14.01,2013-03-16 11:50:00,
2013-03-16 05:51:00,52.6,16.9,29.91,ESE,112,1.3,2.2,24,0.00,,---,0.00,VWS V14.01,2013-03-16 11:51:00,
2013-03-16 05:52:00,52.6,16.9,29.91,ESE,112,1.1,1.3,24,0.00,,---,0.00,VWS V14.01,2013-03-16 11:52:00,
2013-03-16 05:53:00,52.6,16.9,29.91,ESE,112,1.3,1.3,24,0.00,,---,0.00,VWS V14.01,2013-03-16 11:53:00,
2013-03-16 05:54:00,52.6,16.9,29.91,ESE,112,0.9,0.9,24,0.00,,---,0.00,VWS V14.01,2013-03-16 11:54:00,
2013-03-16 05:55:00,52.6,16.9,29.91,ESE,112,0.7,0.9,24,0.00,,---,0.00,VWS V14.01,2013-03-16 11:55:00,
2013-03-16 05:56:00,52.4,16.7,29.91,ESE,112,0.9,0.9,24,0.00,,---,0.00,VWS V14.01,2013-03-16 11:56:00,
2013-03-16 05:57:00,52.4,16.7,29.91,ESE,112,0.4,0.9,24,0.00,,---,0.00,VWS V14.01,2013-03-16 11:57:00,
2013-03-16 05:58:00,52.2,16.5,29.91,ESE,112,0.4,0.4,24,0.00,,---,0.00,VWS V14.01,2013-03-16 11:58:00,
2013-03-16 05:59:00,52.2,16.5,29.91,ESE,112,0.4,0.4,24,0.00,,---,0.00,VWS V14.01,2013-03-16 11:59:00,
2013-03-16 06:00:00,52.2,16.5,29.91,East,90,0.9,0.9,24,0.00,,---,0.00,VWS V14.01,2013-03-16 12:00:00,
2013-03-16 06:01:00,52.0,16.3,29.91,ESE,112,0.4,0.9,24,0.00,,---,0.00,VWS V14.01,2013-03-16 12:01:00,
2013-03-16 06:02:00,52.0,16.3,29.91,East,90,1.6,1.6,24,0.00,,---,0.00,VWS V14.01,2013-03-16 12:02:00,
2013-03-16 06:03:00,52.0,16.3,29.91,East,90,1.1,1.6,24,0.00,,---,0.00,VWS V14.01,2013-03-16 12:03:00,
2013-03-16 06:04:00,52.0,16.4,29.91,ESE,112,1.1,1.1,24,0.00,,---,0.00,VWS V14.01,2013-03-16 12:04:00,
2013-03-16 06:05:00,52.0,16.3,29.91,East,90,1.1,1.1,24,0.00,,---,0.00,VWS V14.01,2013-03-16 12:05:00,
2013-03-16 06:06:00,52.0,16.3,29.91,East,90,1.1,1.1,24,0.00,,---,0.00,VWS V14.01,2013-03-16 12:06:00,
2013-03-16 06:07:00,52.0,16.3,29.91,East,90,1.8,1.8,24,0.00,,---,0.00,VWS V14.01,2013-03-16 12:07:00,
2013-03-16 06:08:00,52.0,16.3,29.91,East,90,2.5,2.5,24,0.00,,---,0.00,VWS V14.01,2013-03-16 12:08:00,
2013-03-16 06:09:00,52.0,16.4,29.91,East,90,1.8,1.8,24,0.00,,---,0.00,VWS V14.01,2013-03-16 12:09:00,
2013-03-16 06:10:00,52.0,16.3,29.91,ESE,112,2.2,2.2,24,0.00,,---,0.00,VWS V14.01,2013-03-16 12:10:00,
2013-03-16 06:11:00,52.0,16.3,29.91,ESE,112,1.3,2.2,24,0.00,,---,0.00,VWS V14.01,2013-03-16 12:11:00,
2013-03-16 06:12:00,52.0,16.3,29.91,East,90,0.7,1.3,24,0.00,,---,0.00,VWS V14.01,2013-03-16 12:12:00,
2013-03-16 06:13:00,52.0,16.3,29.91,ESE,112,1.6,1.6,24,0.00,,---,0.00,VWS V14.01,2013-03-16 12:13:00,
2013-03-16 06:14:00,52.0,16.4,29.91,ESE,112,1.8,1.8,24,0.00,,---,0.00,VWS V14.01,2013-03-16 12:14:00,
2013-03-16 06:15:00,52.0,17.3,29.91,ESE,112,2.0,2.0,25,0.00,,---,0.00,VWS V14.01,2013-03-16 12:15:00,
2013-03-16 06:16:00,52.0,16.3,29.91,ESE,112,0.9,2.0,24,0.00,,---,0.00,VWS V14.01,2013-03-16 12:16:00,
2013-03-16 06:17:00,52.0,16.3,29.91,ESE,112,1.8,1.8,24,0.00,,---,0.00,VWS V14.01,2013-03-16 12:17:00,
2013-03-16 06:18:00,52.2,16.5,29.91,ESE,112,1.3,1.8,24,0.00,,---,0.00,VWS V14.01,2013-03-16 12:18:00,
2013-03-16 06:19:00,52.2,16.5,29.91,ESE,112,1.1,1.1,24,0.00,,---,0.00,VWS V14.01,2013-03-16 12:19:00,
2013-03-16 06:20:00,52.2,16.5,29.91,ESE,112,2.2,2.2,24,0.00,,---,0.00,VWS V14.01,2013-03-16 12:20:00,
2013-03-16 06:21:00,52.2,16.5,29.91,ESE,112,0.9,2.2,24,0.00,,---,0.00,VWS V14.01,2013-03-16 12:21:00,
2013-03-16 06:22:00,52.2,16.5,29.91,ESE,112,1.8,1.8,24,0.00,,---,0.00,VWS V14.01,2013-03-16 12:22:00,
2013-03-16 06:23:00,52.2,16.5,29.91,ESE,112,1.8,1.8,24,0.00,,---,0.00,VWS V14.01,2013-03-16 12:23:00,
2013-03-16 06:24:00,52.2,16.5,29.91,ESE,112,1.6,1.6,24,0.00,,---,0.00,VWS V14.01,2013-03-16 12:24:00,
2013-03-16 06:25:00,52.2,16.5,29.91,ESE,112,1.3,1.6,24,0.00,,---,0.00,VWS V14.01,2013-03-16 12:25:00,
2013-03-16 06:26:00,52.2,16.5,29.91,ESE,112,1.8,1.8,24,0.00,,---,0.00,VWS V14.01,2013-03-16 12:26:00,
2013-03-16 06:27:00,52.2,17.5,29.91,ESE,112,1.8,1.8,25,0.00,,---,0.00,VWS V14.01,2013-03-16 12:27:00,
2013-03-16 06:28:00,52.2,16.5,29.91,ESE,112,1.6,1.8,24,0.00,,---,0.00,VWS V14.01,2013-03-16 12:28:00,
2013-03-16 06:29:00,52.2,17.5,29.91,ESE,112,1.6,1.6,25,0.00,,---,0.00,VWS V14.01,2013-03-16 12:29:00,
2013-03-16 06:30:00,52.2,16.5,29.91,ESE,112,0.7,1.6,24,0.00,,---,0.00,VWS V14.01,2013-03-16 12:30:00,
2013-03-16 06:31:00,52.2,17.5,29.91,ESE,112,1.1,1.1,25,0.00,,---,0.00,VWS V14.01,2013-03-16 12:31:00,
2013-03-16 06:32:00,52.2,17.5,29.91,SE,135,0.9,1.1,25,0.00,,---,0.00,VWS V14.01,2013-03-16 12:32:00,
2013-03-16 06:33:00,52.0,17.3,29.91,SE,135,0.4,0.9,25,0.00,,---,0.00,VWS V14.01,2013-03-16 12:33:00,
2013-03-16 06:34:00,51.8,17.1,29.91,SE,135,0.7,0.7,25,0.00,,---,0.00,VWS V14.01,2013-03-16 12:34:00,
2013-03-16 06:35:00,51.8,17.1,29.91,SE,135,0.4,0.7,25,0.00,,---,0.00,VWS V14.01,2013-03-16 12:35:00,
2013-03-16 06:36:00,51.7,17.0,29.91,SE,135,0.7,0.7,25,0.00,,---,0.00,VWS V14.01,2013-03-16 12:36:00,
2013-03-16 06:37:00,51.7,17.0,29.91,SE,135,0.7,0.7,25,0.00,,---,0.00,VWS V14.01,2013-03-16 12:37:00,
2013-03-16 06:38:00,51.5,16.9,29.91,SE,135,0.7,0.7,25,0.00,,---,0.00,VWS V14.01,2013-03-16 12:38:00,
2013-03-16 06:39:00,51.5,16.9,29.91,SE,135,0.7,0.7,25,0.00,,---,0.00,VWS V14.01,2013-03-16 12:39:00,
2013-03-16 06:40:00,51.5,16.9,29.91,ESE,112,1.6,1.6,25,0.00,,---,0.00,VWS V14.01,2013-03-16 12:40:00,
2013-03-16 06:41:00,51.5,16.9,29.91,SE,135,1.1,1.6,25,0.00,,---,0.00,VWS V14.01,2013-03-16 12:41:00,
2013-03-16 06:42:00,51.5,16.9,29.91,SE,135,0.7,1.1,25,0.00,,---,0.00,VWS V14.01,2013-03-16 12:42:00,
2013-03-16 06:43:00,51.5,16.9,29.91,SE,135,0.4,0.7,25,0.00,,---,0.00,VWS V14.01,2013-03-16 12:43:00,
2013-03-16 06:44:00,51.5,16.9,29.90,SE,135,1.6,1.6,25,0.00,,---,0.00,VWS V14.01,2013-03-16 12:44:00,
2013-03-16 06:45:00,51.5,16.9,29.91,SE,135,0.7,1.6,25,0.00,,---,0.00,VWS V14.01,2013-03-16 12:45:00,
2013-03-16 06:46:00,51.5,16.9,29.91,SE,135,0.7,0.7,25,0.00,,---,0.00,VWS V14.01,2013-03-16 12:46:00,
2013-03-16 06:48:00,51.3,16.7,29.91,SE,135,1.1,1.1,25,0.00,,---,0.00,VWS V14.01,2013-03-16 12:48:00,
2013-03-16 06:49:00,51.3,17.6,29.91,ESE,112,1.3,1.3,26,0.00,,---,0.00,VWS V14.01,2013-03-16 12:49:00,
2013-03-16 06:50:00,51.3,17.6,29.91,ESE,112,2.0,2.0,26,0.00,,---,0.00,VWS V14.01,2013-03-16 12:50:00,
2013-03-16 06:51:00,51.3,17.6,29.91,ESE,112,1.6,2.0,26,0.00,,---,0.00,VWS V14.01,2013-03-16 12:51:00,
2013-03-16 06:52:00,51.3,17.6,29.91,ESE,112,1.8,1.8,26,0.00,,---,0.00,VWS V14.01,2013-03-16 12:52:00,
2013-03-16 06:54:00,51.3,17.6,29.91,ESE,112,2.2,2.2,26,0.00,,---,0.00,VWS V14.01,2013-03-16 12:54:00,
2013-03-16 06:55:00,51.5,17.8,29.91,ESE,112,1.3,1.3,26,0.00,,---,0.00,VWS V14.01,2013-03-16 12:55:00,
2013-03-16 06:56:00,51.5,17.8,29.91,ESE,112,0.7,1.3,26,0.00,,---,0.00,VWS V14.01,2013-03-16 12:56:00,
2013-03-16 06:57:00,51.3,17.6,29.91,ESE,112,1.1,1.1,26,0.00,,---,0.00,VWS V14.01,2013-03-16 12:57:00,
2013-03-16 06:58:00,51.1,18.3,29.91,ESE,112,1.1,1.1,27,0.00,,---,0.00,VWS V14.01,2013-03-16 12:58:00,
2013-03-16 06:59:00,51.1,18.3,29.91,ESE,112,1.1,1.1,27,0.00,,---,0.00,VWS V14.01,2013-03-16 12:59:00,
2013-03-16 07:00:00,51.1,18.3,29.91,ESE,112,0.7,0.9,27,0.00,,---,0.00,VWS V14.01,2013-03-16 13:00:00,
2013-03-16 07:01:00,50.9,18.1,29.91,ESE,112,1.3,1.3,27,0.00,,---,0.00,VWS V14.01,2013-03-16 13:01:00,
2013-03-16 07:02:00,50.9,18.1,29.91,ESE,112,1.1,1.3,27,0.00,,---,0.00,VWS V14.01,2013-03-16 13:02:00,
2013-03-16 07:03:00,50.8,18.0,29.91,ESE,112,1.6,1.6,27,0.00,,---,0.00,VWS V14.01,2013-03-16 13:03:00,
2013-03-16 07:04:00,50.8,18.0,29.91,ESE,112,1.8,1.8,27,0.00,,---,0.00,VWS V14.01,2013-03-16 13:04:00,
2013-03-16 07:05:00,50.9,18.1,29.91,ESE,112,1.3,1.8,27,0.00,,---,0.00,VWS V14.01,2013-03-16 13:05:00,
2013-03-16 07:06:00,50.8,18.0,29.91,ESE,112,1.3,1.3,27,0.00,,---,0.00,VWS V14.01,2013-03-16 13:06:00,
2013-03-16 07:07:00,50.8,18.0,29.90,ESE,112,1.8,1.8,27,0.00,,---,0.00,VWS V14.01,2013-03-16 13:07:00,
2013-03-16 07:08:00,50.8,18.0,29.91,ESE,112,1.6,1.8,27,0.00,,---,0.00,VWS V14.01,2013-03-16 13:08:00,
2013-03-16 07:09:00,50.8,18.0,29.90,ESE,112,1.1,1.1,27,0.00,,---,0.00,VWS V14.01,2013-03-16 13:09:00,
2013-03-16 07:10:00,50.8,18.0,29.90,ESE,112,2.2,2.2,27,0.00,,---,0.00,VWS V14.01,2013-03-16 13:10:00,
2013-03-16 07:11:00,50.9,18.1,29.90,ESE,112,1.8,2.2,27,0.00,,---,0.00,VWS V14.01,2013-03-16 13:11:00,
2013-03-16 07:12:00,50.9,18.1,29.90,ESE,112,2.2,2.2,27,0.00,,---,0.00,VWS V14.01,2013-03-16 13:12:00,
2013-03-16 07:13:00,50.9,18.1,29.91,ESE,112,2.7,2.7,27,0.00,,---,0.00,VWS V14.01,2013-03-16 13:13:00,
2013-03-16 07:14:00,50.9,18.1,29.91,East,90,1.3,1.3,27,0.00,,---,0.00,VWS V14.01,2013-03-16 13:14:00,
2013-03-16 07:15:00,51.1,18.3,29.91,East,90,1.1,1.3,27,0.00,,---,0.00,VWS V14.01,2013-03-16 13:15:00,
2013-03-16 07:16:00,50.9,18.1,29.91,East,90,0.7,1.1,27,0.00,,---,0.00,VWS V14.01,2013-03-16 13:16:00,
2013-03-16 07:17:00,50.9,18.1,29.91,ESE,112,1.6,1.6,27,0.00,,---,0.00,VWS V14.01,2013-03-16 13:17:00,
2013-03-16 07:18:00,51.1,18.3,29.91,ESE,112,1.8,1.8,27,0.00,,---,0.00,VWS V14.01,2013-03-16 13:18:00,
2013-03-16 07:19:00,51.1,18.3,29.91,ESE,112,1.1,1.1,27,0.00,,---,0.00,VWS V14.01,2013-03-16 13:19:00,
2013-03-16 07:20:00,51.1,18.3,29.91,ESE,112,1.8,1.8,27,0.00,,---,0.00,VWS V14.01,2013-03-16 13:20:00,
2013-03-16 07:21:00,51.1,18.3,29.91,ESE,112,1.8,1.8,27,0.00,,---,0.00,VWS V14.01,2013-03-16 13:21:00,
2013-03-16 07:22:00,51.3,18.5,29.91,ESE,112,2.2,2.2,27,0.00,,---,0.00,VWS V14.01,2013-03-16 13:22:00,
2013-03-16 07:23:00,51.3,18.5,29.91,ESE,112,2.0,2.2,27,0.00,,---,0.00,VWS V14.01,2013-03-16 13:23:00,
2013-03-16 07:24:00,51.1,18.3,29.91,ESE,112,2.5,2.5,27,0.00,,---,0.00,VWS V14.01,2013-03-16 13:24:00,
2013-03-16 07:25:00,51.3,18.5,29.91,ESE,112,3.1,3.1,27,0.00,,---,0.00,VWS V14.01,2013-03-16 13:25:00,
2013-03-16 07:26:00,51.1,18.3,29.91,ESE,112,2.7,3.1,27,0.00,,---,0.00,VWS V14.01,2013-03-16 13:26:00,
2013-03-16 07:27:00,51.3,18.5,29.91,ESE,112,2.2,2.7,27,0.00,,---,0.00,VWS V14.01,2013-03-16 13:27:00,
2013-03-16 07:28:00,51.3,18.5,29.91,ESE,112,1.1,2.2,27,0.00,,---,0.00,VWS V14.01,2013-03-16 13:28:00,
2013-03-16 07:29:00,51.1,18.3,29.91,ESE,112,1.8,1.8,27,0.00,,---,0.00,VWS V14.01,2013-03-16 13:29:00,
2013-03-16 07:30:00,51.1,18.3,29.91,ESE,112,1.8,1.8,27,0.00,,---,0.00,VWS V14.01,2013-03-16 13:30:00,
2013-03-16 07:31:00,51.1,18.3,29.91,ESE,112,1.6,1.8,27,0.00,,---,0.00,VWS V14.01,2013-03-16 13:31:00,
2013-03-16 07:32:00,51.1,18.3,29.91,ESE,112,2.2,2.2,27,0.00,,---,0.00,VWS V14.01,2013-03-16 13:32:00,
2013-03-16 07:33:00,51.1,18.3,29.91,ESE,112,1.8,2.2,27,0.00,,---,0.00,VWS V14.01,2013-03-16 13:33:00,
2013-03-16 07:34:00,51.1,19.1,29.91,ESE,112,1.3,1.3,28,0.00,,---,0.00,VWS V14.01,2013-03-16 13:34:00,
2013-03-16 07:35:00,50.9,19.0,29.91,ESE,112,0.4,1.3,28,0.00,,---,0.00,VWS V14.01,2013-03-16 13:35:00,
2013-03-16 07:36:00,50.8,18.9,29.91,East,90,1.3,1.3,28,0.00,,---,0.00,VWS V14.01,2013-03-16 13:36:00,
2013-03-16 07:37:00,50.8,18.9,29.91,ESE,112,1.1,1.3,28,0.00,,---,0.00,VWS V14.01,2013-03-16 13:37:00,
2013-03-16 07:38:00,50.8,18.9,29.91,ESE,112,2.2,2.2,28,0.00,,---,0.00,VWS V14.01,2013-03-16 13:38:00,
2013-03-16 07:39:00,50.8,18.9,29.91,ESE,112,1.8,1.8,28,0.00,,---,0.00,VWS V14.01,2013-03-16 13:39:00,
2013-03-16 07:40:00,50.9,19.0,29.91,East,90,2.0,2.0,28,0.00,,---,0.00,VWS V14.01,2013-03-16 13:40:00,
2013-03-16 07:41:00,50.9,19.0,29.91,ESE,112,1.1,2.0,28,0.00,,---,0.00,VWS V14.01,2013-03-16 13:41:00,
2013-03-16 07:42:00,50.9,19.0,29.91,ESE,112,1.8,1.8,28,0.00,,---,0.00,VWS V14.01,2013-03-16 13:42:00,
2013-03-16 07:43:00,50.9,19.0,29.91,ESE,112,1.1,1.8,28,0.00,,---,0.00,VWS V14.01,2013-03-16 13:43:00,
2013-03-16 07:44:00,50.9,19.0,29.91,ESE,112,1.1,1.1,28,0.00,,---,0.00,VWS V14.01,2013-03-16 13:44:00,
2013-03-16 07:45:00,51.1,19.1,29.91,ESE,112,1.1,1.1,28,0.00,,---,0.00,VWS V14.01,2013-03-16 13:45:00,
2013-03-16 07:46:00,51.1,19.1,29.91,ESE,112,0.7,1.1,28,0.00,,---,0.00,VWS V14.01,2013-03-16 13:46:00,
2013-03-16 07:47:00,51.1,18.3,29.91,ESE,112,0.4,0.7,27,0.00,,---,0.00,VWS V14.01,2013-03-16 13:47:00,
2013-03-16 07:48:00,51.1,19.1,29.91,ESE,112,0.7,0.7,28,0.00,,---,0.00,VWS V14.01,2013-03-16 13:48:00,
2013-03-16 07:49:00,51.1,19.1,29.91,ESE,112,0.7,0.7,28,0.00,,---,0.00,VWS V14.01,2013-03-16 13:49:00,
2013-03-16 07:50:00,51.3,19.3,29.91,ESE,112,0.0,0.4,28,0.00,,---,0.00,VWS V14.01,2013-03-16 13:50:00,
2013-03-16 07:51:00,51.3,19.3,29.91,East,90,2.5,2.5,28,0.00,,---,0.00,VWS V14.01,2013-03-16 13:51:00,
2013-03-16 07:52:00,51.5,19.5,29.91,ESE,112,2.0,2.5,28,0.00,,---,0.00,VWS V14.01,2013-03-16 13:52:00,
2013-03-16 07:53:00,51.7,19.7,29.91,ESE,112,2.5,2.5,28,0.00,,---,0.00,VWS V14.01,2013-03-16 13:53:00,
2013-03-16 07:54:00,51.7,19.7,29.91,ESE,112,2.5,2.5,28,0.00,,---,0.00,VWS V14.01,2013-03-16 13:54:00,
2013-03-16 07:55:00,52.2,19.2,29.90,ESE,112,0.9,2.2,27,0.00,,---,0.00,VWS V14.01,2013-03-16 13:55:00,
2013-03-16 07:56:00,52.2,19.2,29.90,ESE,112,1.3,1.3,27,0.00,,---,0.00,VWS V14.01,2013-03-16 13:56:00,
2013-03-16 07:57:00,52.6,19.6,29.91,ESE,112,0.9,1.3,27,0.00,,---,0.00,VWS V14.01,2013-03-16 13:57:00,
2013-03-16 07:58:00,52.6,19.6,29.91,ESE,112,0.9,0.9,27,0.00,,---,0.00,VWS V14.01,2013-03-16 13:58:00,
2013-03-16 07:59:00,52.6,19.6,29.91,ESE,112,0.9,0.9,27,0.00,,---,0.00,VWS V14.01,2013-03-16 13:59:00,
2013-03-16 08:00:00,52.9,19.9,29.91,ENE,68,1.1,1.1,27,0.00,,---,0.00,VWS V14.01,2013-03-16 14:00:00,
2013-03-16 08:01:00,53.1,20.0,29.90,ENE,68,1.1,1.1,27,0.00,,---,0.00,VWS V14.01,2013-03-16 14:01:00,
2013-03-16 08:02:00,53.3,20.2,29.90,ENE,68,1.1,1.1,27,0.00,,---,0.00,VWS V14.01,2013-03-16 14:02:00,
2013-03-16 08:03:00,53.3,20.2,29.90,ESE,112,0.4,1.1,27,0.00,,---,0.00,VWS V14.01,2013-03-16 14:03:00,
2013-03-16 08:04:00,53.3,20.2,29.91,ESE,112,0.4,0.4,27,0.00,,---,0.00,VWS V14.01,2013-03-16 14:04:00,
2013-03-16 08:05:00,53.5,19.5,29.91,ESE,112,0.7,0.7,26,0.00,,---,0.00,VWS V14.01,2013-03-16 14:05:00,
2013-03-16 08:06:00,53.5,19.5,29.91,ESE,112,0.7,0.7,26,0.00,,---,0.00,VWS V14.01,2013-03-16 14:06:00,
2013-03-16 08:07:00,53.6,19.6,29.90,ESE,112,0.4,0.7,26,0.00,,---,0.00,VWS V14.01,2013-03-16 14:07:00,
2013-03-16 08:08:00,53.6,18.6,29.91,ESE,112,0.4,0.4,25,0.00,,---,0.00,VWS V14.01,2013-03-16 14:08:00,
2013-03-16 08:09:00,53.8,18.8,29.91,ESE,112,0.4,0.4,25,0.00,,---,0.00,VWS V14.01,2013-03-16 14:09:00,
2013-03-16 08:10:00,53.8,19.7,29.91,ESE,112,0.4,0.4,26,0.00,,---,0.00,VWS V14.01,2013-03-16 14:10:00,
2013-03-16 08:11:00,53.8,18.8,29.91,ESE,112,0.7,0.7,25,0.00,,---,0.00,VWS V14.01,2013-03-16 14:11:00,
2013-03-16 08:12:00,54.0,19.0,29.91,ESE,112,0.7,0.7,25,0.00,,---,0.00,VWS V14.01,2013-03-16 14:12:00,
2013-03-16 08:13:00,54.0,19.0,29.91,ESE,112,0.4,0.7,25,0.00,,---,0.00,VWS V14.01,2013-03-16 14:13:00,
2013-03-16 08:14:00,54.2,19.2,29.91,ESE,112,0.4,0.4,25,0.00,,---,0.00,VWS V14.01,2013-03-16 14:14:00,
2013-03-16 08:15:00,54.4,19.3,29.91,ESE,112,0.7,0.7,25,0.00,,---,0.00,VWS V14.01,2013-03-16 14:15:00,
2013-03-16 08:16:00,54.4,19.3,29.91,SE,135,0.4,0.7,25,0.00,,---,0.00,VWS V14.01,2013-03-16 14:16:00,
2013-03-16 08:17:00,54.5,19.4,29.91,SE,135,0.7,0.7,25,0.00,,---,0.00,VWS V14.01,2013-03-16 14:17:00,
2013-03-16 08:18:00,54.7,19.6,29.91,ESE,112,1.1,1.1,25,0.00,,---,0.00,VWS V14.01,2013-03-16 14:18:00,
2013-03-16 08:19:00,54.9,19.8,29.91,ESE,112,1.1,1.1,25,0.00,,---,0.00,VWS V14.01,2013-03-16 14:19:00,
2013-03-16 08:20:00,54.9,19.8,29.91,ESE,112,1.1,1.1,25,0.00,,---,0.00,VWS V14.01,2013-03-16 14:20:00,
2013-03-16 08:21:00,55.1,19.9,29.91,ESE,112,1.6,1.6,25,0.00,,---,0.00,VWS V14.01,2013-03-16 14:21:00,
2013-03-16 08:22:00,55.1,19.9,29.91,ESE,112,0.4,1.6,25,0.00,,---,0.00,VWS V14.01,2013-03-16 14:22:00,
2013-03-16 08:23:00,55.3,20.1,29.91,ESE,112,0.4,0.4,25,0.00,,---,0.00,VWS V14.01,2013-03-16 14:23:00,
2013-03-16 08:24:00,55.3,20.1,29.91,ESE,112,1.6,1.6,25,0.00,,---,0.00,VWS V14.01,2013-03-16 14:24:00,
2013-03-16 08:25:00,55.6,20.4,29.91,SE,135,1.1,1.6,25,0.00,,---,0.00,VWS V14.01,2013-03-16 14:25:00,
2013-03-16 08:26:00,55.8,20.5,29.91,ESE,112,0.7,1.1,25,0.00,,---,0.00,VWS V14.01,2013-03-16 14:26:00,
2013-03-16 08:27:00,55.8,20.5,29.91,ESE,112,0.4,0.7,25,0.00,,---,0.00,VWS V14.01,2013-03-16 14:27:00,
2013-03-16 08:28:00,56.2,19.9,29.91,ESE,112,1.6,1.6,24,0.00,,---,0.00,VWS V14.01,2013-03-16 14:28:00,
2013-03-16 08:29:00,56.5,20.2,29.91,East,90,2.0,2.0,24,0.00,,---,0.00,VWS V14.01,2013-03-16 14:29:00,
2013-03-16 08:30:00,56.5,20.2,29.91,SE,135,1.1,2.0,24,0.00,,---,0.00,VWS V14.01,2013-03-16 14:30:00,
2013-03-16 08:31:00,56.9,20.5,29.91,ESE,112,0.4,1.1,24,0.00,,---,0.00,VWS V14.01,2013-03-16 14:31:00,
2013-03-16 08:32:00,56.9,20.5,29.91,SE,135,0.9,0.9,24,0.00,,---,0.00,VWS V14.01,2013-03-16 14:32:00,
2013-03-16 08:33:00,57.2,20.8,29.91,SE,135,0.4,0.9,24,0.00,,---,0.00,VWS V14.01,2013-03-16 14:33:00,
2013-03-16 08:34:00,57.4,19.9,29.91,SE,135,1.1,1.1,23,0.00,,---,0.00,VWS V14.01,2013-03-16 14:34:00,
2013-03-16 08:35:00,57.6,20.1,29.91,SE,135,0.4,1.1,23,0.00,,---,0.00,VWS V14.01,2013-03-16 14:35:00,
2013-03-16 08:36:00,57.8,20.3,29.91,SE,135,0.7,0.7,23,0.00,,---,0.00,VWS V14.01,2013-03-16 14:36:00,
2013-03-16 08:37:00,58.0,20.4,29.91,SSE,158,0.4,0.7,23,0.00,,---,0.00,VWS V14.01,2013-03-16 14:37:00,
2013-03-16 08:38:00,58.1,20.5,29.91,SSE,158,0.7,0.7,23,0.00,,---,0.00,VWS V14.01,2013-03-16 14:38:00,
2013-03-16 08:39:00,58.1,20.5,29.91,SSE,158,0.7,0.7,23,0.00,,---,0.00,VWS V14.01,2013-03-16 14:39:00,
2013-03-16 08:40:00,58.7,20.0,29.91,ESE,112,1.6,1.6,22,0.00,,---,0.00,VWS V14.01,2013-03-16 14:40:00,
2013-03-16 08:41:00,58.9,20.1,29.91,SSE,158,1.1,1.6,22,0.00,,---,0.00,VWS V14.01,2013-03-16 14:41:00,
2013-03-16 08:42:00,59.0,20.2,29.91,SSE,158,0.9,1.1,22,0.00,,---,0.00,VWS V14.01,2013-03-16 14:42:00,
2013-03-16 08:43:00,59.0,20.2,29.91,SSE,158,0.9,0.9,22,0.00,,---,0.00,VWS V14.01,2013-03-16 14:43:00,
2013-03-16 08:44:00,59.0,20.2,29.91,SSE,158,0.9,0.9,22,0.00,,---,0.00,VWS V14.01,2013-03-16 14:44:00,
2013-03-16 08:45:00,59.6,19.6,29.91,SSE,158,1.8,1.8,21,0.00,,---,0.00,VWS V14.01,2013-03-16 14:45:00,
2013-03-16 08:46:00,59.9,19.9,29.91,SE,135,1.1,1.8,21,0.00,,---,0.00,VWS V14.01,2013-03-16 14:46:00,
2013-03-16 08:47:00,60.3,20.2,29.91,SSE,158,0.7,1.1,21,0.00,,---,0.00,VWS V14.01,2013-03-16 14:47:00,
2013-03-16 08:48:00,60.5,20.4,29.91,SSE,158,0.4,0.7,21,0.00,,---,0.00,VWS V14.01,2013-03-16 14:48:00,
2013-03-16 08:49:00,60.5,20.4,29.91,SSE,158,0.4,0.4,21,0.00,,---,0.00,VWS V14.01,2013-03-16 14:49:00,
2013-03-16 08:50:00,61.2,21.0,29.91,SSE,158,0.4,0.9,21,0.00,,---,0.00,VWS V14.01,2013-03-16 14:50:00,
2013-03-16 08:51:00,61.6,21.3,29.91,SSE,158,0.9,0.9,21,0.00,,---,0.00,VWS V14.01,2013-03-16 14:51:00,
2013-03-16 08:52:00,61.9,21.6,29.91,SSE,158,1.1,1.1,21,0.00,,---,0.00,VWS V14.01,2013-03-16 14:52:00,
2013-03-16 08:53:00,62.1,21.7,29.91,SSE,158,1.6,1.6,21,0.00,,---,0.00,VWS V14.01,2013-03-16 14:53:00,
2013-03-16 08:54:00,62.1,21.7,29.91,SSE,158,1.6,1.6,21,0.00,,---,0.00,VWS V14.01,2013-03-16 14:54:00,
2013-03-16 08:55:00,62.3,19.5,29.91,SSE,158,3.8,3.8,19,0.00,,---,0.00,VWS V14.01,2013-03-16 14:55:00,
2013-03-16 08:56:00,62.3,20.8,29.91,SE,135,2.5,3.8,20,0.00,,---,0.00,VWS V14.01,2013-03-16 14:56:00,
2013-03-16 08:57:00,62.3,20.8,29.91,SSE,158,1.1,2.5,20,0.00,,---,0.00,VWS V14.01,2013-03-16 14:57:00,
2013-03-16 08:58:00,62.1,19.4,29.91,South,180,2.5,2.5,19,0.00,,---,0.00,VWS V14.01,2013-03-16 14:58:00,
2013-03-16 08:59:00,62.1,19.4,29.91,South,180,2.5,2.5,19,0.00,,---,0.00,VWS V14.01,2013-03-16 14:59:00,
2013-03-16 09:00:00,61.9,19.2,29.91,SSE,158,1.1,1.1,19,0.00,,---,0.00,VWS V14.01,2013-03-16 15:00:00,
2013-03-16 09:01:00,61.9,19.2,29.91,SSE,158,1.6,1.6,19,0.00,,---,0.00,VWS V14.01,2013-03-16 15:01:00,
2013-03-16 09:02:00,61.7,19.0,29.91,South,180,1.6,1.6,19,0.00,,---,0.00,VWS V14.01,2013-03-16 15:02:00,
2013-03-16 09:03:00,61.7,19.0,29.91,SE,135,1.3,1.6,19,0.00,,---,0.00,VWS V14.01,2013-03-16 15:03:00,
2013-03-16 09:04:00,61.7,19.0,29.91,SE,135,1.8,1.8,19,0.00,,---,0.00,VWS V14.01,2013-03-16 15:04:00,
2013-03-16 09:05:00,61.9,20.4,29.91,SSE,158,1.3,1.8,20,0.00,,---,0.00,VWS V14.01,2013-03-16 15:05:00,
2013-03-16 09:06:00,61.9,20.4,29.91,SSE,158,1.8,1.8,20,0.00,,---,0.00,VWS V14.01,2013-03-16 15:06:00,
2013-03-16 09:07:00,62.1,19.4,29.91,SSE,158,3.6,3.6,19,0.00,,---,0.00,VWS V14.01,2013-03-16 15:07:00,
2013-03-16 09:08:00,62.1,19.4,29.91,SE,135,3.4,3.6,19,0.00,,---,0.00,VWS V14.01,2013-03-16 15:08:00,
2013-03-16 09:09:00,62.1,19.4,29.91,SSE,158,4.9,4.9,19,0.00,,---,0.00,VWS V14.01,2013-03-16 15:09:00,
2013-03-16 09:10:00,61.9,19.2,29.91,SSE,158,4.0,4.9,19,0.00,,---,0.00,VWS V14.01,2013-03-16 15:10:00,
2013-03-16 09:11:00,61.7,19.0,29.91,SSE,158,1.1,4.0,19,0.00,,---,0.00,VWS V14.01,2013-03-16 15:11:00,
2013-03-16 09:12:00,61.7,19.0,29.92,SSW,202,2.2,2.2,19,0.00,,---,0.00,VWS V14.01,2013-03-16 15:12:00,
2013-03-16 09:13:00,61.6,19.0,29.92,South,180,3.6,3.6,19,0.00,,---,0.00,VWS V14.01,2013-03-16 15:13:00,
2013-03-16 09:14:00,61.4,20.0,29.92,SE,135,2.2,2.2,20,0.00,,---,0.00,VWS V14.01,2013-03-16 15:14:00,
2013-03-16 09:15:00,61.4,20.0,29.92,South,180,2.5,2.5,20,0.00,,---,0.00,VWS V14.01,2013-03-16 15:15:00,
2013-03-16 09:16:00,61.2,21.0,29.92,SSE,158,1.6,2.5,21,0.00,,---,0.00,VWS V14.01,2013-03-16 15:16:00,
2013-03-16 09:17:00,61.2,21.0,29.92,SSE,158,1.1,1.6,21,0.00,,---,0.00,VWS V14.01,2013-03-16 15:17:00,
2013-03-16 09:18:00,61.4,21.1,29.92,ESE,112,3.4,3.4,21,0.00,,---,0.00,VWS V14.01,2013-03-16 15:18:00,
2013-03-16 09:19:00,61.4,21.1,29.92,ESE,112,2.2,2.2,21,0.00,,---,0.00,VWS V14.01,2013-03-16 15:19:00,
2013-03-16 09:20:00,61.4,21.1,29.92,SE,135,1.1,2.2,21,0.00,,---,0.00,VWS V14.01,2013-03-16 15:20:00,
2013-03-16 09:21:00,61.6,21.3,29.92,South,180,1.8,1.8,21,0.00,,---,0.00,VWS V14.01,2013-03-16 15:21:00,
2013-03-16 09:22:00,61.6,21.3,29.92,ESE,112,2.5,2.5,21,0.00,,---,0.00,VWS V14.01,2013-03-16 15:22:00,
2013-03-16 09:23:00,61.6,21.3,29.92,SSE,158,2.7,2.7,21,0.00,,---,0.00,VWS V14.01,2013-03-16 15:23:00,
2013-03-16 09:24:00,61.6,21.3,29.92,South,180,2.5,2.7,21,0.00,,---,0.00,VWS V14.01,2013-03-16 15:24:00,
2013-03-16 09:25:00,61.6,21.3,29.92,South,180,4.0,4.0,21,0.00,,---,0.00,VWS V14.01,2013-03-16 15:25:00,
2013-03-16 09:26:00,61.4,21.1,29.92,SSW,202,4.9,4.9,21,0.00,,---,0.00,VWS V14.01,2013-03-16 15:26:00,
2013-03-16 09:27:00,61.2,21.0,29.92,SE,135,2.5,4.9,21,0.00,,---,0.00,VWS V14.01,2013-03-16 15:27:00,
2013-03-16 09:28:00,61.4,21.1,29.92,SSE,158,2.5,2.5,21,0.00,,---,0.00,VWS V14.01,2013-03-16 15:28:00,
2013-03-16 09:29:00,61.4,21.1,29.92,SSE,158,2.5,2.5,21,0.00,,---,0.00,VWS V14.01,2013-03-16 15:29:00,
2013-03-16 09:30:00,61.7,21.4,29.92,SSE,158,0.9,1.8,21,0.00,,---,0.00,VWS V14.01,2013-03-16 15:30:00,
2013-03-16 09:31:00,61.9,21.6,29.92,SE,135,2.7,2.7,21,0.00,,---,0.00,VWS V14.01,2013-03-16 15:31:00,
2013-03-16 09:32:00,62.1,21.7,29.91,South,180,2.7,2.7,21,0.00,,---,0.00,VWS V14.01,2013-03-16 15:32:00,
2013-03-16 09:33:00,62.3,20.8,29.92,SSE,158,0.9,2.7,20,0.00,,---,0.00,VWS V14.01,2013-03-16 15:33:00,
2013-03-16 09:34:00,62.3,20.8,29.92,SSE,158,0.9,0.9,20,0.00,,---,0.00,VWS V14.01,2013-03-16 15:34:00,
2013-03-16 09:35:00,62.3,19.5,29.92,SSE,158,2.2,2.2,19,0.00,,---,0.00,VWS V14.01,2013-03-16 15:35:00,
2013-03-16 09:36:00,62.3,19.5,29.91,SSE,158,1.6,2.2,19,0.00,,---,0.00,VWS V14.01,2013-03-16 15:36:00,
2013-03-16 09:37:00,62.3,19.5,29.92,SSE,158,2.7,2.7,19,0.00,,---,0.00,VWS V14.01,2013-03-16 15:37:00,
2013-03-16 09:38:00,62.5,19.7,29.91,SSE,158,1.6,2.7,19,0.00,,---,0.00,VWS V14.01,2013-03-16 15:38:00,
2013-03-16 09:39:00,62.5,19.7,29.91,SSE,158,1.6,1.6,19,0.00,,---,0.00,VWS V14.01,2013-03-16 15:39:00,
2013-03-16 09:40:00,62.6,19.8,29.91,SSE,158,2.2,2.5,19,0.00,,---,0.00,VWS V14.01,2013-03-16 15:40:00,
2013-03-16 09:41:00,62.6,19.8,29.91,SSE,158,2.9,2.9,19,0.00,,---,0.00,VWS V14.01,2013-03-16 15:41:00,
2013-03-16 09:42:00,62.6,19.8,29.91,SSE,158,1.1,2.9,19,0.00,,---,0.00,VWS V14.01,2013-03-16 15:42:00,
2013-03-16 09:43:00,62.6,21.0,29.91,South,180,0.9,1.1,20,0.00,,---,0.00,VWS V14.01,2013-03-16 15:43:00,
2013-03-16 09:44:00,62.6,21.0,29.91,South,180,0.9,0.9,20,0.00,,---,0.00,VWS V14.01,2013-03-16 15:44:00,
2013-03-16 09:45:00,63.0,20.1,29.92,South,180,2.2,2.2,19,0.00,,---,0.00,VWS V14.01,2013-03-16 15:45:00,
2013-03-16 09:46:00,63.0,20.1,29.92,SSW,202,2.5,2.5,19,0.00,,---,0.00,VWS V14.01,2013-03-16 15:46:00,
2013-03-16 09:47:00,63.0,20.1,29.92,SSE,158,2.2,2.5,19,0.00,,---,0.00,VWS V14.01,2013-03-16 15:47:00,
2013-03-16 09:48:00,62.8,20.0,29.92,SSE,158,2.5,2.5,19,0.00,,---,0.00,VWS V14.01,2013-03-16 15:48:00,
2013-03-16 09:49:00,62.8,20.0,29.92,SSE,158,2.5,2.5,19,0.00,,---,0.00,VWS V14.01,2013-03-16 15:49:00,
2013-03-16 09:50:00,62.8,20.0,29.92,SSE,158,2.9,2.9,19,0.00,,---,0.00,VWS V14.01,2013-03-16 15:50:00,
2013-03-16 09:51:00,62.6,21.0,29.92,SSW,202,2.9,2.9,20,0.00,,---,0.00,VWS V14.01,2013-03-16 15:51:00,
2013-03-16 09:52:00,62.6,22.1,29.92,South,180,3.1,3.1,21,0.00,,---,0.00,VWS V14.01,2013-03-16 15:52:00,
2013-03-16 09:53:00,62.5,22.1,29.92,SSW,202,6.7,6.7,21,0.00,,---,0.00,VWS V14.01,2013-03-16 15:53:00,
2013-03-16 09:54:00,62.5,22.1,29.92,SSW,202,6.7,6.7,21,0.00,,---,0.00,VWS V14.01,2013-03-16 15:54:00,
2013-03-16 09:55:00,62.1,21.7,29.92,SW,225,1.8,2.5,21,0.00,,---,0.00,VWS V14.01,2013-03-16 15:55:00,
2013-03-16 09:56:00,62.1,21.7,29.92,WSW,248,2.5,2.5,21,0.00,,---,0.00,VWS V14.01,2013-03-16 15:56:00,
2013-03-16 09:57:00,62.1,21.7,29.92,South,180,6.3,6.3,21,0.00,,---,0.00,VWS V14.01,2013-03-16 15:57:00,
2013-03-16 09:58:00,61.9,21.6,29.91,SSE,158,2.5,6.3,21,0.00,,---,0.00,VWS V14.01,2013-03-16 15:58:00,
2013-03-16 09:59:00,61.9,21.6,29.91,SSE,158,2.5,2.5,21,0.00,,---,0.00,VWS V14.01,2013-03-16 15:59:00,
2013-03-16 10:00:00,61.7,21.4,29.91,SW,225,2.2,2.5,21,0.00,,---,0.00,VWS V14.01,2013-03-16 16:00:00,
2013-03-16 10:02:00,61.7,21.4,29.92,SSW,202,3.1,3.1,21,0.00,,---,0.00,VWS V14.01,2013-03-16 16:02:00,
2013-03-16 10:03:00,61.6,21.3,29.91,SSW,202,6.3,6.3,21,0.00,,---,0.00,VWS V14.01,2013-03-16 16:03:00,
2013-03-16 10:04:00,61.6,21.3,29.91,SSW,202,5.4,5.4,21,0.00,,---,0.00,VWS V14.01,2013-03-16 16:04:00,
2013-03-16 10:05:00,61.6,21.3,29.92,South,180,2.7,5.4,21,0.00,,---,0.00,VWS V14.01,2013-03-16 16:05:00,
2013-03-16 10:06:00,61.6,21.3,29.92,SSW,202,4.5,4.5,21,0.00,,---,0.00,VWS V14.01,2013-03-16 16:06:00,
2013-03-16 10:07:00,61.6,21.3,29.92,SSE,158,2.0,4.5,21,0.00,,---,0.00,VWS V14.01,2013-03-16 16:07:00,
2013-03-16 10:08:00,61.6,21.3,29.91,South,180,1.8,2.0,21,0.00,,---,0.00,VWS V14.01,2013-03-16 16:08:00,
2013-03-16 10:09:00,61.6,21.3,29.92,South,180,2.0,2.0,21,0.00,,---,0.00,VWS V14.01,2013-03-16 16:09:00,
2013-03-16 10:10:00,61.6,21.3,29.92,South,180,2.2,2.2,21,0.00,,---,0.00,VWS V14.01,2013-03-16 16:10:00,
2013-03-16 10:11:00,61.7,21.4,29.91,SW,225,3.1,3.1,21,0.00,,---,0.00,VWS V14.01,2013-03-16 16:11:00,
2013-03-16 10:12:00,61.7,21.4,29.91,SW,225,1.8,3.1,21,0.00,,---,0.00,VWS V14.01,2013-03-16 16:12:00,
2013-03-16 10:13:00,61.7,21.4,29.91,SSW,202,1.8,1.8,21,0.00,,---,0.00,VWS V14.01,2013-03-16 16:13:00,
2013-03-16 10:14:00,61.7,21.4,29.91,SSW,202,1.3,1.3,21,0.00,,---,0.00,VWS V14.01,2013-03-16 16:14:00,
2013-03-16 10:15:00,61.9,21.6,29.91,SW,225,4.7,4.7,21,0.00,,---,0.00,VWS V14.01,2013-03-16 16:15:00,
2013-03-16 10:16:00,61.7,21.4,29.92,SSW,202,2.5,4.7,21,0.00,,---,0.00,VWS V14.01,2013-03-16 16:16:00,
2013-03-16 10:17:00,61.9,21.6,29.92,SW,225,1.6,2.5,21,0.00,,---,0.00,VWS V14.01,2013-03-16 16:17:00,
2013-03-16 10:18:00,61.7,21.4,29.92,SSW,202,4.0,4.0,21,0.00,,---,0.00,VWS V14.01,2013-03-16 16:18:00,
2013-03-16 10:19:00,61.9,21.6,29.92,SSE,158,1.8,1.8,21,0.00,,---,0.00,VWS V14.01,2013-03-16 16:19:00,
2013-03-16 10:20:00,62.1,21.7,29.91,South,180,2.5,2.5,21,0.00,,---,0.00,VWS V14.01,2013-03-16 16:20:00,
2013-03-16 10:21:00,62.3,21.9,29.91,SSW,202,1.8,2.5,21,0.00,,---,0.00,VWS V14.01,2013-03-16 16:21:00,
2013-03-16 10:22:00,62.6,22.1,29.91,SSW,202,4.9,4.9,21,0.00,,---,0.00,VWS V14.01,2013-03-16 16:22:00,
2013-03-16 10:23:00,62.6,22.1,29.92,SW,225,3.4,4.9,21,0.00,,---,0.00,VWS V14.01,2013-03-16 16:23:00,
2013-03-16 10:24:00,62.6,22.1,29.92,SW,225,3.4,3.4,21,0.00,,---,0.00,VWS V14.01,2013-03-16 16:24:00,
2013-03-16 10:25:00,62.6,22.1,29.92,South,180,3.4,3.4,21,0.00,,---,0.00,VWS V14.01,2013-03-16 16:25:00,
2013-03-16 10:26:00,62.5,22.1,29.91,South,180,2.9,3.4,21,0.00,,---,0.00,VWS V14.01,2013-03-16 16:26:00,
2013-03-16 10:27:00,62.5,22.1,29.92,SSW,202,5.1,5.1,21,0.00,,---,0.00,VWS V14.01,2013-03-16 16:27:00,
2013-03-16 10:28:00,62.5,22.1,29.92,SW,225,3.4,5.1,21,0.00,,---,0.00,VWS V14.01,2013-03-16 16:28:00,
2013-03-16 10:29:00,62.3,21.9,29.92,SSW,202,6.3,6.3,21,0.00,,---,0.00,VWS V14.01,2013-03-16 16:29:00,
2013-03-16 10:30:00,62.1,21.7,29.92,South,180,2.9,6.3,21,0.00,,---,0.00,VWS V14.01,2013-03-16 16:30:00,
2013-03-16 10:31:00,62.1,21.7,29.92,SW,225,2.9,2.9,21,0.00,,---,0.00,VWS V14.01,2013-03-16 16:31:00,
2013-03-16 10:32:00,62.3,21.9,29.92,SW,225,4.7,4.7,21,0.00,,---,0.00,VWS V14.01,2013-03-16 16:32:00,
2013-03-16 10:33:00,62.3,21.9,29.92,SSE,158,3.4,4.7,21,0.00,,---,0.00,VWS V14.01,2013-03-16 16:33:00,
2013-03-16 10:34:00,62.3,21.9,29.92,SSE,158,3.4,3.4,21,0.00,,---,0.00,VWS V14.01,2013-03-16 16:34:00,
2013-03-16 10:35:00,62.3,21.9,29.92,SSW,202,3.4,6.3,21,0.00,,---,0.00,VWS V14.01,2013-03-16 16:35:00,
2013-03-16 10:36:00,62.3,21.9,29.92,SSE,158,2.5,3.4,21,0.00,,---,0.00,VWS V14.01,2013-03-16 16:36:00,
2013-03-16 10:37:00,62.3,21.9,29.92,SW,225,6.7,6.7,21,0.00,,---,0.00,VWS V14.01,2013-03-16 16:37:00,
2013-03-16 10:38:00,62.5,22.1,29.92,SSE,158,3.4,6.7,21,0.00,,---,0.00,VWS V14.01,2013-03-16 16:38:00,
2013-03-16 10:39:00,62.5,22.1,29.92,SSE,158,3.4,3.4,21,0.00,,---,0.00,VWS V14.01,2013-03-16 16:39:00,
2013-03-16 10:40:00,62.8,22.3,29.92,SSE,158,3.4,3.4,21,0.00,,---,0.00,VWS V14.01,2013-03-16 16:40:00,
2013-03-16 10:41:00,63.0,22.5,29.92,SSE,158,1.8,3.4,21,0.00,,---,0.00,VWS V14.01,2013-03-16 16:41:00,
2013-03-16 10:42:00,63.4,22.8,29.92,SSE,158,4.0,4.0,21,0.00,,---,0.00,VWS V14.01,2013-03-16 16:42:00,
2013-03-16 10:43:00,63.4,22.8,29.92,South,180,4.9,4.9,21,0.00,,---,0.00,VWS V14.01,2013-03-16 16:43:00,
2013-03-16 10:44:00,63.4,22.8,29.92,South,180,4.9,4.9,21,0.00,,---,0.00,VWS V14.01,2013-03-16 16:44:00,
2013-03-16 10:45:00,63.0,22.5,29.92,SSW,202,5.1,5.4,21,0.00,,---,0.00,VWS V14.01,2013-03-16 16:45:00,
2013-03-16 10:46:00,62.8,22.3,29.92,SSE,158,3.1,5.1,21,0.00,,---,0.00,VWS V14.01,2013-03-16 16:46:00,
2013-03-16 10:47:00,62.6,22.1,29.92,SW,225,2.5,3.1,21,0.00,,---,0.00,VWS V14.01,2013-03-16 16:47:00,
2013-03-16 10:48:00,62.6,22.1,29.92,South,180,2.0,2.5,21,0.00,,---,0.00,VWS V14.01,2013-03-16 16:48:00,
2013-03-16 10:49:00,62.6,22.1,29.92,South,180,2.0,2.0,21,0.00,,---,0.00,VWS V14.01,2013-03-16 16:49:00,
2013-03-16 10:50:00,62.6,22.1,29.92,South,180,4.3,4.3,21,0.00,,---,0.00,VWS V14.01,2013-03-16 16:50:00,
2013-03-16 10:51:00,62.8,22.3,29.92,SSE,158,1.6,4.3,21,0.00,,---,0.00,VWS V14.01,2013-03-16 16:51:00,
2013-03-16 10:52:00,63.0,22.5,29.92,South,180,2.7,2.7,21,0.00,,---,0.00,VWS V14.01,2013-03-16 16:52:00,
2013-03-16 10:53:00,63.0,22.5,29.92,SSE,158,3.1,3.1,21,0.00,,---,0.00,VWS V14.01,2013-03-16 16:53:00,
2013-03-16 10:54:00,63.0,22.5,29.92,SSE,158,3.1,3.1,21,0.00,,---,0.00,VWS V14.01,2013-03-16 16:54:00,
2013-03-16 10:55:00,63.4,22.8,29.92,SW,225,4.0,4.0,21,0.00,,---,0.00,VWS V14.01,2013-03-16 16:55:00,
2013-03-16 10:56:00,63.4,22.8,29.92,SSW,202,3.4,4.0,21,0.00,,---,0.00,VWS V14.01,2013-03-16 16:56:00,
2013-03-16 10:57:00,63.4,22.8,29.91,SSW,202,2.2,3.4,21,0.00,,---,0.00,VWS V14.01,2013-03-16 16:57:00,
2013-03-16 10:58:00,63.5,21.7,29.91,South,180,4.7,4.7,20,0.00,,---,0.00,VWS V14.01,2013-03-16 16:58:00,
2013-03-16 10:59:00,63.5,21.7,29.91,South,180,4.7,4.7,20,0.00,,---,0.00,VWS V14.01,2013-03-16 16:59:00,
2013-03-16 11:00:00,63.5,21.7,29.91,SSE,158,2.9,3.4,20,0.00,,---,0.00,VWS V14.01,2013-03-16 17:00:00,
2013-03-16 11:01:00,63.5,21.7,29.92,SSW,202,2.2,2.9,20,0.00,,---,0.00,VWS V14.01,2013-03-16 17:01:00,
2013-03-16 11:04:00,63.5,21.7,29.92,SSW,202,2.2,2.2,20,0.00,,---,0.00,VWS V14.01,2013-03-16 17:04:00,
2013-03-16 11:05:00,63.0,22.5,29.92,SW,225,3.4,3.4,21,0.00,,---,0.00,VWS V14.01,2013-03-16 17:05:00,
2013-03-16 11:06:00,63.0,22.5,29.91,SW,225,4.0,4.0,21,0.00,,---,0.00,VWS V14.01,2013-03-16 17:06:00,
2013-03-16 11:07:00,63.2,22.6,29.91,South,180,4.5,4.5,21,0.00,,---,0.00,VWS V14.01,2013-03-16 17:07:00,
2013-03-16 11:08:00,63.2,22.6,29.91,South,180,6.0,6.0,21,0.00,,---,0.00,VWS V14.01,2013-03-16 17:08:00,
2013-03-16 11:09:00,63.2,22.6,29.91,SSE,158,2.7,2.7,21,0.00,,---,0.00,VWS V14.01,2013-03-16 17:09:00,
2013-03-16 11:10:00,63.4,22.8,29.91,SSW,202,1.8,2.7,21,0.00,,---,0.00,VWS V14.01,2013-03-16 17:10:00,
2013-03-16 11:11:00,63.4,22.8,29.91,SW,225,2.9,2.9,21,0.00,,---,0.00,VWS V14.01,2013-03-16 17:11:00,
2013-03-16 11:12:00,63.5,22.9,29.92,WSW,248,3.8,3.8,21,0.00,,---,0.00,VWS V14.01,2013-03-16 17:12:00,
2013-03-16 11:13:00,63.4,22.8,29.92,SW,225,3.1,3.8,21,0.00,,---,0.00,VWS V14.01,2013-03-16 17:13:00,
2013-03-16 11:14:00,63.4,22.8,29.92,SW,225,7.6,7.6,21,0.00,,---,0.00,VWS V14.01,2013-03-16 17:14:00,
2013-03-16 11:15:00,63.2,22.6,29.92,SSW,202,6.3,7.6,21,0.00,,---,0.00,VWS V14.01,2013-03-16 17:15:00,
2013-03-16 11:16:00,63.0,22.5,29.91,SSW,202,4.0,6.3,21,0.00,,---,0.00,VWS V14.01,2013-03-16 17:16:00,
2013-03-16 11:17:00,63.0,22.5,29.92,SSW,202,4.5,4.5,21,0.00,,---,0.00,VWS V14.01,2013-03-16 17:17:00,
2013-03-16 11:18:00,63.0,22.5,29.92,SSW,202,0.9,4.5,21,0.00,,---,0.00,VWS V14.01,2013-03-16 17:18:00,
2013-03-16 11:19:00,63.0,22.5,29.92,SW,225,2.0,2.0,21,0.00,,---,0.00,VWS V14.01,2013-03-16 17:19:00,
2013-03-16 11:21:00,63.4,22.8,29.92,SW,225,4.5,4.5,21,0.00,,---,0.00,VWS V14.01,2013-03-16 17:21:00,
2013-03-16 11:23:00,63.4,22.8,29.92,SSW,202,3.4,4.5,21,0.00,,---,0.00,VWS V14.01,2013-03-16 17:23:00,
2013-03-16 11:24:00,63.4,22.8,29.92,SSW,202,3.4,3.4,21,0.00,,---,0.00,VWS V14.01,2013-03-16 17:24:00,
2013-03-16 11:29:00,63.4,22.8,29.92,SSW,202,3.4,3.4,21,0.00,,---,0.00,VWS V14.01,2013-03-16 17:29:00,
2013-03-16 11:34:00,64.3,21.2,29.92,SSW,202,3.1,3.1,19,0.00,,---,0.00,VWS V14.01,2013-03-16 17:34:00,
2013-03-16 11:35:00,63.9,20.9,29.92,SSW,202,2.7,3.1,19,0.00,,---,0.00,VWS V14.01,2013-03-16 17:35:00,
2013-03-16 11:39:00,63.9,20.9,29.92,SSW,202,2.7,2.7,19,0.00,,---,0.00,VWS V14.01,2013-03-16 17:39:00,
2013-03-16 11:40:00,63.7,23.1,29.92,SSW,202,6.3,6.3,21,0.00,,---,0.00,VWS V14.01,2013-03-16 17:40:00,
2013-03-16 11:41:00,63.5,22.9,29.92,SW,225,5.4,6.3,21,0.00,,---,0.00,VWS V14.01,2013-03-16 17:41:00,
2013-03-16 11:44:00,63.5,22.9,29.92,SW,225,5.4,5.4,21,0.00,,---,0.00,VWS V14.01,2013-03-16 17:44:00,
2013-03-16 11:49:00,63.5,22.9,29.92,South,180,4.3,4.3,21,0.00,,---,0.00,VWS V14.01,2013-03-16 17:49:00,
2013-03-16 11:54:00,63.5,22.9,29.92,South,180,4.3,4.3,21,0.00,,---,0.00,VWS V14.01,2013-03-16 17:54:00,
2013-03-16 11:59:00,63.5,22.9,29.92,South,180,4.3,4.3,21,0.00,,---,0.00,VWS V14.01,2013-03-16 17:59:00,
2013-03-16 12:00:00,64.6,22.6,29.91,SSE,158,4.5,4.5,20,0.00,,---,0.00,VWS V14.01,2013-03-16 18:00:00,
2013-03-16 12:01:00,64.6,21.4,29.91,SSE,158,4.5,4.5,19,0.00,,---,0.00,VWS V14.01,2013-03-16 18:01:00,
2013-03-16 12:02:00,64.8,24.0,29.91,SE,135,1.8,4.5,21,0.00,,---,0.00,VWS V14.01,2013-03-16 18:02:00,
2013-03-16 12:03:00,64.8,21.6,29.91,SSW,202,6.0,6.0,19,0.00,,---,0.00,VWS V14.01,2013-03-16 18:03:00,
2013-03-16 12:04:00,64.8,21.6,29.91,SSW,202,4.5,4.5,19,0.00,,---,0.00,VWS V14.01,2013-03-16 18:04:00,
2013-03-16 12:05:00,64.6,21.4,29.90,South,180,2.9,4.5,19,0.00,,---,0.00,VWS V14.01,2013-03-16 18:05:00,
2013-03-16 12:06:00,64.6,22.6,29.90,SW,225,1.1,1.1,20,0.00,,---,0.00,VWS V14.01,2013-03-16 18:06:00,
2013-03-16 12:09:00,64.6,22.6,29.90,SW,225,1.1,1.1,20,0.00,,---,0.00,VWS V14.01,2013-03-16 18:09:00,
2013-03-16 12:14:00,64.6,22.6,29.90,SW,225,1.1,1.1,20,0.00,,---,0.00,VWS V14.01,2013-03-16 18:14:00,
2013-03-16 12:33:00,67.3,23.7,29.89,SE,135,3.8,3.8,19,0.00,,---,0.00,VWS V14.01,2013-03-16 18:33:00,
2013-03-16 12:34:00,67.5,22.5,29.89,SSE,158,3.1,3.1,18,0.00,,---,0.00,VWS V14.01,2013-03-16 18:34:00,
2013-03-16 12:38:00,67.5,22.5,29.89,SSE,158,3.1,3.1,18,0.00,,---,0.00,VWS V14.01,2013-03-16 18:38:00,
2013-03-16 12:43:00,67.5,22.5,29.89,SSE,158,3.1,3.1,18,0.00,,---,0.00,VWS V14.01,2013-03-16 18:43:00,
2013-03-16 12:51:00,67.5,22.5,29.89,SSE,158,3.1,3.1,18,0.00,,---,0.00,VWS V14.01,2013-03-16 18:51:00,
2013-03-16 13:00:00,68.8,23.6,29.88,South,180,3.4,3.4,18,0.00,,---,0.00,VWS V14.01,2013-03-16 19:00:00,
2013-03-16 13:05:00,68.8,23.6,29.88,South,180,3.4,3.4,18,0.00,,---,0.00,VWS V14.01,2013-03-16 19:05:00,
2013-03-16 13:10:00,68.8,23.6,29.88,South,180,3.4,3.4,18,0.00,,---,0.00,VWS V14.01,2013-03-16 19:10:00,
2013-03-16 13:35:00,68.8,23.6,29.88,South,180,3.4,3.4,18,0.00,,---,0.00,VWS V14.01,2013-03-16 19:35:00,
2013-03-16 13:54:00,68.8,23.6,29.88,South,180,3.4,3.4,18,0.00,,---,0.00,VWS V14.01,2013-03-16 19:54:00,
2013-03-16 13:59:00,68.8,23.6,29.88,South,180,3.4,3.4,18,0.00,,---,0.00,VWS V14.01,2013-03-16 19:59:00,
2013-03-16 14:04:00,68.8,23.6,29.88,South,180,3.4,3.4,18,0.00,,---,0.00,VWS V14.01,2013-03-16 20:04:00,
2013-03-16 14:20:00,68.8,23.6,29.88,South,180,3.4,3.4,18,0.00,,---,0.00,VWS V14.01,2013-03-16 20:20:00,
2013-03-16 14:25:00,68.8,23.6,29.88,South,180,3.4,3.4,18,0.00,,---,0.00,VWS V14.01,2013-03-16 20:25:00,
2013-03-16 14:40:00,68.8,23.6,29.88,South,180,3.4,3.4,18,0.00,,---,0.00,VWS V14.01,2013-03-16 20:40:00,
2013-03-16 14:45:00,68.8,23.6,29.88,South,180,3.4,3.4,18,0.00,,---,0.00,VWS V14.01,2013-03-16 20:45:00,
2013-03-16 14:55:00,68.8,23.6,29.88,South,180,3.4,3.4,18,0.00,,---,0.00,VWS V14.01,2013-03-16 20:55:00,
2013-03-16 15:00:00,68.8,23.6,29.88,South,180,3.4,3.4,18,0.00,,---,0.00,VWS V14.01,2013-03-16 21:00:00,
2013-03-16 15:01:00,68.8,22.2,29.82,WSW,248,5.8,5.8,17,0.00,,---,0.00,VWS V14.01,2013-03-16 21:01:00,
2013-03-16 15:02:00,68.4,21.9,29.82,South,180,3.4,5.8,17,0.00,,---,0.00,VWS V14.01,2013-03-16 21:02:00,
2013-03-16 15:03:00,68.4,21.9,29.82,South,180,4.7,4.7,17,0.00,,---,0.00,VWS V14.01,2013-03-16 21:03:00,
2013-03-16 15:04:00,68.4,21.9,29.82,South,180,4.7,4.7,17,0.00,,---,0.00,VWS V14.01,2013-03-16 21:04:00,
2013-03-16 15:05:00,68.2,21.8,29.81,South,180,6.5,6.5,17,0.00,,---,0.00,VWS V14.01,2013-03-16 21:05:00,
2013-03-16 15:06:00,68.0,21.6,29.81,SSE,158,4.7,6.5,17,0.00,,---,0.00,VWS V14.01,2013-03-16 21:06:00,
2013-03-16 15:07:00,68.0,23.0,29.81,SSW,202,4.3,4.7,18,0.00,,---,0.00,VWS V14.01,2013-03-16 21:07:00,
2013-03-16 15:08:00,67.9,22.9,29.81,South,180,3.8,4.5,18,0.00,,---,0.00,VWS V14.01,2013-03-16 21:08:00,
2013-03-16 15:09:00,68.0,23.0,29.81,South,180,7.8,7.8,18,0.00,,---,0.00,VWS V14.01,2013-03-16 21:09:00,
2013-03-16 15:10:00,68.0,23.0,29.81,South,180,4.7,7.8,18,0.00,,---,0.00,VWS V14.01,2013-03-16 21:10:00,
2013-03-16 15:11:00,68.0,21.6,29.82,South,180,6.5,6.5,17,0.00,,---,0.00,VWS V14.01,2013-03-16 21:11:00,
2013-03-16 15:12:00,67.9,21.5,29.82,WSW,248,7.2,7.2,17,0.00,,---,0.00,VWS V14.01,2013-03-16 21:12:00,
2013-03-16 15:13:00,67.9,22.9,29.82,SSW,202,1.8,7.2,18,0.00,,---,0.00,VWS V14.01,2013-03-16 21:13:00,
2013-03-16 15:14:00,67.9,22.9,29.82,SSW,202,3.4,3.4,18,0.00,,---,0.00,VWS V14.01,2013-03-16 21:14:00,
2013-03-16 15:15:00,67.9,22.9,29.82,SSW,202,3.4,3.4,18,0.00,,---,0.00,VWS V14.01,2013-03-16 21:15:00,
2013-03-16 15:16:00,67.9,21.5,29.82,SSW,202,6.3,7.4,17,0.00,,---,0.00,VWS V14.01,2013-03-16 21:16:00,
2013-03-16 15:17:00,67.9,21.5,29.82,WSW,248,9.2,9.2,17,0.00,,---,0.00,VWS V14.01,2013-03-16 21:17:00,
2013-03-16 15:18:00,67.7,21.4,29.82,SSW,202,4.7,9.2,17,0.00,,---,0.00,VWS V14.01,2013-03-16 21:18:00,
2013-03-16 15:19:00,67.7,21.4,29.82,South,180,6.9,6.9,17,0.00,,---,0.00,VWS V14.01,2013-03-16 21:19:00,
2013-03-16 15:20:00,67.7,21.4,29.82,South,180,6.9,6.9,17,0.00,,---,0.00,VWS V14.01,2013-03-16 21:20:00,
2013-03-16 15:21:00,67.7,21.4,29.82,SSW,202,6.5,6.7,17,0.00,,---,0.00,VWS V14.01,2013-03-16 21:21:00,
2013-03-16 15:22:00,67.7,21.4,29.82,SSW,202,4.7,6.5,17,0.00,,---,0.00,VWS V14.01,2013-03-16 21:22:00,
2013-03-16 15:23:00,67.7,21.4,29.82,South,180,7.8,7.8,17,0.00,,---,0.00,VWS V14.01,2013-03-16 21:23:00,
2013-03-16 15:24:00,67.7,21.4,29.82,SSW,202,2.9,7.8,17,0.00,,---,0.00,VWS V14.01,2013-03-16 21:24:00,
2013-03-16 15:25:00,67.7,21.4,29.82,SSW,202,2.9,2.9,17,0.00,,---,0.00,VWS V14.01,2013-03-16 21:25:00,
2013-03-16 15:26:00,67.7,21.4,29.82,SW,225,12.1,14.1,17,0.00,,---,0.00,VWS V14.01,2013-03-16 21:26:00,
2013-03-16 15:27:00,67.5,21.2,29.82,SW,225,8.5,12.1,17,0.00,,---,0.00,VWS V14.01,2013-03-16 21:27:00,
2013-03-16 15:28:00,67.5,21.2,29.82,SW,225,11.0,11.0,17,0.00,,---,0.00,VWS V14.01,2013-03-16 21:28:00,
2013-03-16 15:29:00,67.5,21.2,29.82,South,180,7.8,11.0,17,0.00,,---,0.00,VWS V14.01,2013-03-16 21:29:00,
2013-03-16 15:30:00,67.5,21.2,29.82,South,180,7.8,7.8,17,0.00,,---,0.00,VWS V14.01,2013-03-16 21:30:00,
2013-03-16 15:31:00,67.5,21.2,29.82,SW,225,3.4,4.3,17,0.00,,---,0.00,VWS V14.01,2013-03-16 21:31:00,
2013-03-16 15:32:00,67.5,21.2,29.82,SSW,202,2.2,3.4,17,0.00,,---,0.00,VWS V14.01,2013-03-16 21:32:00,
2013-03-16 15:33:00,67.7,21.4,29.82,South,180,4.9,4.9,17,0.00,,---,0.00,VWS V14.01,2013-03-16 21:33:00,
2013-03-16 15:34:00,67.9,21.5,29.82,SSW,202,4.7,4.9,17,0.00,,---,0.00,VWS V14.01,2013-03-16 21:34:00,
2013-03-16 15:35:00,67.9,21.5,29.82,SSW,202,4.7,4.7,17,0.00,,---,0.00,VWS V14.01,2013-03-16 21:35:00,
2013-03-16 15:36:00,67.9,21.5,29.81,WSW,248,6.0,6.0,17,0.00,,---,0.00,VWS V14.01,2013-03-16 21:36:00,
2013-03-16 15:38:00,67.9,21.5,29.82,South,180,3.4,5.4,17,0.00,,---,0.00,VWS V14.01,2013-03-16 21:38:00,
2013-03-16 15:39:00,67.9,22.9,29.81,SSE,158,2.5,3.4,18,0.00,,---,0.00,VWS V14.01,2013-03-16 21:39:00,
2013-03-16 15:40:00,67.9,22.9,29.81,SSE,158,2.5,2.5,18,0.00,,---,0.00,VWS V14.01,2013-03-16 21:40:00,
2013-03-16 15:41:00,68.0,23.0,29.82,SSW,202,4.3,4.3,18,0.00,,---,0.00,VWS V14.01,2013-03-16 21:41:00,
2013-03-16 15:42:00,68.0,23.0,29.82,SSW,202,3.8,4.3,18,0.00,,---,0.00,VWS V14.01,2013-03-16 21:42:00,
2013-03-16 15:43:00,68.2,21.8,29.81,South,180,3.4,3.8,17,0.00,,---,0.00,VWS V14.01,2013-03-16 21:43:00,
2013-03-16 15:44:00,68.2,21.8,29.81,South,180,5.6,5.6,17,0.00,,---,0.00,VWS V14.01,2013-03-16 21:44:00,
2013-03-16 15:45:00,68.4,21.9,29.81,SSW,202,1.8,1.8,17,0.00,,---,0.00,VWS V14.01,2013-03-16 21:45:00,
2013-03-16 15:47:00,68.2,21.8,29.81,SSW,202,11.9,11.9,17,0.00,,---,0.00,VWS V14.01,2013-03-16 21:47:00,
2013-03-16 15:48:00,68.0,21.6,29.81,SSW,202,6.7,11.9,17,0.00,,---,0.00,VWS V14.01,2013-03-16 21:48:00,
2013-03-16 15:49:00,68.0,21.6,29.81,South,180,6.7,6.7,17,0.00,,---,0.00,VWS V14.01,2013-03-16 21:49:00,
2013-03-16 15:50:00,68.2,21.8,29.81,SSW,202,4.9,4.9,17,0.00,,---,0.00,VWS V14.01,2013-03-16 21:50:00,
2013-03-16 15:51:00,68.2,21.8,29.81,South,180,1.6,4.9,17,0.00,,---,0.00,VWS V14.01,2013-03-16 21:51:00,
2013-03-16 15:52:00,68.2,21.8,29.81,South,180,3.8,3.8,17,0.00,,---,0.00,VWS V14.01,2013-03-16 21:52:00,
2013-03-16 15:53:00,68.4,21.9,29.81,South,180,2.9,3.8,17,0.00,,---,0.00,VWS V14.01,2013-03-16 21:53:00,
2013-03-16 15:54:00,68.4,21.9,29.81,South,180,4.0,4.0,17,0.00,,---,0.00,VWS V14.01,2013-03-16 21:54:00,
2013-03-16 15:55:00,68.2,21.8,29.81,SSE,158,5.8,5.8,17,0.00,,---,0.00,VWS V14.01,2013-03-16 21:55:00,
2013-03-16 15:56:00,68.2,21.8,29.81,South,180,4.5,5.8,17,0.00,,---,0.00,VWS V14.01,2013-03-16 21:56:00,
2013-03-16 15:57:00,68.2,21.8,29.81,SSE,158,3.6,4.5,17,0.00,,---,0.00,VWS V14.01,2013-03-16 21:57:00,
2013-03-16 15:58:00,68.4,21.9,29.81,SSE,158,2.9,3.6,17,0.00,,---,0.00,VWS V14.01,2013-03-16 21:58:00,
2013-03-16 15:59:00,68.4,21.9,29.80,SSE,158,5.4,5.4,17,0.00,,---,0.00,VWS V14.01,2013-03-16 21:59:00,
2013-03-16 16:00:00,68.4,21.9,29.80,SW,225,3.6,3.6,17,0.00,,---,0.00,VWS V14.01,2013-03-16 22:00:00,
2013-03-16 16:01:00,68.4,21.9,29.80,SSE,158,3.4,3.6,17,0.00,,---,0.00,VWS V14.01,2013-03-16 22:01:00,
2013-03-16 16:02:00,68.6,22.1,29.81,South,180,2.5,3.4,17,0.00,,---,0.00,VWS V14.01,2013-03-16 22:02:00,
2013-03-16 16:03:00,68.6,22.1,29.80,South,180,5.1,5.1,17,0.00,,---,0.00,VWS V14.01,2013-03-16 22:03:00,
2013-03-16 16:04:00,68.6,22.1,29.80,South,180,4.9,5.1,17,0.00,,---,0.00,VWS V14.01,2013-03-16 22:04:00,
2013-03-16 16:05:00,68.6,20.6,29.80,South,180,6.0,6.0,16,0.00,,---,0.00,VWS V14.01,2013-03-16 22:05:00,
2013-03-16 16:06:00,68.6,20.6,29.80,SSW,202,5.4,6.0,16,0.00,,---,0.00,VWS V14.01,2013-03-16 22:06:00,
2013-03-16 16:07:00,68.6,20.6,29.80,SSW,202,2.5,5.4,16,0.00,,---,0.00,VWS V14.01,2013-03-16 22:07:00,
2013-03-16 16:08:00,68.8,20.8,29.80,South,180,6.3,6.3,16,0.00,,---,0.00,VWS V14.01,2013-03-16 22:08:00,
2013-03-16 16:09:00,68.8,20.8,29.80,SSW,202,9.6,9.6,16,0.00,,---,0.00,VWS V14.01,2013-03-16 22:09:00,
2013-03-16 16:10:00,68.8,20.8,29.80,SW,225,9.2,9.2,16,0.00,,---,0.00,VWS V14.01,2013-03-16 22:10:00,
2013-03-16 16:11:00,68.9,20.9,29.80,SSW,202,5.4,9.2,16,0.00,,---,0.00,VWS V14.01,2013-03-16 22:11:00,
2013-03-16 16:12:00,69.1,21.1,29.80,SSW,202,3.1,5.4,16,0.00,,---,0.00,VWS V14.01,2013-03-16 22:12:00,
2013-03-16 16:13:00,69.5,21.4,29.80,SSE,158,4.7,4.7,16,0.00,,---,0.00,VWS V14.01,2013-03-16 22:13:00,
2013-03-16 16:14:00,69.7,21.5,29.80,South,180,3.1,4.7,16,0.00,,---,0.00,VWS V14.01,2013-03-16 22:14:00,
2013-03-16 16:15:00,69.8,21.6,29.80,South,180,1.8,1.8,16,0.00,,---,0.00,VWS V14.01,2013-03-16 22:15:00,
2013-03-16 16:16:00,69.8,21.6,29.80,SSW,202,2.5,2.5,16,0.00,,---,0.00,VWS V14.01,2013-03-16 22:16:00,
2013-03-16 16:17:00,69.8,21.6,29.80,SSW,202,4.5,4.5,16,0.00,,---,0.00,VWS V14.01,2013-03-16 22:17:00,
2013-03-16 16:18:00,69.8,21.6,29.80,SSE,158,3.1,4.5,16,0.00,,---,0.00,VWS V14.01,2013-03-16 22:18:00,
2013-03-16 16:19:00,69.8,21.6,29.80,South,180,1.3,3.1,16,0.00,,---,0.00,VWS V14.01,2013-03-16 22:19:00,
2013-03-16 16:20:00,69.8,21.6,29.80,South,180,1.3,1.3,16,0.00,,---,0.00,VWS V14.01,2013-03-16 22:20:00,
2013-03-16 16:21:00,69.7,21.5,29.80,SSE,158,3.8,3.8,16,0.00,,---,0.00,VWS V14.01,2013-03-16 22:21:00,
2013-03-16 16:22:00,69.7,21.5,29.80,South,180,3.4,3.8,16,0.00,,---,0.00,VWS V14.01,2013-03-16 22:22:00,
2013-03-16 16:24:00,69.7,21.5,29.79,SSE,158,3.4,3.6,16,0.00,,---,0.00,VWS V14.01,2013-03-16 22:24:00,
2013-03-16 16:25:00,69.7,21.5,29.79,SSE,158,3.4,3.4,16,0.00,,---,0.00,VWS V14.01,2013-03-16 22:25:00,
2013-03-16 16:26:00,69.5,21.4,29.79,SSE,158,1.6,5.6,16,0.00,,---,0.00,VWS V14.01,2013-03-16 22:26:00,
2013-03-16 16:27:00,69.5,21.4,29.79,SSE,158,3.1,3.1,16,0.00,,---,0.00,VWS V14.01,2013-03-16 22:27:00,
2013-03-16 16:28:00,69.5,21.4,29.79,South,180,3.1,3.1,16,0.00,,---,0.00,VWS V14.01,2013-03-16 22:28:00,
2013-03-16 16:29:00,69.7,21.5,29.79,WSW,248,1.6,3.1,16,0.00,,---,0.00,VWS V14.01,2013-03-16 22:29:00,
2013-03-16 16:30:00,69.7,21.5,29.79,WSW,248,1.6,1.6,16,0.00,,---,0.00,VWS V14.01,2013-03-16 22:30:00,
2013-03-16 16:31:00,70.0,21.8,29.79,SSW,202,5.4,5.4,16,0.00,,---,0.00,VWS V14.01,2013-03-16 22:31:00,
2013-03-16 16:33:00,70.0,20.3,29.79,WSW,248,7.6,11.0,15,0.00,,---,0.00,VWS V14.01,2013-03-16 22:33:00,
2013-03-16 16:34:00,70.0,20.3,29.79,SW,225,9.8,9.8,15,0.00,,---,0.00,VWS V14.01,2013-03-16 22:34:00,
2013-03-16 16:35:00,70.0,20.3,29.79,SW,225,9.8,9.8,15,0.00,,---,0.00,VWS V14.01,2013-03-16 22:35:00,
2013-03-16 16:36:00,69.8,20.1,29.79,SSW,202,10.7,10.7,15,0.00,,---,0.00,VWS V14.01,2013-03-16 22:36:00,
2013-03-16 16:38:00,69.8,20.1,29.79,SSW,202,9.6,9.6,15,0.00,,---,0.00,VWS V14.01,2013-03-16 22:38:00,
2013-03-16 16:39:00,69.8,20.1,29.79,SSW,202,9.2,9.6,15,0.00,,---,0.00,VWS V14.01,2013-03-16 22:39:00,
2013-03-16 16:40:00,69.8,20.1,29.79,SSW,202,9.2,9.2,15,0.00,,---,0.00,VWS V14.01,2013-03-16 22:40:00,
2013-03-16 16:41:00,70.0,21.8,29.79,SSW,202,6.0,6.0,16,0.00,,---,0.00,VWS V14.01,2013-03-16 22:41:00,
2013-03-16 16:42:00,70.0,20.3,29.78,SSW,202,6.0,6.0,15,0.00,,---,0.00,VWS V14.01,2013-03-16 22:42:00,
2013-03-16 16:44:00,70.0,20.3,29.78,SW,225,6.5,8.7,15,0.00,,---,0.00,VWS V14.01,2013-03-16 22:44:00,
2013-03-16 16:45:00,70.0,20.3,29.78,SW,225,6.5,6.5,15,0.00,,---,0.00,VWS V14.01,2013-03-16 22:45:00,
2013-03-16 16:46:00,70.0,20.3,29.78,SW,225,8.3,8.3,15,0.00,,---,0.00,VWS V14.01,2013-03-16 22:46:00,
2013-03-16 16:47:00,70.2,20.4,29.78,SSW,202,4.3,8.3,15,0.00,,---,0.00,VWS V14.01,2013-03-16 22:47:00,
2013-03-16 16:48:00,70.2,20.4,29.78,SW,225,7.4,7.4,15,0.00,,---,0.00,VWS V14.01,2013-03-16 22:48:00,
2013-03-16 16:49:00,70.2,20.4,29.78,WSW,248,9.8,9.8,15,0.00,,---,0.00,VWS V14.01,2013-03-16 22:49:00,
2013-03-16 16:50:00,70.2,20.4,29.78,WSW,248,9.8,9.8,15,0.00,,---,0.00,VWS V14.01,2013-03-16 22:50:00,
2013-03-16 16:51:00,70.2,21.9,29.78,WSW,248,6.3,6.3,16,0.00,,---,0.00,VWS V14.01,2013-03-16 22:51:00,
2013-03-16 16:52:00,70.2,20.4,29.79,West,270,6.9,6.9,15,0.00,,---,0.00,VWS V14.01,2013-03-16 22:52:00,
2013-03-16 16:53:00,70.2,20.4,29.78,WSW,248,9.4,9.4,15,0.00,,---,0.00,VWS V14.01,2013-03-16 22:53:00,
2013-03-16 16:54:00,70.0,21.8,29.79,WSW,248,9.2,9.4,16,0.00,,---,0.00,VWS V14.01,2013-03-16 22:54:00,
2013-03-16 16:55:00,70.0,21.8,29.79,WSW,248,9.2,9.2,16,0.00,,---,0.00,VWS V14.01,2013-03-16 22:55:00,
2013-03-16 16:56:00,70.2,21.9,29.78,SSW,202,5.4,5.4,16,0.00,,---,0.00,VWS V14.01,2013-03-16 22:56:00,
2013-03-16 16:57:00,70.4,22.1,29.79,West,270,7.2,7.2,16,0.00,,---,0.00,VWS V14.01,2013-03-16 22:57:00,
2013-03-16 16:58:00,70.6,22.3,29.78,SW,225,4.0,7.2,16,0.00,,---,0.00,VWS V14.01,2013-03-16 22:58:00,
2013-03-16 16:59:00,70.9,22.5,29.78,SSW,202,4.9,4.9,16,0.00,,---,0.00,VWS V14.01,2013-03-16 22:59:00,
2013-03-16 17:00:00,70.9,22.5,29.78,SSW,202,4.9,4.9,16,0.00,,---,0.00,VWS V14.01,2013-03-16 23:00:00,
2013-03-16 17:01:00,71.5,21.5,29.78,West,270,7.8,7.8,15,0.00,,---,0.00,VWS V14.01,2013-03-16 23:01:00,
2013-03-16 17:02:00,71.6,21.5,29.78,WSW,248,9.2,9.2,15,0.00,,---,0.00,VWS V14.01,2013-03-16 23:02:00,
2013-03-16 17:03:00,71.6,21.5,29.78,South,180,8.9,9.2,15,0.00,,---,0.00,VWS V14.01,2013-03-16 23:03:00,
2013-03-16 17:04:00,71.6,21.5,29.78,SSW,202,6.3,8.9,15,0.00,,---,0.00,VWS V14.01,2013-03-16 23:04:00,
2013-03-16 17:05:00,71.6,21.5,29.78,SSW,202,6.3,6.3,15,0.00,,---,0.00,VWS V14.01,2013-03-16 23:05:00,
2013-03-16 17:06:00,71.1,22.7,29.78,WSW,248,8.3,8.3,16,0.00,,---,0.00,VWS V14.01,2013-03-16 23:06:00,
2013-03-16 17:07:00,70.9,22.5,29.78,SW,225,6.7,8.3,16,0.00,,---,0.00,VWS V14.01,2013-03-16 23:07:00,
2013-03-16 17:08:00,70.6,22.3,29.78,SSW,202,11.4,11.4,16,0.00,,---,0.00,VWS V14.01,2013-03-16 23:08:00,
2013-03-16 17:09:00,70.4,22.1,29.78,SW,225,4.9,11.4,16,0.00,,---,0.00,VWS V14.01,2013-03-16 23:09:00,
2013-03-16 17:10:00,70.4,22.1,29.78,SW,225,4.9,4.9,16,0.00,,---,0.00,VWS V14.01,2013-03-16 23:10:00,
2013-03-16 17:11:00,70.0,21.8,29.78,SW,225,8.7,8.7,16,0.00,,---,0.00,VWS V14.01,2013-03-16 23:11:00,
2013-03-16 17:12:00,70.0,21.8,29.78,WSW,248,5.1,8.7,16,0.00,,---,0.00,VWS V14.01,2013-03-16 23:12:00,
2013-03-16 17:13:00,69.8,21.6,29.78,SSW,202,5.4,5.4,16,0.00,,---,0.00,VWS V14.01,2013-03-16 23:13:00,
2013-03-16 17:14:00,69.7,21.5,29.78,SSW,202,4.0,5.4,16,0.00,,---,0.00,VWS V14.01,2013-03-16 23:14:00,
2013-03-16 17:15:00,69.7,21.5,29.78,SSW,202,4.0,4.0,16,0.00,,---,0.00,VWS V14.01,2013-03-16 23:15:00,
2013-03-16 17:16:00,69.7,21.5,29.78,SSW,202,4.0,6.7,16,0.00,,---,0.00,VWS V14.01,2013-03-16 23:16:00,
2013-03-16 17:17:00,69.7,21.5,29.78,SSW,202,4.3,4.3,16,0.00,,---,0.00,VWS V14.01,2013-03-16 23:17:00,
2013-03-16 17:18:00,69.7,21.5,29.78,WSW,248,2.5,4.3,16,0.00,,---,0.00,VWS V14.01,2013-03-16 23:18:00,
2013-03-16 17:20:00,69.8,21.6,29.78,SW,225,4.7,4.7,16,0.00,,---,0.00,VWS V14.01,2013-03-16 23:20:00,
2013-03-16 17:21:00,69.8,21.6,29.78,SW,225,6.5,6.5,16,0.00,,---,0.00,VWS V14.01,2013-03-16 23:21:00,
2013-03-16 17:22:00,69.7,21.5,29.78,SSW,202,4.7,6.5,16,0.00,,---,0.00,VWS V14.01,2013-03-16 23:22:00,
2013-03-16 17:23:00,69.8,21.6,29.78,SW,225,4.0,4.7,16,0.00,,---,0.00,VWS V14.01,2013-03-16 23:23:00,
2013-03-16 17:24:00,69.7,21.5,29.78,SSE,158,5.4,5.4,16,0.00,,---,0.00,VWS V14.01,2013-03-16 23:24:00,
2013-03-16 17:25:00,69.7,21.5,29.78,SSE,158,5.4,5.4,16,0.00,,---,0.00,VWS V14.01,2013-03-16 23:25:00,
2013-03-16 17:26:00,69.8,21.6,29.78,SW,225,11.0,11.0,16,0.00,,---,0.00,VWS V14.01,2013-03-16 23:26:00,
2013-03-16 17:27:00,69.8,21.6,29.78,SSW,202,4.3,11.0,16,0.00,,---,0.00,VWS V14.01,2013-03-16 23:27:00,
2013-03-16 17:28:00,69.8,20.1,29.78,WSW,248,3.8,4.3,15,0.00,,---,0.00,VWS V14.01,2013-03-16 23:28:00,
2013-03-16 17:29:00,69.8,20.1,29.78,WSW,248,4.5,4.5,15,0.00,,---,0.00,VWS V14.01,2013-03-16 23:29:00,
2013-03-16 17:30:00,69.8,20.1,29.78,WSW,248,4.5,4.5,15,0.00,,---,0.00,VWS V14.01,2013-03-16 23:30:00,
2013-03-16 17:31:00,69.8,20.1,29.77,WSW,248,10.5,10.5,15,0.00,,---,0.00,VWS V14.01,2013-03-16 23:31:00,
2013-03-16 17:32:00,69.8,20.1,29.78,WSW,248,7.6,10.5,15,0.00,,---,0.00,VWS V14.01,2013-03-16 23:32:00,
2013-03-16 17:33:00,70.2,20.4,29.78,SSW,202,4.7,7.6,15,0.00,,---,0.00,VWS V14.01,2013-03-16 23:33:00,
2013-03-16 17:34:00,70.6,20.7,29.77,SW,225,9.2,9.2,15,0.00,,---,0.00,VWS V14.01,2013-03-16 23:34:00,
2013-03-16 17:35:00,70.6,20.7,29.77,SW,225,9.2,9.2,15,0.00,,---,0.00,VWS V14.01,2013-03-16 23:35:00,
2013-03-16 17:36:00,71.1,21.1,29.77,SW,225,7.6,7.6,15,0.00,,---,0.00,VWS V14.01,2013-03-16 23:36:00,
2013-03-16 17:37:00,70.9,21.0,29.77,WSW,248,8.9,8.9,15,0.00,,---,0.00,VWS V14.01,2013-03-16 23:37:00,
2013-03-16 17:38:00,70.9,21.0,29.77,WSW,248,11.4,11.4,15,0.00,,---,0.00,VWS V14.01,2013-03-16 23:38:00,
2013-03-16 17:39:00,70.7,20.8,29.77,WSW,248,6.9,11.4,15,0.00,,---,0.00,VWS V14.01,2013-03-16 23:39:00,
2013-03-16 17:40:00,70.7,20.8,29.77,WSW,248,6.9,6.9,15,0.00,,---,0.00,VWS V14.01,2013-03-16 23:40:00,
2013-03-16 17:41:00,70.9,21.0,29.77,West,270,5.6,7.8,15,0.00,,---,0.00,VWS V14.01,2013-03-16 23:41:00,
2013-03-16 17:42:00,71.3,21.3,29.77,WSW,248,9.2,9.2,15,0.00,,---,0.00,VWS V14.01,2013-03-16 23:42:00,
2013-03-16 17:43:00,71.3,21.3,29.77,SSW,202,6.0,9.2,15,0.00,,---,0.00,VWS V14.01,2013-03-16 23:43:00,
2013-03-16 17:44:00,71.5,21.5,29.77,SW,225,2.9,6.0,15,0.00,,---,0.00,VWS V14.01,2013-03-16 23:44:00,
2013-03-16 17:45:00,71.5,21.5,29.77,SW,225,2.9,2.9,15,0.00,,---,0.00,VWS V14.01,2013-03-16 23:45:00,
2013-03-16 17:46:00,71.5,21.5,29.77,WNW,292,7.4,8.1,15,0.00,,---,0.00,VWS V14.01,2013-03-16 23:46:00,
2013-03-16 17:47:00,71.3,21.3,29.77,WSW,248,11.4,11.4,15,0.00,,---,0.00,VWS V14.01,2013-03-16 23:47:00,
2013-03-16 17:48:00,71.1,21.1,29.77,West,270,9.4,11.4,15,0.00,,---,0.00,VWS V14.01,2013-03-16 23:48:00,
2013-03-16 17:49:00,70.9,21.0,29.77,SW,225,4.7,9.4,15,0.00,,---,0.00,VWS V14.01,2013-03-16 23:49:00,
2013-03-16 17:50:00,70.9,21.0,29.77,SW,225,4.7,4.7,15,0.00,,---,0.00,VWS V14.01,2013-03-16 23:50:00,
2013-03-16 17:51:00,70.9,21.0,29.77,West,270,9.2,9.2,15,0.00,,---,0.00,VWS V14.01,2013-03-16 23:51:00,
2013-03-16 17:52:00,71.1,21.1,29.77,West,270,8.5,9.2,15,0.00,,---,0.00,VWS V14.01,2013-03-16 23:52:00,
2013-03-16 17:53:00,71.3,21.3,29.77,SSW,202,5.6,8.5,15,0.00,,---,0.00,VWS V14.01,2013-03-16 23:53:00,
2013-03-16 17:54:00,71.5,21.5,29.77,SW,225,6.9,6.9,15,0.00,,---,0.00,VWS V14.01,2013-03-16 23:54:00,
2013-03-16 17:55:00,71.5,21.5,29.77,SW,225,6.9,6.9,15,0.00,,---,0.00,VWS V14.01,2013-03-16 23:55:00,
2013-03-16 17:56:00,71.3,21.3,29.77,SW,225,8.3,8.3,15,0.00,,---,0.00,VWS V14.01,2013-03-16 23:56:00,
2013-03-16 17:57:00,71.3,21.3,29.77,WSW,248,5.6,8.3,15,0.00,,---,0.00,VWS V14.01,2013-03-16 23:57:00,
2013-03-16 17:58:00,71.3,21.3,29.77,West,270,9.6,9.6,15,0.00,,---,0.00,VWS V14.01,2013-03-16 23:58:00,
2013-03-16 17:59:00,71.3,21.3,29.77,WSW,248,3.8,9.6,15,0.00,,---,0.00,VWS V14.01,2013-03-16 23:59:00,
2013-03-16 18:00:00,71.3,21.3,29.77,SW,225,1.1,3.8,15,0.00,,---,0.00,VWS V14.01,2013-03-17 00:00:00,
2013-03-16 18:01:00,71.3,21.3,29.77,West,270,3.4,3.4,15,0.00,,---,0.00,VWS V14.01,2013-03-17 00:01:00,
2013-03-16 18:02:00,71.5,21.5,29.76,West,270,6.9,6.9,15,0.00,,---,0.00,VWS V14.01,2013-03-17 00:02:00,
2013-03-16 18:03:00,71.5,21.5,29.76,WSW,248,5.4,6.9,15,0.00,,---,0.00,VWS V14.01,2013-03-17 00:03:00,
2013-03-16 18:04:00,71.5,21.5,29.76,West,270,6.5,6.5,15,0.00,,---,0.00,VWS V14.01,2013-03-17 00:04:00,
2013-03-16 18:05:00,71.1,21.1,29.76,West,270,4.7,6.5,15,0.00,,---,0.00,VWS V14.01,2013-03-17 00:05:00,
2013-03-16 18:06:00,70.9,21.0,29.76,WSW,248,5.4,5.4,15,0.00,,---,0.00,VWS V14.01,2013-03-17 00:06:00,
2013-03-16 18:07:00,70.6,20.7,29.76,WSW,248,4.0,5.4,15,0.00,,---,0.00,VWS V14.01,2013-03-17 00:07:00,
2013-03-16 18:08:00,70.2,20.4,29.76,WSW,248,8.5,8.5,15,0.00,,---,0.00,VWS V14.01,2013-03-17 00:08:00,
2013-03-16 18:09:00,70.0,20.3,29.76,WSW,248,6.9,8.5,15,0.00,,---,0.00,VWS V14.01,2013-03-17 00:09:00,
2013-03-16 18:10:00,70.0,20.3,29.76,WSW,248,6.9,6.9,15,0.00,,---,0.00,VWS V14.01,2013-03-17 00:10:00,
2013-03-16 18:11:00,69.8,20.1,29.76,WSW,248,2.5,6.5,15,0.00,,---,0.00,VWS V14.01,2013-03-17 00:11:00,
2013-03-16 18:12:00,69.7,20.0,29.76,SW,225,9.8,9.8,15,0.00,,---,0.00,VWS V14.01,2013-03-17 00:12:00,
2013-03-16 18:13:00,69.5,19.9,29.76,SSW,202,6.0,9.8,15,0.00,,---,0.00,VWS V14.01,2013-03-17 00:13:00,
2013-03-16 18:14:00,69.5,19.9,29.76,West,270,5.8,6.0,15,0.00,,---,0.00,VWS V14.01,2013-03-17 00:14:00,
2013-03-16 18:15:00,69.5,19.9,29.76,West,270,5.8,5.8,15,0.00,,---,0.00,VWS V14.01,2013-03-17 00:15:00,
2013-03-16 18:16:00,69.5,19.9,29.76,WSW,248,5.4,5.4,15,0.00,,---,0.00,VWS V14.01,2013-03-17 00:16:00,
2013-03-16 18:17:00,69.3,19.7,29.76,WSW,248,5.6,5.6,15,0.00,,---,0.00,VWS V14.01,2013-03-17 00:17:00,
2013-03-16 18:18:00,69.3,19.7,29.76,WSW,248,5.4,5.6,15,0.00,,---,0.00,VWS V14.01,2013-03-17 00:18:00,
2013-03-16 18:19:00,69.3,19.7,29.76,WSW,248,4.3,5.4,15,0.00,,---,0.00,VWS V14.01,2013-03-17 00:19:00,
2013-03-16 18:20:00,69.3,19.7,29.76,WSW,248,4.3,4.3,15,0.00,,---,0.00,VWS V14.01,2013-03-17 00:20:00,
2013-03-16 18:21:00,69.1,19.5,29.76,West,270,3.8,3.8,15,0.00,,---,0.00,VWS V14.01,2013-03-17 00:21:00,
2013-03-16 18:22:00,69.1,21.1,29.76,WNW,292,5.4,5.4,16,0.00,,---,0.00,VWS V14.01,2013-03-17 00:22:00,
2013-03-16 18:23:00,69.1,19.5,29.76,WSW,248,6.3,6.3,15,0.00,,---,0.00,VWS V14.01,2013-03-17 00:23:00,
2013-03-16 18:24:00,69.1,19.5,29.76,WSW,248,7.2,7.2,15,0.00,,---,0.00,VWS V14.01,2013-03-17 00:24:00,
2013-03-16 18:25:00,69.1,19.5,29.76,WSW,248,7.2,7.2,15,0.00,,---,0.00,VWS V14.01,2013-03-17 00:25:00,
2013-03-16 18:26:00,69.1,19.5,29.76,SW,225,2.9,3.4,15,0.00,,---,0.00,VWS V14.01,2013-03-17 00:26:00,
2013-03-16 18:27:00,69.1,19.5,29.76,WSW,248,3.1,3.1,15,0.00,,---,0.00,VWS V14.01,2013-03-17 00:27:00,
2013-03-16 18:28:00,69.1,19.5,29.76,West,270,4.7,4.7,15,0.00,,---,0.00,VWS V14.01,2013-03-17 00:28:00,
2013-03-16 18:29:00,69.1,19.5,29.76,SW,225,6.9,6.9,15,0.00,,---,0.00,VWS V14.01,2013-03-17 00:29:00,
2013-03-16 18:30:00,69.1,19.5,29.76,SW,225,6.9,6.9,15,0.00,,---,0.00,VWS V14.01,2013-03-17 00:30:00,
2013-03-16 18:31:00,69.1,19.5,29.76,WSW,248,4.9,4.9,15,0.00,,---,0.00,VWS V14.01,2013-03-17 00:31:00,
2013-03-16 18:32:00,69.1,19.5,29.76,WSW,248,9.8,9.8,15,0.00,,---,0.00,VWS V14.01,2013-03-17 00:32:00,
2013-03-16 18:33:00,69.1,19.5,29.76,SSW,202,5.6,9.8,15,0.00,,---,0.00,VWS V14.01,2013-03-17 00:33:00,
2013-03-16 18:34:00,69.1,19.5,29.76,WSW,248,9.2,9.2,15,0.00,,---,0.00,VWS V14.01,2013-03-17 00:34:00,
2013-03-16 18:35:00,69.1,19.5,29.76,WSW,248,9.2,9.2,15,0.00,,---,0.00,VWS V14.01,2013-03-17 00:35:00,
2013-03-16 18:36:00,69.1,19.5,29.76,SW,225,6.0,6.0,15,0.00,,---,0.00,VWS V14.01,2013-03-17 00:36:00,
2013-03-16 18:37:00,68.9,19.4,29.76,West,270,6.3,6.3,15,0.00,,---,0.00,VWS V14.01,2013-03-17 00:37:00,
2013-03-16 18:38:00,69.1,19.5,29.76,WSW,248,3.6,6.3,15,0.00,,---,0.00,VWS V14.01,2013-03-17 00:38:00,
2013-03-16 18:39:00,69.1,19.5,29.76,West,270,4.5,4.5,15,0.00,,---,0.00,VWS V14.01,2013-03-17 00:39:00,
2013-03-16 18:40:00,69.1,19.5,29.76,West,270,4.5,4.5,15,0.00,,---,0.00,VWS V14.01,2013-03-17 00:40:00,
2013-03-16 18:41:00,68.9,19.4,29.76,WNW,292,5.1,5.4,15,0.00,,---,0.00,VWS V14.01,2013-03-17 00:41:00,
2013-03-16 18:42:00,68.9,19.4,29.76,West,270,4.5,5.1,15,0.00,,---,0.00,VWS V14.01,2013-03-17 00:42:00,
2013-03-16 18:43:00,68.8,19.3,29.76,West,270,3.8,4.5,15,0.00,,---,0.00,VWS V14.01,2013-03-17 00:43:00,
2013-03-16 18:45:00,68.8,19.3,29.76,SW,225,4.9,4.9,15,0.00,,---,0.00,VWS V14.01,2013-03-17 00:45:00,
2013-03-16 18:46:00,68.8,19.3,29.76,West,270,4.9,4.9,15,0.00,,---,0.00,VWS V14.01,2013-03-17 00:46:00,
2013-03-16 18:47:00,68.8,19.3,29.76,WNW,292,6.9,6.9,15,0.00,,---,0.00,VWS V14.01,2013-03-17 00:47:00,
2013-03-16 18:48:00,68.6,19.1,29.77,West,270,1.8,6.9,15,0.00,,---,0.00,VWS V14.01,2013-03-17 00:48:00,
2013-03-16 18:49:00,68.6,19.1,29.76,WNW,292,5.4,5.4,15,0.00,,---,0.00,VWS V14.01,2013-03-17 00:49:00,
2013-03-16 18:50:00,68.4,19.0,29.77,NW,315,5.4,5.4,15,0.00,,---,0.00,VWS V14.01,2013-03-17 00:50:00,
2013-03-16 18:51:00,68.4,19.0,29.76,SW,225,5.4,5.4,15,0.00,,---,0.00,VWS V14.01,2013-03-17 00:51:00,
2013-03-16 18:52:00,68.4,19.0,29.77,WNW,292,3.4,5.4,15,0.00,,---,0.00,VWS V14.01,2013-03-17 00:52:00,
2013-03-16 18:53:00,68.4,19.0,29.77,West,270,2.7,3.4,15,0.00,,---,0.00,VWS V14.01,2013-03-17 00:53:00,
2013-03-16 18:54:00,68.2,18.8,29.77,West,270,4.0,4.0,15,0.00,,---,0.00,VWS V14.01,2013-03-17 00:54:00,
2013-03-16 18:55:00,68.2,18.8,29.77,West,270,4.0,4.0,15,0.00,,---,0.00,VWS V14.01,2013-03-17 00:55:00,
2013-03-16 18:56:00,68.2,18.8,29.77,West,270,4.9,5.1,15,0.00,,---,0.00,VWS V14.01,2013-03-17 00:56:00,
2013-03-16 18:57:00,68.2,18.8,29.77,WSW,248,4.0,4.9,15,0.00,,---,0.00,VWS V14.01,2013-03-17 00:57:00,
2013-03-16 18:58:00,68.2,18.8,29.77,WSW,248,5.4,5.4,15,0.00,,---,0.00,VWS V14.01,2013-03-17 00:58:00,
2013-03-16 18:59:00,68.0,18.7,29.77,West,270,9.2,9.2,15,0.00,,---,0.00,VWS V14.01,2013-03-17 00:59:00,
2013-03-16 19:00:00,68.0,18.7,29.77,WNW,292,6.3,9.2,15,0.00,,---,0.00,VWS V14.01,2013-03-17 01:00:00,
2013-03-16 19:01:00,68.0,18.7,29.77,SW,225,5.1,6.3,15,0.00,,---,0.00,VWS V14.01,2013-03-17 01:01:00,
2013-03-16 19:02:00,68.0,18.7,29.78,West,270,5.6,5.6,15,0.00,,---,0.00,VWS V14.01,2013-03-17 01:02:00,
2013-03-16 19:03:00,68.0,18.7,29.78,NW,315,7.6,7.6,15,0.00,,---,0.00,VWS V14.01,2013-03-17 01:03:00,
2013-03-16 19:04:00,68.0,18.7,29.78,NNW,338,3.4,7.6,15,0.00,,---,0.00,VWS V14.01,2013-03-17 01:04:00,
2013-03-16 19:05:00,68.0,18.7,29.78,NNW,338,3.4,3.4,15,0.00,,---,0.00,VWS V14.01,2013-03-17 01:05:00,
2013-03-16 19:06:00,67.9,21.5,29.78,West,270,12.8,12.8,17,0.00,,---,0.00,VWS V14.01,2013-03-17 01:06:00,
2013-03-16 19:07:00,67.5,21.2,29.78,NW,315,5.1,12.8,17,0.00,,---,0.00,VWS V14.01,2013-03-17 01:07:00,
2013-03-16 19:08:00,67.3,22.4,29.78,NNW,338,9.2,9.2,18,0.00,,---,0.00,VWS V14.01,2013-03-17 01:08:00,
2013-03-16 19:09:00,67.1,22.2,29.78,West,270,7.6,9.2,18,0.00,,---,0.00,VWS V14.01,2013-03-17 01:09:00,
2013-03-16 19:10:00,67.1,22.2,29.78,West,270,7.6,7.6,18,0.00,,---,0.00,VWS V14.01,2013-03-17 01:10:00,
2013-03-16 19:11:00,66.6,23.1,29.78,NW,315,10.3,14.1,19,0.00,,---,0.00,VWS V14.01,2013-03-17 01:11:00,
2013-03-16 19:12:00,66.2,22.8,29.78,West,270,7.6,10.3,19,0.00,,---,0.00,VWS V14.01,2013-03-17 01:12:00,
2013-03-16 19:13:00,66.1,23.9,29.78,NNW,338,6.7,7.6,20,0.00,,---,0.00,VWS V14.01,2013-03-17 01:13:00,
2013-03-16 19:14:00,65.9,24.9,29.79,NW,315,9.4,9.4,21,0.00,,---,0.00,VWS V14.01,2013-03-17 01:14:00,
2013-03-16 19:15:00,65.9,24.9,29.79,NW,315,9.4,9.4,21,0.00,,---,0.00,VWS V14.01,2013-03-17 01:15:00,
2013-03-16 19:16:00,65.7,24.7,29.79,WNW,292,9.8,10.5,21,0.00,,---,0.00,VWS V14.01,2013-03-17 01:16:00,
2013-03-16 19:17:00,65.5,24.6,29.79,WNW,292,9.8,9.8,21,0.00,,---,0.00,VWS V14.01,2013-03-17 01:17:00,
2013-03-16 19:18:00,65.5,24.6,29.79,NW,315,9.2,9.8,21,0.00,,---,0.00,VWS V14.01,2013-03-17 01:18:00,
2013-03-16 19:19:00,65.3,24.4,29.79,NNW,338,9.8,9.8,21,0.00,,---,0.00,VWS V14.01,2013-03-17 01:19:00,
2013-03-16 19:20:00,65.3,24.4,29.79,NNW,338,9.8,9.8,21,0.00,,---,0.00,VWS V14.01,2013-03-17 01:20:00,
2013-03-16 19:21:00,65.2,25.4,29.79,NW,315,8.9,12.1,22,0.00,,---,0.00,VWS V14.01,2013-03-17 01:21:00,
2013-03-16 19:22:00,65.0,25.3,29.79,NW,315,10.5,10.5,22,0.00,,---,0.00,VWS V14.01,2013-03-17 01:22:00,
2013-03-16 19:24:00,64.8,25.1,29.79,West,270,6.3,13.0,22,0.00,,---,0.00,VWS V14.01,2013-03-17 01:24:00,
2013-03-16 19:25:00,64.8,25.1,29.79,West,270,6.3,6.3,22,0.00,,---,0.00,VWS V14.01,2013-03-17 01:25:00,
2013-03-16 19:26:00,64.8,25.1,29.79,NW,315,13.6,13.6,22,0.00,,---,0.00,VWS V14.01,2013-03-17 01:26:00,
2013-03-16 19:27:00,64.6,24.9,29.79,WNW,292,9.4,13.6,22,0.00,,---,0.00,VWS V14.01,2013-03-17 01:27:00,
2013-03-16 19:28:00,64.6,24.9,29.79,West,270,11.4,11.4,22,0.00,,---,0.00,VWS V14.01,2013-03-17 01:28:00,
2013-03-16 19:29:00,64.4,24.8,29.79,NW,315,8.7,11.4,22,0.00,,---,0.00,VWS V14.01,2013-03-17 01:29:00,
2013-03-16 19:30:00,64.4,24.8,29.79,NW,315,8.7,8.7,22,0.00,,---,0.00,VWS V14.01,2013-03-17 01:30:00,
2013-03-16 19:31:00,64.4,25.8,29.79,NW,315,8.5,8.5,23,0.00,,---,0.00,VWS V14.01,2013-03-17 01:31:00,
2013-03-16 19:32:00,64.4,25.8,29.79,NW,315,7.4,8.5,23,0.00,,---,0.00,VWS V14.01,2013-03-17 01:32:00,
2013-03-16 19:33:00,64.3,25.7,29.79,North,0,6.9,7.4,23,0.00,,---,0.00,VWS V14.01,2013-03-17 01:33:00,
2013-03-16 19:34:00,64.3,25.7,29.79,WNW,292,8.9,8.9,23,0.00,,---,0.00,VWS V14.01,2013-03-17 01:34:00,
2013-03-16 19:35:00,64.3,25.7,29.79,WNW,292,8.9,8.9,23,0.00,,---,0.00,VWS V14.01,2013-03-17 01:35:00,
2013-03-16 19:36:00,63.9,25.4,29.78,NW,315,8.5,8.5,23,0.00,,---,0.00,VWS V14.01,2013-03-17 01:36:00,
2013-03-16 19:37:00,63.9,26.4,29.79,WNW,292,12.1,12.1,24,0.00,,---,0.00,VWS V14.01,2013-03-17 01:37:00,
2013-03-16 19:38:00,63.7,26.3,29.79,NW,315,16.3,16.3,24,0.00,,---,0.00,VWS V14.01,2013-03-17 01:38:00,
2013-03-16 19:39:00,63.7,26.3,29.79,NNW,338,11.9,16.3,24,0.00,,---,0.00,VWS V14.01,2013-03-17 01:39:00,
2013-03-16 19:40:00,63.7,26.3,29.79,NNW,338,11.9,11.9,24,0.00,,---,0.00,VWS V14.01,2013-03-17 01:40:00,
2013-03-16 19:41:00,63.5,26.1,29.79,NW,315,13.6,13.6,24,0.00,,---,0.00,VWS V14.01,2013-03-17 01:41:00,
2013-03-16 19:42:00,63.5,26.1,29.79,NNW,338,16.8,16.8,24,0.00,,---,0.00,VWS V14.01,2013-03-17 01:42:00,
2013-03-16 19:43:00,63.4,27.0,29.79,NW,315,13.6,16.8,25,0.00,,---,0.00,VWS V14.01,2013-03-17 01:43:00,
2013-03-16 19:44:00,63.2,26.8,29.79,North,0,14.8,14.8,25,0.00,,---,0.00,VWS V14.01,2013-03-17 01:44:00,
2013-03-16 19:45:00,63.2,26.8,29.79,North,0,14.8,14.8,25,0.00,,---,0.00,VWS V14.01,2013-03-17 01:45:00,
2013-03-16 19:46:00,63.0,26.6,29.79,NW,315,18.3,18.3,25,0.00,,---,0.00,VWS V14.01,2013-03-17 01:46:00,
2013-03-16 19:47:00,63.0,26.6,29.79,NW,315,11.2,18.3,25,0.00,,---,0.00,VWS V14.01,2013-03-17 01:47:00,
2013-03-16 19:48:00,63.0,27.6,29.79,North,0,12.1,12.1,26,0.00,,---,0.00,VWS V14.01,2013-03-17 01:48:00,
2013-03-16 19:49:00,62.8,26.5,29.79,NW,315,8.5,12.1,25,0.00,,---,0.00,VWS V14.01,2013-03-17 01:49:00,
2013-03-16 19:50:00,62.8,26.5,29.79,NW,315,8.5,8.5,25,0.00,,---,0.00,VWS V14.01,2013-03-17 01:50:00,
2013-03-16 19:51:00,62.6,26.3,29.79,WNW,292,6.0,9.8,25,0.00,,---,0.00,VWS V14.01,2013-03-17 01:51:00,
2013-03-16 19:52:00,62.6,26.3,29.79,WNW,292,6.5,6.5,25,0.00,,---,0.00,VWS V14.01,2013-03-17 01:52:00,
2013-03-16 19:53:00,62.6,26.3,29.79,NW,315,8.5,8.5,25,0.00,,---,0.00,VWS V14.01,2013-03-17 01:53:00,
2013-03-16 19:54:00,62.5,26.2,29.79,NW,315,14.3,14.3,25,0.00,,---,0.00,VWS V14.01,2013-03-17 01:54:00,
2013-03-16 19:55:00,62.5,26.2,29.79,NW,315,14.3,14.3,25,0.00,,---,0.00,VWS V14.01,2013-03-17 01:55:00,
2013-03-16 19:56:00,62.3,27.9,29.79,NNW,338,12.3,16.6,27,0.00,,---,0.00,VWS V14.01,2013-03-17 01:56:00,
2013-03-16 19:57:00,62.3,27.9,29.79,West,270,14.3,14.3,27,0.00,,---,0.00,VWS V14.01,2013-03-17 01:57:00,
2013-03-16 19:58:00,62.1,27.8,29.79,NW,315,8.3,14.3,27,0.00,,---,0.00,VWS V14.01,2013-03-17 01:58:00,
2013-03-16 19:59:00,61.9,27.6,29.80,NNE,22,7.2,8.3,27,0.00,,---,0.00,VWS V14.01,2013-03-17 01:59:00,
2013-03-16 20:00:00,62.1,27.8,29.80,NNE,22,7.2,7.2,27,0.00,,---,0.00,VWS V14.01,2013-03-17 02:00:00,
2013-03-16 20:01:00,61.9,27.6,29.80,NW,315,10.7,10.7,27,0.00,,---,0.00,VWS V14.01,2013-03-17 02:01:00,
2013-03-16 20:02:00,61.9,27.6,29.80,NW,315,5.1,10.7,27,0.00,,---,0.00,VWS V14.01,2013-03-17 02:02:00,
2013-03-16 20:03:00,61.7,27.4,29.80,North,0,6.3,6.3,27,0.00,,---,0.00,VWS V14.01,2013-03-17 02:03:00,
2013-03-16 20:04:00,61.7,27.4,29.80,NW,315,13.6,13.6,27,0.00,,---,0.00,VWS V14.01,2013-03-17 02:04:00,
2013-03-16 20:05:00,61.7,27.4,29.80,NW,315,13.6,13.6,27,0.00,,---,0.00,VWS V14.01,2013-03-17 02:05:00,
2013-03-16 20:06:00,61.6,28.2,29.80,NNW,338,13.4,13.4,28,0.00,,---,0.00,VWS V14.01,2013-03-17 02:06:00,
2013-03-16 20:07:00,61.6,28.2,29.80,WNW,292,10.1,13.4,28,0.00,,---,0.00,VWS V14.01,2013-03-17 02:07:00,
2013-03-16 20:08:00,61.4,28.0,29.80,NW,315,8.9,10.1,28,0.00,,---,0.00,VWS V14.01,2013-03-17 02:08:00,
2013-03-16 20:09:00,61.4,28.0,29.80,WNW,292,6.3,8.9,28,0.00,,---,0.00,VWS V14.01,2013-03-17 02:09:00,
2013-03-16 20:10:00,61.4,28.0,29.80,WNW,292,6.3,6.3,28,0.00,,---,0.00,VWS V14.01,2013-03-17 02:10:00,
2013-03-16 20:11:00,61.4,28.0,29.80,North,0,11.0,11.0,28,0.00,,---,0.00,VWS V14.01,2013-03-17 02:11:00,
2013-03-16 20:12:00,61.2,27.9,29.80,NW,315,8.9,11.0,28,0.00,,---,0.00,VWS V14.01,2013-03-17 02:12:00,
2013-03-16 20:13:00,61.2,27.9,29.80,West,270,5.8,8.9,28,0.00,,---,0.00,VWS V14.01,2013-03-17 02:13:00,
2013-03-16 20:14:00,61.2,27.9,29.80,NW,315,9.8,9.8,28,0.00,,---,0.00,VWS V14.01,2013-03-17 02:14:00,
2013-03-16 20:15:00,61.2,27.9,29.80,NW,315,9.8,9.8,28,0.00,,---,0.00,VWS V14.01,2013-03-17 02:15:00,
2013-03-16 20:16:00,61.0,27.7,29.80,North,0,6.9,11.4,28,0.00,,---,0.00,VWS V14.01,2013-03-17 02:16:00,
2013-03-16 20:17:00,60.8,27.5,29.80,NW,315,7.6,7.6,28,0.00,,---,0.00,VWS V14.01,2013-03-17 02:17:00,
2013-03-16 20:18:00,60.8,27.5,29.80,NNW,338,10.3,10.3,28,0.00,,---,0.00,VWS V14.01,2013-03-17 02:18:00,
2013-03-16 20:19:00,60.8,27.5,29.80,North,0,5.8,10.3,28,0.00,,---,0.00,VWS V14.01,2013-03-17 02:19:00,
2013-03-16 20:20:00,60.8,27.5,29.80,North,0,5.8,5.8,28,0.00,,---,0.00,VWS V14.01,2013-03-17 02:20:00,
2013-03-16 20:21:00,60.7,28.3,29.80,NW,315,6.3,6.3,29,0.00,,---,0.00,VWS V14.01,2013-03-17 02:21:00,
2013-03-16 20:22:00,60.7,28.3,29.80,NNW,338,6.9,6.9,29,0.00,,---,0.00,VWS V14.01,2013-03-17 02:22:00,
2013-03-16 20:23:00,60.5,28.1,29.80,North,0,8.3,8.3,29,0.00,,---,0.00,VWS V14.01,2013-03-17 02:23:00,
2013-03-16 20:24:00,60.5,28.1,29.80,East,90,9.4,9.4,29,0.00,,---,0.00,VWS V14.01,2013-03-17 02:24:00,
2013-03-16 20:25:00,60.5,28.1,29.80,East,90,9.4,9.4,29,0.00,,---,0.00,VWS V14.01,2013-03-17 02:25:00,
2013-03-16 20:26:00,60.3,27.9,29.81,NW,315,5.6,7.6,29,0.00,,---,0.00,VWS V14.01,2013-03-17 02:26:00,
2013-03-16 20:27:00,60.3,27.9,29.81,NNE,22,3.4,5.6,29,0.00,,---,0.00,VWS V14.01,2013-03-17 02:27:00,
2013-03-16 20:28:00,60.1,28.6,29.81,NW,315,4.7,4.7,30,0.00,,---,0.00,VWS V14.01,2013-03-17 02:28:00,
2013-03-16 20:29:00,60.1,28.6,29.80,NNE,22,6.5,6.5,30,0.00,,---,0.00,VWS V14.01,2013-03-17 02:29:00,
2013-03-16 20:30:00,60.1,28.6,29.80,NNE,22,6.5,6.5,30,0.00,,---,0.00,VWS V14.01,2013-03-17 02:30:00,
2013-03-16 20:31:00,60.1,28.6,29.80,NNW,338,3.6,4.5,30,0.00,,---,0.00,VWS V14.01,2013-03-17 02:31:00,
2013-03-16 20:32:00,60.1,28.6,29.80,NNW,338,8.1,8.1,30,0.00,,---,0.00,VWS V14.01,2013-03-17 02:32:00,
2013-03-16 20:33:00,60.1,28.6,29.81,NW,315,5.8,8.1,30,0.00,,---,0.00,VWS V14.01,2013-03-17 02:33:00,
2013-03-16 20:34:00,60.1,28.6,29.81,NW,315,5.8,5.8,30,0.00,,---,0.00,VWS V14.01,2013-03-17 02:34:00,
2013-03-16 20:35:00,60.1,28.6,29.81,NW,315,5.8,5.8,30,0.00,,---,0.00,VWS V14.01,2013-03-17 02:35:00,
2013-03-16 20:36:00,60.1,28.6,29.81,NW,315,4.5,6.7,30,0.00,,---,0.00,VWS V14.01,2013-03-17 02:36:00,
2013-03-16 20:37:00,60.1,28.6,29.81,North,0,6.7,6.7,30,0.00,,---,0.00,VWS V14.01,2013-03-17 02:37:00,
2013-03-16 20:38:00,60.1,28.6,29.81,NNW,338,4.0,6.7,30,0.00,,---,0.00,VWS V14.01,2013-03-17 02:38:00,
2013-03-16 20:39:00,60.1,28.6,29.81,NW,315,3.8,4.0,30,0.00,,---,0.00,VWS V14.01,2013-03-17 02:39:00,
2013-03-16 20:40:00,60.1,28.6,29.81,NW,315,3.8,3.8,30,0.00,,---,0.00,VWS V14.01,2013-03-17 02:40:00,
2013-03-16 20:41:00,60.1,27.8,29.81,North,0,4.7,5.6,29,0.00,,---,0.00,VWS V14.01,2013-03-17 02:41:00,
2013-03-16 20:42:00,60.1,27.8,29.81,NNE,22,6.3,6.3,29,0.00,,---,0.00,VWS V14.01,2013-03-17 02:42:00,
2013-03-16 20:43:00,60.3,27.9,29.81,North,0,8.3,8.3,29,0.00,,---,0.00,VWS V14.01,2013-03-17 02:43:00,
2013-03-16 20:44:00,60.3,27.9,29.81,NNE,22,10.5,10.5,29,0.00,,---,0.00,VWS V14.01,2013-03-17 02:44:00,
2013-03-16 20:45:00,60.3,27.9,29.81,NNE,22,10.5,10.5,29,0.00,,---,0.00,VWS V14.01,2013-03-17 02:45:00,
2013-03-16 20:46:00,60.5,28.1,29.81,North,0,7.8,7.8,29,0.00,,---,0.00,VWS V14.01,2013-03-17 02:46:00,
2013-03-16 20:47:00,60.5,28.1,29.81,North,0,4.5,7.8,29,0.00,,---,0.00,VWS V14.01,2013-03-17 02:47:00,
2013-03-16 20:48:00,60.5,28.1,29.81,North,0,5.1,5.1,29,0.00,,---,0.00,VWS V14.01,2013-03-17 02:48:00,
2013-03-16 20:49:00,60.5,28.1,29.81,NNE,22,2.5,5.1,29,0.00,,---,0.00,VWS V14.01,2013-03-17 02:49:00,
2013-03-16 20:50:00,60.5,28.1,29.81,NNE,22,2.5,2.5,29,0.00,,---,0.00,VWS V14.01,2013-03-17 02:50:00,
2013-03-16 20:51:00,60.5,28.1,29.81,NNE,22,6.0,6.7,29,0.00,,---,0.00,VWS V14.01,2013-03-17 02:51:00,
2013-03-16 20:52:00,60.5,28.1,29.81,NNW,338,8.9,8.9,29,0.00,,---,0.00,VWS V14.01,2013-03-17 02:52:00,
2013-03-16 20:53:00,60.5,28.1,29.81,NNW,338,10.3,10.3,29,0.00,,---,0.00,VWS V14.01,2013-03-17 02:53:00,
2013-03-16 20:54:00,60.5,28.1,29.81,NW,315,8.5,10.3,29,0.00,,---,0.00,VWS V14.01,2013-03-17 02:54:00,
2013-03-16 20:55:00,60.5,28.1,29.81,NW,315,8.5,8.5,29,0.00,,---,0.00,VWS V14.01,2013-03-17 02:55:00,
2013-03-16 20:56:00,60.3,27.9,29.81,NW,315,6.5,8.5,29,0.00,,---,0.00,VWS V14.01,2013-03-17 02:56:00,
2013-03-16 20:57:00,60.3,27.9,29.81,North,0,9.8,9.8,29,0.00,,---,0.00,VWS V14.01,2013-03-17 02:57:00,
2013-03-16 20:58:00,60.3,27.9,29.81,NW,315,6.9,9.8,29,0.00,,---,0.00,VWS V14.01,2013-03-17 02:58:00,
2013-03-16 20:59:00,60.3,27.9,29.81,NNE,22,3.4,6.9,29,0.00,,---,0.00,VWS V14.01,2013-03-17 02:59:00,
2013-03-16 21:00:00,60.3,27.9,29.81,WNW,292,2.7,2.7,29,0.00,,---,0.00,VWS V14.01,2013-03-17 03:00:00,
2013-03-16 21:01:00,60.3,27.9,29.81,NNE,22,5.1,5.1,29,0.00,,---,0.00,VWS V14.01,2013-03-17 03:01:00,
2013-03-16 21:02:00,60.1,27.8,29.81,North,0,3.4,5.1,29,0.00,,---,0.00,VWS V14.01,2013-03-17 03:02:00,
2013-03-16 21:03:00,60.1,27.8,29.81,NNW,338,3.1,3.4,29,0.00,,---,0.00,VWS V14.01,2013-03-17 03:03:00,
2013-03-16 21:04:00,60.1,27.8,29.81,NNW,338,5.6,5.6,29,0.00,,---,0.00,VWS V14.01,2013-03-17 03:04:00,
2013-03-16 21:05:00,60.1,27.8,29.81,NW,315,3.8,5.6,29,0.00,,---,0.00,VWS V14.01,2013-03-17 03:05:00,
2013-03-16 21:06:00,60.1,27.8,29.82,NNW,338,4.5,4.5,29,0.00,,---,0.00,VWS V14.01,2013-03-17 03:06:00,
2013-03-16 21:07:00,60.1,27.8,29.82,NNE,22,8.9,8.9,29,0.00,,---,0.00,VWS V14.01,2013-03-17 03:07:00,
2013-03-16 21:08:00,60.3,27.9,29.82,NW,315,6.9,8.9,29,0.00,,---,0.00,VWS V14.01,2013-03-17 03:08:00,
2013-03-16 21:09:00,60.3,27.9,29.82,NW,315,10.3,10.3,29,0.00,,---,0.00,VWS V14.01,2013-03-17 03:09:00,
2013-03-16 21:10:00,60.5,28.1,29.82,NNW,338,3.8,10.3,29,0.00,,---,0.00,VWS V14.01,2013-03-17 03:10:00,
2013-03-16 21:11:00,60.5,28.1,29.82,NW,315,7.6,7.6,29,0.00,,---,0.00,VWS V14.01,2013-03-17 03:11:00,
2013-03-16 21:12:00,60.5,28.1,29.82,NNE,22,7.6,7.6,29,0.00,,---,0.00,VWS V14.01,2013-03-17 03:12:00,
2013-03-16 21:13:00,60.5,28.1,29.82,NNE,22,7.8,7.8,29,0.00,,---,0.00,VWS V14.01,2013-03-17 03:13:00,
2013-03-16 21:14:00,60.5,28.1,29.82,North,0,11.6,11.6,29,0.00,,---,0.00,VWS V14.01,2013-03-17 03:14:00,
2013-03-16 21:15:00,60.5,28.1,29.82,North,0,11.6,11.6,29,0.00,,---,0.00,VWS V14.01,2013-03-17 03:15:00,
2013-03-16 21:16:00,60.3,27.9,29.82,NNW,338,9.6,9.6,29,0.00,,---,0.00,VWS V14.01,2013-03-17 03:16:00,
2013-03-16 21:17:00,60.3,27.9,29.82,NNE,22,6.9,9.6,29,0.00,,---,0.00,VWS V14.01,2013-03-17 03:17:00,
2013-03-16 21:18:00,60.3,27.9,29.82,NNW,338,6.3,6.9,29,0.00,,---,0.00,VWS V14.01,2013-03-17 03:18:00,
2013-03-16 21:19:00,60.3,27.9,29.82,NE,45,11.4,11.4,29,0.00,,---,0.00,VWS V14.01,2013-03-17 03:19:00,
2013-03-16 21:20:00,60.3,27.9,29.82,NE,45,11.4,11.4,29,0.00,,---,0.00,VWS V14.01,2013-03-17 03:20:00,
2013-03-16 21:21:00,60.3,27.9,29.82,North,0,6.9,6.9,29,0.00,,---,0.00,VWS V14.01,2013-03-17 03:21:00,
2013-03-16 21:22:00,60.3,27.9,29.82,North,0,9.2,9.2,29,0.00,,---,0.00,VWS V14.01,2013-03-17 03:22:00,
2013-03-16 21:23:00,60.3,27.9,29.81,North,0,5.4,9.2,29,0.00,,---,0.00,VWS V14.01,2013-03-17 03:23:00,
2013-03-16 21:24:00,60.3,27.9,29.81,NE,45,14.5,14.5,29,0.00,,---,0.00,VWS V14.01,2013-03-17 03:24:00,
2013-03-16 21:25:00,60.3,27.9,29.81,NE,45,14.5,14.5,29,0.00,,---,0.00,VWS V14.01,2013-03-17 03:25:00,
2013-03-16 21:26:00,60.3,27.9,29.82,NNE,22,6.0,8.3,29,0.00,,---,0.00,VWS V14.01,2013-03-17 03:26:00,
2013-03-16 21:27:00,60.3,27.9,29.82,North,0,11.0,11.0,29,0.00,,---,0.00,VWS V14.01,2013-03-17 03:27:00,
2013-03-16 21:28:00,60.3,27.9,29.81,NNE,22,10.5,11.0,29,0.00,,---,0.00,VWS V14.01,2013-03-17 03:28:00,
2013-03-16 21:29:00,60.3,27.9,29.82,North,0,8.1,10.5,29,0.00,,---,0.00,VWS V14.01,2013-03-17 03:29:00,
2013-03-16 21:30:00,60.3,27.9,29.82,North,0,8.1,8.1,29,0.00,,---,0.00,VWS V14.01,2013-03-17 03:30:00,
2013-03-16 21:31:00,60.5,28.1,29.82,NNE,22,2.7,6.3,29,0.00,,---,0.00,VWS V14.01,2013-03-17 03:31:00,
2013-03-16 21:32:00,60.5,28.1,29.82,NNW,338,10.7,10.7,29,0.00,,---,0.00,VWS V14.01,2013-03-17 03:32:00,
2013-03-16 21:33:00,60.5,28.1,29.81,NNE,22,2.9,10.7,29,0.00,,---,0.00,VWS V14.01,2013-03-17 03:33:00,
2013-03-16 21:34:00,60.5,28.1,29.82,NNW,338,3.4,3.4,29,0.00,,---,0.00,VWS V14.01,2013-03-17 03:34:00,
2013-03-16 21:35:00,60.5,28.1,29.82,NNW,338,3.4,3.4,29,0.00,,---,0.00,VWS V14.01,2013-03-17 03:35:00,
2013-03-16 21:36:00,60.5,28.1,29.81,North,0,9.2,9.2,29,0.00,,---,0.00,VWS V14.01,2013-03-17 03:36:00,
2013-03-16 21:37:00,60.5,28.1,29.82,North,0,4.7,9.2,29,0.00,,---,0.00,VWS V14.01,2013-03-17 03:37:00,
2013-03-16 21:38:00,60.5,28.1,29.82,NNW,338,6.5,6.5,29,0.00,,---,0.00,VWS V14.01,2013-03-17 03:38:00,
2013-03-16 21:39:00,60.5,28.1,29.82,North,0,4.0,6.5,29,0.00,,---,0.00,VWS V14.01,2013-03-17 03:39:00,
2013-03-16 21:40:00,60.5,28.1,29.82,North,0,4.0,4.0,29,0.00,,---,0.00,VWS V14.01,2013-03-17 03:40:00,
2013-03-16 21:41:00,60.5,28.1,29.81,NE,45,3.8,3.8,29,0.00,,---,0.00,VWS V14.01,2013-03-17 03:41:00,
2013-03-16 21:42:00,60.5,28.1,29.81,NW,315,2.7,3.8,29,0.00,,---,0.00,VWS V14.01,2013-03-17 03:42:00,
2013-03-16 21:43:00,60.3,27.9,29.81,NNW,338,4.9,4.9,29,0.00,,---,0.00,VWS V14.01,2013-03-17 03:43:00,
2013-03-16 21:44:00,60.3,27.9,29.81,NNW,338,4.3,4.9,29,0.00,,---,0.00,VWS V14.01,2013-03-17 03:44:00,
2013-03-16 21:45:00,60.3,27.9,29.81,NNW,338,4.3,4.3,29,0.00,,---,0.00,VWS V14.01,2013-03-17 03:45:00,
2013-03-16 21:46:00,60.3,27.9,29.81,NNE,22,6.3,6.3,29,0.00,,---,0.00,VWS V14.01,2013-03-17 03:46:00,
2013-03-16 21:47:00,60.3,27.9,29.81,NNW,338,4.9,6.3,29,0.00,,---,0.00,VWS V14.01,2013-03-17 03:47:00,
2013-03-16 21:48:00,60.1,27.8,29.81,NNE,22,4.7,4.9,29,0.00,,---,0.00,VWS V14.01,2013-03-17 03:48:00,
2013-03-16 21:49:00,60.1,27.8,29.81,NE,45,5.6,5.6,29,0.00,,---,0.00,VWS V14.01,2013-03-17 03:49:00,
2013-03-16 21:50:00,60.1,27.8,29.81,NE,45,5.6,5.6,29,0.00,,---,0.00,VWS V14.01,2013-03-17 03:50:00,
2013-03-16 21:51:00,60.1,27.8,29.81,North,0,3.6,4.0,29,0.00,,---,0.00,VWS V14.01,2013-03-17 03:51:00,
2013-03-16 21:52:00,60.1,27.8,29.81,North,0,4.0,4.0,29,0.00,,---,0.00,VWS V14.01,2013-03-17 03:52:00,
2013-03-16 21:53:00,60.1,27.8,29.81,NW,315,3.4,4.0,29,0.00,,---,0.00,VWS V14.01,2013-03-17 03:53:00,
2013-03-16 21:54:00,60.1,27.8,29.81,NNE,22,4.7,4.7,29,0.00,,---,0.00,VWS V14.01,2013-03-17 03:54:00,
2013-03-16 21:55:00,60.1,27.8,29.81,NNE,22,4.7,4.7,29,0.00,,---,0.00,VWS V14.01,2013-03-17 03:55:00,
2013-03-16 21:56:00,60.1,27.8,29.81,NE,45,5.1,5.8,29,0.00,,---,0.00,VWS V14.01,2013-03-17 03:56:00,
2013-03-16 21:57:00,60.1,27.8,29.81,NNE,22,4.7,5.1,29,0.00,,---,0.00,VWS V14.01,2013-03-17 03:57:00,
2013-03-16 21:58:00,60.1,27.8,29.81,North,0,4.0,4.7,29,0.00,,---,0.00,VWS V14.01,2013-03-17 03:58:00,
2013-03-16 21:59:00,60.1,27.8,29.81,NNE,22,2.7,4.0,29,0.00,,---,0.00,VWS V14.01,2013-03-17 03:59:00,
2013-03-16 22:00:00,60.1,27.8,29.81,NNE,22,2.7,2.7,29,0.00,,---,0.00,VWS V14.01,2013-03-17 04:00:00,
2013-03-16 22:01:00,60.1,27.8,29.81,NW,315,2.0,4.0,29,0.00,,---,0.00,VWS V14.01,2013-03-17 04:01:00,
2013-03-16 22:02:00,60.1,27.8,29.82,North,0,2.5,2.5,29,0.00,,---,0.00,VWS V14.01,2013-03-17 04:02:00,
2013-03-16 22:03:00,59.9,27.6,29.82,North,0,2.2,2.5,29,0.00,,---,0.00,VWS V14.01,2013-03-17 04:03:00,
2013-03-16 22:04:00,59.9,27.6,29.82,NNW,338,5.4,5.4,29,0.00,,---,0.00,VWS V14.01,2013-03-17 04:04:00,
2013-03-16 22:05:00,59.9,27.6,29.82,NNW,338,3.4,3.4,29,0.00,,---,0.00,VWS V14.01,2013-03-17 04:05:00,
2013-03-16 22:06:00,59.9,27.6,29.82,NW,315,1.6,3.4,29,0.00,,---,0.00,VWS V14.01,2013-03-17 04:06:00,
2013-03-16 22:07:00,59.8,27.5,29.82,WSW,248,2.7,2.7,29,0.00,,---,0.00,VWS V14.01,2013-03-17 04:07:00,
2013-03-16 22:08:00,59.8,28.3,29.82,NNW,338,3.4,3.4,30,0.00,,---,0.00,VWS V14.01,2013-03-17 04:08:00,
2013-03-16 22:09:00,59.8,27.5,29.83,NNW,338,2.5,3.4,29,0.00,,---,0.00,VWS V14.01,2013-03-17 04:09:00,
2013-03-16 22:10:00,59.8,27.5,29.83,NW,315,3.1,3.1,29,0.00,,---,0.00,VWS V14.01,2013-03-17 04:10:00,
2013-03-16 22:11:00,59.8,28.3,29.83,North,0,4.5,4.5,30,0.00,,---,0.00,VWS V14.01,2013-03-17 04:11:00,
2013-03-16 22:12:00,59.8,28.3,29.83,NW,315,4.7,4.7,30,0.00,,---,0.00,VWS V14.01,2013-03-17 04:12:00,
2013-03-16 22:13:00,59.8,28.3,29.83,WNW,292,5.6,5.6,30,0.00,,---,0.00,VWS V14.01,2013-03-17 04:13:00,
2013-03-16 22:14:00,59.8,28.3,29.83,NW,315,5.6,5.6,30,0.00,,---,0.00,VWS V14.01,2013-03-17 04:14:00,
2013-03-16 22:15:00,59.8,28.3,29.83,NW,315,3.8,3.8,30,0.00,,---,0.00,VWS V14.01,2013-03-17 04:15:00,
2013-03-16 22:16:00,59.8,28.3,29.83,NNW,338,7.2,7.2,30,0.00,,---,0.00,VWS V14.01,2013-03-17 04:16:00,
2013-03-16 22:17:00,59.8,28.3,29.83,NW,315,3.8,7.2,30,0.00,,---,0.00,VWS V14.01,2013-03-17 04:17:00,
2013-03-16 22:18:00,59.6,28.1,29.84,NW,315,4.0,4.0,30,0.00,,---,0.00,VWS V14.01,2013-03-17 04:18:00,
2013-03-16 22:19:00,59.6,29.0,29.84,NNW,338,2.9,4.0,31,0.00,,---,0.00,VWS V14.01,2013-03-17 04:19:00,
2013-03-16 22:20:00,59.6,28.1,29.84,NNW,338,4.7,4.7,30,0.00,,---,0.00,VWS V14.01,2013-03-17 04:20:00,
2013-03-16 22:21:00,59.4,28.0,29.84,NW,315,4.0,4.7,30,0.00,,---,0.00,VWS V14.01,2013-03-17 04:21:00,
2013-03-16 22:22:00,59.4,28.8,29.84,NW,315,4.0,4.0,31,0.00,,---,0.00,VWS V14.01,2013-03-17 04:22:00,
2013-03-16 22:23:00,59.4,28.8,29.84,NW,315,7.4,7.4,31,0.00,,---,0.00,VWS V14.01,2013-03-17 04:23:00,
2013-03-16 22:24:00,59.4,28.8,29.84,WNW,292,3.4,7.4,31,0.00,,---,0.00,VWS V14.01,2013-03-17 04:24:00,
2013-03-16 22:25:00,59.4,28.8,29.84,NW,315,2.2,2.2,31,0.00,,---,0.00,VWS V14.01,2013-03-17 04:25:00,
2013-03-16 22:26:00,59.2,28.6,29.84,NNW,338,4.0,4.0,31,0.00,,---,0.00,VWS V14.01,2013-03-17 04:26:00,
2013-03-16 22:27:00,59.2,28.6,29.84,NW,315,6.3,6.3,31,0.00,,---,0.00,VWS V14.01,2013-03-17 04:27:00,
2013-03-16 22:28:00,59.0,29.2,29.84,WNW,292,6.9,6.9,32,0.00,,---,0.00,VWS V14.01,2013-03-17 04:28:00,
2013-03-16 22:29:00,59.0,28.4,29.84,WNW,292,1.8,6.9,31,0.00,,---,0.00,VWS V14.01,2013-03-17 04:29:00,
2013-03-16 22:30:00,59.0,29.2,29.85,WNW,292,6.0,6.0,32,0.00,,---,0.00,VWS V14.01,2013-03-17 04:30:00,
2013-03-16 22:31:00,59.0,29.2,29.85,NNW,338,2.7,6.0,32,0.00,,---,0.00,VWS V14.01,2013-03-17 04:31:00,
2013-03-16 22:32:00,59.0,29.2,29.85,WNW,292,1.8,2.7,32,0.00,,---,0.00,VWS V14.01,2013-03-17 04:32:00,
2013-03-16 22:33:00,58.9,29.1,29.85,NNW,338,4.3,4.3,32,0.00,,---,0.00,VWS V14.01,2013-03-17 04:33:00,
2013-03-16 22:34:00,58.9,29.1,29.85,WNW,292,3.8,4.3,32,0.00,,---,0.00,VWS V14.01,2013-03-17 04:34:00,
2013-03-16 22:35:00,58.9,29.1,29.85,NNW,338,3.4,3.4,32,0.00,,---,0.00,VWS V14.01,2013-03-17 04:35:00,
2013-03-16 22:36:00,58.7,28.9,29.85,NW,315,3.8,3.8,32,0.00,,---,0.00,VWS V14.01,2013-03-17 04:36:00,
2013-03-16 22:37:00,58.7,28.9,29.86,NW,315,6.0,6.0,32,0.00,,---,0.00,VWS V14.01,2013-03-17 04:37:00,
2013-03-16 22:38:00,58.7,28.9,29.86,West,270,6.3,6.3,32,0.00,,---,0.00,VWS V14.01,2013-03-17 04:38:00,
2013-03-16 22:39:00,58.7,28.9,29.86,WNW,292,4.0,6.3,32,0.00,,---,0.00,VWS V14.01,2013-03-17 04:39:00,
2013-03-16 22:40:00,58.7,28.9,29.86,WNW,292,6.3,6.3,32,0.00,,---,0.00,VWS V14.01,2013-03-17 04:40:00,
2013-03-16 22:41:00,58.7,28.9,29.86,West,270,7.8,7.8,32,0.00,,---,0.00,VWS V14.01,2013-03-17 04:41:00,
2013-03-16 22:42:00,58.7,29.7,29.87,West,270,10.3,10.3,33,0.00,,---,0.00,VWS V14.01,2013-03-17 04:42:00,
2013-03-16 22:43:00,58.5,30.2,29.87,WSW,248,11.9,11.9,34,0.00,,---,0.00,VWS V14.01,2013-03-17 04:43:00,
2013-03-16 22:44:00,58.1,30.6,29.87,West,270,15.7,15.7,35,0.00,,---,0.00,VWS V14.01,2013-03-17 04:44:00,
2013-03-16 22:45:00,57.8,31.0,29.87,WNW,292,11.2,15.7,36,0.00,,---,0.00,VWS V14.01,2013-03-17 04:45:00,
2013-03-16 22:46:00,57.4,31.4,29.87,WNW,292,10.7,11.2,37,0.00,,---,0.00,VWS V14.01,2013-03-17 04:46:00,
2013-03-16 22:47:00,57.1,31.8,29.88,WSW,248,12.8,12.8,38,0.00,,---,0.00,VWS V14.01,2013-03-17 04:47:00,
2013-03-16 22:48:00,56.5,31.2,29.88,WNW,292,11.6,12.8,38,0.00,,---,0.00,VWS V14.01,2013-03-17 04:48:00,
2013-03-16 22:49:00,56.3,31.7,29.88,WNW,292,9.8,11.6,39,0.00,,---,0.00,VWS V14.01,2013-03-17 04:49:00,
2013-03-16 22:50:00,56.3,31.7,29.88,WNW,292,9.8,9.8,39,0.00,,---,0.00,VWS V14.01,2013-03-17 04:50:00,
2013-03-16 22:51:00,55.8,31.9,29.88,WSW,248,13.4,15.0,40,0.00,,---,0.00,VWS V14.01,2013-03-17 04:51:00,
2013-03-16 22:52:00,55.4,32.1,29.88,WNW,292,9.8,13.4,41,0.00,,---,0.00,VWS V14.01,2013-03-17 04:52:00,
2013-03-16 22:53:00,55.4,32.1,29.88,NW,315,6.7,9.8,41,0.00,,---,0.00,VWS V14.01,2013-03-17 04:53:00,
2013-03-16 22:54:00,55.1,32.4,29.88,North,0,6.9,6.9,42,0.00,,---,0.00,VWS V14.01,2013-03-17 04:54:00,
2013-03-16 22:55:00,55.1,32.4,29.88,North,0,6.9,6.9,42,0.00,,---,0.00,VWS V14.01,2013-03-17 04:55:00,
2013-03-16 22:56:00,54.9,32.8,29.88,West,270,7.4,8.9,43,0.00,,---,0.00,VWS V14.01,2013-03-17 04:56:00,
2013-03-16 22:57:00,54.9,32.8,29.88,NW,315,8.3,8.3,43,0.00,,---,0.00,VWS V14.01,2013-03-17 04:57:00,
2013-03-16 22:58:00,54.7,32.7,29.88,NNW,338,8.7,8.7,43,0.00,,---,0.00,VWS V14.01,2013-03-17 04:58:00,
2013-03-16 22:59:00,54.7,32.7,29.88,WNW,292,7.6,8.7,43,0.00,,---,0.00,VWS V14.01,2013-03-17 04:59:00,
2013-03-16 23:00:00,54.7,32.7,29.88,WNW,292,7.6,7.6,43,0.00,,---,0.00,VWS V14.01,2013-03-17 05:00:00,
2013-03-16 23:01:00,54.5,33.0,29.88,WNW,292,14.8,14.8,44,0.00,,---,0.00,VWS V14.01,2013-03-17 05:01:00,
2013-03-16 23:02:00,54.4,33.0,29.88,WNW,292,12.5,14.8,44,0.00,,---,0.00,VWS V14.01,2013-03-17 05:02:00,
2013-03-16 23:03:00,54.4,33.0,29.88,NW,315,4.7,12.5,44,0.00,,---,0.00,VWS V14.01,2013-03-17 05:03:00,
2013-03-16 23:04:00,54.4,33.0,29.88,NW,315,8.5,8.5,44,0.00,,---,0.00,VWS V14.01,2013-03-17 05:04:00,
2013-03-16 23:05:00,54.2,33.3,29.88,NW,315,13.9,13.9,45,0.00,,---,0.00,VWS V14.01,2013-03-17 05:05:00,
2013-03-16 23:06:00,54.2,33.3,29.88,NNW,338,8.9,13.9,45,0.00,,---,0.00,VWS V14.01,2013-03-17 05:06:00,
2013-03-16 23:07:00,54.0,33.2,29.88,NW,315,8.3,8.9,45,0.00,,---,0.00,VWS V14.01,2013-03-17 05:07:00,
2013-03-16 23:08:00,54.0,33.2,29.88,WNW,292,8.5,8.5,45,0.00,,---,0.00,VWS V14.01,2013-03-17 05:08:00,
2013-03-16 23:09:00,53.8,33.0,29.88,NNW,338,5.4,8.5,45,0.00,,---,0.00,VWS V14.01,2013-03-17 05:09:00,
2013-03-16 23:10:00,53.8,33.5,29.88,NW,315,9.2,9.2,46,0.00,,---,0.00,VWS V14.01,2013-03-17 05:10:00,
2013-03-16 23:11:00,53.6,33.3,29.88,NW,315,5.6,9.2,46,0.00,,---,0.00,VWS V14.01,2013-03-17 05:11:00,
2013-03-16 23:12:00,53.6,33.3,29.88,NNW,338,4.3,5.6,46,0.00,,---,0.00,VWS V14.01,2013-03-17 05:12:00,
2013-03-16 23:13:00,53.6,33.3,29.88,WSW,248,4.7,4.7,46,0.00,,---,0.00,VWS V14.01,2013-03-17 05:13:00,
2013-03-16 23:14:00,53.6,33.3,29.88,NNW,338,14.5,14.5,46,0.00,,---,0.00,VWS V14.01,2013-03-17 05:14:00,
2013-03-16 23:15:00,53.5,33.2,29.88,NW,315,7.6,7.6,46,0.00,,---,0.00,VWS V14.01,2013-03-17 05:15:00,
2013-03-16 23:16:00,53.3,33.1,29.88,WNW,292,6.5,7.6,46,0.00,,---,0.00,VWS V14.01,2013-03-17 05:16:00,
2013-03-16 23:17:00,53.3,33.1,29.88,NNW,338,7.6,7.6,46,0.00,,---,0.00,VWS V14.01,2013-03-17 05:17:00,
2013-03-16 23:18:00,53.3,33.1,29.88,WNW,292,4.0,7.6,46,0.00,,---,0.00,VWS V14.01,2013-03-17 05:18:00,
2013-03-16 23:19:00,53.3,33.1,29.88,WNW,292,5.4,5.4,46,0.00,,---,0.00,VWS V14.01,2013-03-17 05:19:00,
2013-03-16 23:20:00,53.3,33.1,29.88,NW,315,6.9,6.9,46,0.00,,---,0.00,VWS V14.01,2013-03-17 05:20:00,
2013-03-16 23:21:00,53.1,32.9,29.88,NW,315,4.7,6.9,46,0.00,,---,0.00,VWS V14.01,2013-03-17 05:21:00,
2013-03-16 23:22:00,53.1,32.9,29.88,NW,315,4.9,4.9,46,0.00,,---,0.00,VWS V14.01,2013-03-17 05:22:00,
2013-03-16 23:23:00,53.1,32.9,29.88,NW,315,4.0,4.9,46,0.00,,---,0.00,VWS V14.01,2013-03-17 05:23:00,
2013-03-16 23:24:00,53.1,32.9,29.88,NW,315,4.7,4.7,46,0.00,,---,0.00,VWS V14.01,2013-03-17 05:24:00,
2013-03-16 23:25:00,52.9,32.7,29.88,NW,315,6.3,6.3,46,0.00,,---,0.00,VWS V14.01,2013-03-17 05:25:00,
2013-03-16 23:26:00,53.1,32.9,29.88,NW,315,7.8,7.8,46,0.00,,---,0.00,VWS V14.01,2013-03-17 05:26:00,
2013-03-16 23:27:00,52.9,32.7,29.88,North,0,7.2,7.8,46,0.00,,---,0.00,VWS V14.01,2013-03-17 05:27:00,
2013-03-16 23:28:00,52.9,32.2,29.88,NNW,338,11.4,11.4,45,0.00,,---,0.00,VWS V14.01,2013-03-17 05:28:00,
2013-03-16 23:29:00,52.9,32.2,29.88,WNW,292,7.8,11.4,45,0.00,,---,0.00,VWS V14.01,2013-03-17 05:29:00,
2013-03-16 23:30:00,52.9,32.2,29.88,WNW,292,5.1,5.1,45,0.00,,---,0.00,VWS V14.01,2013-03-17 05:30:00,
2013-03-16 23:31:00,52.9,32.2,29.88,NW,315,3.4,5.1,45,0.00,,---,0.00,VWS V14.01,2013-03-17 05:31:00,
2013-03-16 23:32:00,52.9,32.2,29.88,NW,315,7.6,7.6,45,0.00,,---,0.00,VWS V14.01,2013-03-17 05:32:00,
2013-03-16 23:33:00,52.9,32.2,29.89,NNW,338,10.7,10.7,45,0.00,,---,0.00,VWS V14.01,2013-03-17 05:33:00,
2013-03-16 23:34:00,52.9,31.6,29.88,NW,315,5.4,10.7,44,0.00,,---,0.00,VWS V14.01,2013-03-17 05:34:00,
2013-03-16 23:35:00,52.9,32.2,29.89,NW,315,7.6,7.6,45,0.00,,---,0.00,VWS V14.01,2013-03-17 05:35:00,
2013-03-16 23:36:00,52.9,31.6,29.89,NNW,338,8.7,8.7,44,0.00,,---,0.00,VWS V14.01,2013-03-17 05:36:00,
2013-03-16 23:37:00,52.9,31.6,29.89,NNW,338,8.1,8.7,44,0.00,,---,0.00,VWS V14.01,2013-03-17 05:37:00,
2013-03-16 23:38:00,52.9,31.6,29.89,NNE,22,4.0,8.1,44,0.00,,---,0.00,VWS V14.01,2013-03-17 05:38:00,
2013-03-16 23:39:00,52.9,31.6,29.88,NW,315,3.8,4.0,44,0.00,,---,0.00,VWS V14.01,2013-03-17 05:39:00,
2013-03-16 23:40:00,52.9,31.6,29.88,NNW,338,6.7,6.7,44,0.00,,---,0.00,VWS V14.01,2013-03-17 05:40:00,
2013-03-16 23:41:00,52.9,31.6,29.88,NNW,338,7.2,7.2,44,0.00,,---,0.00,VWS V14.01,2013-03-17 05:41:00,
2013-03-16 23:42:00,52.9,31.6,29.88,NW,315,7.2,7.2,44,0.00,,---,0.00,VWS V14.01,2013-03-17 05:42:00,
2013-03-16 23:43:00,52.9,31.6,29.88,NNW,338,8.7,8.7,44,0.00,,---,0.00,VWS V14.01,2013-03-17 05:43:00,
2013-03-16 23:44:00,52.9,31.6,29.89,NNW,338,7.2,8.7,44,0.00,,---,0.00,VWS V14.01,2013-03-17 05:44:00,
2013-03-16 23:45:00,52.9,31.6,29.88,NW,315,11.2,11.2,44,0.00,,---,0.00,VWS V14.01,2013-03-17 05:45:00,
2013-03-16 23:46:00,52.9,31.6,29.88,NNW,338,8.3,11.2,44,0.00,,---,0.00,VWS V14.01,2013-03-17 05:46:00,
2013-03-16 23:47:00,53.1,31.8,29.88,North,0,4.0,8.3,44,0.00,,---,0.00,VWS V14.01,2013-03-17 05:47:00,
2013-03-16 23:48:00,53.1,31.8,29.88,NW,315,6.3,6.3,44,0.00,,---,0.00,VWS V14.01,2013-03-17 05:48:00,
2013-03-16 23:49:00,53.1,31.8,29.88,NW,315,8.9,8.9,44,0.00,,---,0.00,VWS V14.01,2013-03-17 05:49:00,
2013-03-16 23:50:00,53.1,31.8,29.88,NW,315,8.9,8.9,44,0.00,,---,0.00,VWS V14.01,2013-03-17 05:50:00,
2013-03-16 23:51:00,53.1,31.8,29.88,NNW,338,5.4,5.4,44,0.00,,---,0.00,VWS V14.01,2013-03-17 05:51:00,
2013-03-16 23:52:00,53.1,31.8,29.88,NNE,22,2.5,5.4,44,0.00,,---,0.00,VWS V14.01,2013-03-17 05:52:00,
2013-03-16 23:53:00,52.9,31.6,29.88,North,0,4.0,4.0,44,0.00,,---,0.00,VWS V14.01,2013-03-17 05:53:00,
2013-03-16 23:54:00,52.9,31.6,29.88,NE,45,2.5,4.0,44,0.00,,---,0.00,VWS V14.01,2013-03-17 05:54:00,
2013-03-16 23:55:00,52.9,31.6,29.88,NE,45,2.5,2.5,44,0.00,,---,0.00,VWS V14.01,2013-03-17 05:55:00,
2013-03-16 23:56:00,52.9,31.6,29.88,NNW,338,3.8,10.5,44,0.00,,---,0.00,VWS V14.01,2013-03-17 05:56:00,
2013-03-16 23:57:00,52.9,31.6,29.88,NNW,338,7.2,7.2,44,0.00,,---,0.00,VWS V14.01,2013-03-17 05:57:00,
2013-03-16 23:58:00,52.9,31.6,29.88,NNW,338,4.3,7.2,44,0.00,,---,0.00,VWS V14.01,2013-03-17 05:58:00,
2013-03-16 23:59:00,52.9,31.6,29.88,NNW,338,6.5,6.5,44,0.00,,---,0.00,VWS V14.01,2013-03-17 05:59:00,